<?xml version="1.0" encoding="UTF-8" standalone="no" ?>
<gpx xmlns="http://www.topografix.com/GPX/1/1" xmlns:xsi="http://www.w3.org/2001/XMLSchema-instance" xsi:schemaLocation="http://www.topografix.com/GPX/1/1 http://www.topografix.com/GPX/1/1/gpx.xsd" version="1.1" creator="VisuGPX - https://www.visugpx.com">
  <metadata>
    <name>ampiac - La cureye - Ayssens - Lamayou</name>
    <desc><![CDATA[19 février 2013]]></desc>
  </metadata>
  <trk>
    <name><![CDATA[19 févr. 2013 14:28:37]]></name>
    <cmt><![CDATA[19 févr. 2013 14:28:37]]></cmt>
    <trkseg>
      <trkpt lat="44.34932" lon="2.48823">
        <ele>618.9</ele>
        <time>2013-02-19T13:28:39Z</time>
      </trkpt>
      <trkpt lat="44.34924" lon="2.48807">
        <ele>632</ele>
        <time>2013-02-19T13:28:43Z</time>
      </trkpt>
      <trkpt lat="44.34909" lon="2.48818">
        <ele>637</ele>
        <time>2013-02-19T13:28:57Z</time>
      </trkpt>
      <trkpt lat="44.34899" lon="2.4882">
        <ele>635</ele>
        <time>2013-02-19T13:29:03Z</time>
      </trkpt>
      <trkpt lat="44.34889" lon="2.4882">
        <ele>633</ele>
        <time>2013-02-19T13:29:08Z</time>
      </trkpt>
      <trkpt lat="44.3488" lon="2.48818">
        <ele>632</ele>
        <time>2013-02-19T13:29:13Z</time>
      </trkpt>
      <trkpt lat="44.34869" lon="2.4882">
        <ele>631</ele>
        <time>2013-02-19T13:29:17Z</time>
      </trkpt>
      <trkpt lat="44.3486" lon="2.48823">
        <ele>629</ele>
        <time>2013-02-19T13:29:21Z</time>
      </trkpt>
      <trkpt lat="44.34852" lon="2.48825">
        <ele>627</ele>
        <time>2013-02-19T13:29:26Z</time>
      </trkpt>
      <trkpt lat="44.34846" lon="2.48828">
        <ele>623</ele>
        <time>2013-02-19T13:29:30Z</time>
      </trkpt>
      <trkpt lat="44.34839" lon="2.48832">
        <ele>621</ele>
        <time>2013-02-19T13:29:35Z</time>
      </trkpt>
      <trkpt lat="44.3483" lon="2.48831">
        <ele>618</ele>
        <time>2013-02-19T13:29:42Z</time>
      </trkpt>
      <trkpt lat="44.34834" lon="2.48819">
        <ele>614</ele>
        <time>2013-02-19T13:29:52Z</time>
      </trkpt>
      <trkpt lat="44.34843" lon="2.48813">
        <ele>612</ele>
        <time>2013-02-19T13:29:58Z</time>
      </trkpt>
      <trkpt lat="44.34842" lon="2.48802">
        <ele>606</ele>
        <time>2013-02-19T13:30:15Z</time>
      </trkpt>
      <trkpt lat="44.34833" lon="2.48805">
        <ele>606</ele>
        <time>2013-02-19T13:30:22Z</time>
      </trkpt>
      <trkpt lat="44.34824" lon="2.48811">
        <ele>606</ele>
        <time>2013-02-19T13:30:28Z</time>
      </trkpt>
      <trkpt lat="44.34815" lon="2.48816">
        <ele>606</ele>
        <time>2013-02-19T13:30:33Z</time>
      </trkpt>
      <trkpt lat="44.34805" lon="2.48819">
        <ele>603</ele>
        <time>2013-02-19T13:30:40Z</time>
      </trkpt>
      <trkpt lat="44.34796" lon="2.48826">
        <ele>602</ele>
        <time>2013-02-19T13:30:46Z</time>
      </trkpt>
      <trkpt lat="44.34788" lon="2.48836">
        <ele>605</ele>
        <time>2013-02-19T13:30:54Z</time>
      </trkpt>
      <trkpt lat="44.34778" lon="2.48839">
        <ele>606</ele>
        <time>2013-02-19T13:31:01Z</time>
      </trkpt>
      <trkpt lat="44.34767" lon="2.48842">
        <ele>607</ele>
        <time>2013-02-19T13:31:06Z</time>
      </trkpt>
      <trkpt lat="44.34758" lon="2.48847">
        <ele>607</ele>
        <time>2013-02-19T13:31:10Z</time>
      </trkpt>
      <trkpt lat="44.3475" lon="2.48855">
        <ele>608</ele>
        <time>2013-02-19T13:31:13Z</time>
      </trkpt>
      <trkpt lat="44.34743" lon="2.48864">
        <ele>608</ele>
        <time>2013-02-19T13:31:16Z</time>
      </trkpt>
      <trkpt lat="44.34734" lon="2.48868">
        <ele>604</ele>
        <time>2013-02-19T13:31:21Z</time>
      </trkpt>
      <trkpt lat="44.34726" lon="2.48872">
        <ele>600</ele>
        <time>2013-02-19T13:31:25Z</time>
      </trkpt>
      <trkpt lat="44.3472" lon="2.48882">
        <ele>598</ele>
        <time>2013-02-19T13:31:28Z</time>
      </trkpt>
      <trkpt lat="44.34712" lon="2.48893">
        <ele>592</ele>
        <time>2013-02-19T13:31:35Z</time>
      </trkpt>
      <trkpt lat="44.3471" lon="2.48909">
        <ele>593</ele>
        <time>2013-02-19T13:31:41Z</time>
      </trkpt>
      <trkpt lat="44.34703" lon="2.48913">
        <ele>593</ele>
        <time>2013-02-19T13:31:48Z</time>
      </trkpt>
      <trkpt lat="44.34697" lon="2.48919">
        <ele>586</ele>
        <time>2013-02-19T13:31:56Z</time>
      </trkpt>
      <trkpt lat="44.34686" lon="2.48925">
        <ele>583</ele>
        <time>2013-02-19T13:32:03Z</time>
      </trkpt>
      <trkpt lat="44.3468" lon="2.48935">
        <ele>581</ele>
        <time>2013-02-19T13:32:11Z</time>
      </trkpt>
      <trkpt lat="44.34674" lon="2.48945">
        <ele>578</ele>
        <time>2013-02-19T13:32:17Z</time>
      </trkpt>
      <trkpt lat="44.34665" lon="2.48961">
        <ele>572</ele>
        <time>2013-02-19T13:32:29Z</time>
      </trkpt>
      <trkpt lat="44.3466" lon="2.4898">
        <ele>567</ele>
        <time>2013-02-19T13:32:42Z</time>
      </trkpt>
      <trkpt lat="44.34658" lon="2.48993">
        <ele>567</ele>
        <time>2013-02-19T13:32:46Z</time>
      </trkpt>
      <trkpt lat="44.34654" lon="2.49005">
        <ele>566</ele>
        <time>2013-02-19T13:32:48Z</time>
      </trkpt>
      <trkpt lat="44.34646" lon="2.49017">
        <ele>565</ele>
        <time>2013-02-19T13:32:51Z</time>
      </trkpt>
      <trkpt lat="44.34639" lon="2.49008">
        <ele>560</ele>
        <time>2013-02-19T13:32:58Z</time>
      </trkpt>
      <trkpt lat="44.34635" lon="2.4902">
        <ele>556</ele>
        <time>2013-02-19T13:33:15Z</time>
      </trkpt>
      <trkpt lat="44.34634" lon="2.49026">
        <ele>555</ele>
        <time>2013-02-19T13:33:20Z</time>
      </trkpt>
      <trkpt lat="44.34632" lon="2.49039">
        <ele>557</ele>
        <time>2013-02-19T13:33:27Z</time>
      </trkpt>
      <trkpt lat="44.34629" lon="2.49052">
        <ele>557</ele>
        <time>2013-02-19T13:33:32Z</time>
      </trkpt>
      <trkpt lat="44.34624" lon="2.49065">
        <ele>557</ele>
        <time>2013-02-19T13:33:38Z</time>
      </trkpt>
      <trkpt lat="44.34618" lon="2.49076">
        <ele>555</ele>
        <time>2013-02-19T13:33:43Z</time>
      </trkpt>
      <trkpt lat="44.34611" lon="2.49084">
        <ele>556</ele>
        <time>2013-02-19T13:33:47Z</time>
      </trkpt>
      <trkpt lat="44.34603" lon="2.49093">
        <ele>554</ele>
        <time>2013-02-19T13:33:52Z</time>
      </trkpt>
      <trkpt lat="44.34599" lon="2.49098">
        <ele>554</ele>
        <time>2013-02-19T13:33:55Z</time>
      </trkpt>
      <trkpt lat="44.34593" lon="2.49109">
        <ele>554</ele>
        <time>2013-02-19T13:34:03Z</time>
      </trkpt>
      <trkpt lat="44.3459" lon="2.49122">
        <ele>553</ele>
        <time>2013-02-19T13:34:09Z</time>
      </trkpt>
      <trkpt lat="44.34587" lon="2.49135">
        <ele>552</ele>
        <time>2013-02-19T13:34:18Z</time>
      </trkpt>
      <trkpt lat="44.34587" lon="2.49149">
        <ele>556</ele>
        <time>2013-02-19T13:34:26Z</time>
      </trkpt>
      <trkpt lat="44.34586" lon="2.49166">
        <ele>558</ele>
        <time>2013-02-19T13:34:32Z</time>
      </trkpt>
      <trkpt lat="44.3458" lon="2.49175">
        <ele>558</ele>
        <time>2013-02-19T13:34:37Z</time>
      </trkpt>
      <trkpt lat="44.34572" lon="2.49182">
        <ele>557</ele>
        <time>2013-02-19T13:34:42Z</time>
      </trkpt>
      <trkpt lat="44.34567" lon="2.49186">
        <ele>556</ele>
        <time>2013-02-19T13:34:45Z</time>
      </trkpt>
      <trkpt lat="44.34563" lon="2.4919">
        <ele>554</ele>
        <time>2013-02-19T13:34:49Z</time>
      </trkpt>
      <trkpt lat="44.34551" lon="2.49202">
        <ele>546</ele>
        <time>2013-02-19T13:35:01Z</time>
      </trkpt>
      <trkpt lat="44.34547" lon="2.49211">
        <ele>544</ele>
        <time>2013-02-19T13:35:07Z</time>
      </trkpt>
      <trkpt lat="44.34542" lon="2.49213">
        <ele>543</ele>
        <time>2013-02-19T13:35:10Z</time>
      </trkpt>
      <trkpt lat="44.34537" lon="2.49214">
        <ele>542</ele>
        <time>2013-02-19T13:35:14Z</time>
      </trkpt>
      <trkpt lat="44.34505" lon="2.49197">
        <ele>528</ele>
        <time>2013-02-19T13:35:44Z</time>
      </trkpt>
      <trkpt lat="44.34499" lon="2.4921">
        <ele>531</ele>
        <time>2013-02-19T13:35:57Z</time>
      </trkpt>
      <trkpt lat="44.34496" lon="2.49223">
        <ele>530</ele>
        <time>2013-02-19T13:36:02Z</time>
      </trkpt>
      <trkpt lat="44.34494" lon="2.49235">
        <ele>529</ele>
        <time>2013-02-19T13:36:08Z</time>
      </trkpt>
      <trkpt lat="44.34488" lon="2.49246">
        <ele>529</ele>
        <time>2013-02-19T13:36:13Z</time>
      </trkpt>
      <trkpt lat="44.34483" lon="2.49258">
        <ele>530</ele>
        <time>2013-02-19T13:36:20Z</time>
      </trkpt>
      <trkpt lat="44.34479" lon="2.49269">
        <ele>530</ele>
        <time>2013-02-19T13:36:26Z</time>
      </trkpt>
      <trkpt lat="44.34473" lon="2.49279">
        <ele>529</ele>
        <time>2013-02-19T13:36:32Z</time>
      </trkpt>
      <trkpt lat="44.34469" lon="2.49285">
        <ele>529</ele>
        <time>2013-02-19T13:36:35Z</time>
      </trkpt>
      <trkpt lat="44.34466" lon="2.4929">
        <ele>528</ele>
        <time>2013-02-19T13:36:38Z</time>
      </trkpt>
      <trkpt lat="44.34458" lon="2.49299">
        <ele>528</ele>
        <time>2013-02-19T13:36:43Z</time>
      </trkpt>
      <trkpt lat="44.34451" lon="2.49307">
        <ele>528</ele>
        <time>2013-02-19T13:36:48Z</time>
      </trkpt>
      <trkpt lat="44.34445" lon="2.49318">
        <ele>527</ele>
        <time>2013-02-19T13:36:55Z</time>
      </trkpt>
      <trkpt lat="44.34442" lon="2.49324">
        <ele>526</ele>
        <time>2013-02-19T13:36:59Z</time>
      </trkpt>
      <trkpt lat="44.34436" lon="2.49335">
        <ele>527</ele>
        <time>2013-02-19T13:37:07Z</time>
      </trkpt>
      <trkpt lat="44.3443" lon="2.49345">
        <ele>526</ele>
        <time>2013-02-19T13:37:13Z</time>
      </trkpt>
      <trkpt lat="44.34424" lon="2.49359">
        <ele>526</ele>
        <time>2013-02-19T13:37:19Z</time>
      </trkpt>
      <trkpt lat="44.34418" lon="2.4937">
        <ele>525</ele>
        <time>2013-02-19T13:37:24Z</time>
      </trkpt>
      <trkpt lat="44.3441" lon="2.49378">
        <ele>526</ele>
        <time>2013-02-19T13:37:30Z</time>
      </trkpt>
      <trkpt lat="44.34407" lon="2.49384">
        <ele>527</ele>
        <time>2013-02-19T13:37:33Z</time>
      </trkpt>
      <trkpt lat="44.34404" lon="2.49391">
        <ele>528</ele>
        <time>2013-02-19T13:37:36Z</time>
      </trkpt>
      <trkpt lat="44.344" lon="2.49398">
        <ele>529</ele>
        <time>2013-02-19T13:37:39Z</time>
      </trkpt>
      <trkpt lat="44.34398" lon="2.49404">
        <ele>529</ele>
        <time>2013-02-19T13:37:42Z</time>
      </trkpt>
      <trkpt lat="44.34395" lon="2.4941">
        <ele>529</ele>
        <time>2013-02-19T13:37:45Z</time>
      </trkpt>
      <trkpt lat="44.34391" lon="2.49414">
        <ele>529</ele>
        <time>2013-02-19T13:37:48Z</time>
      </trkpt>
      <trkpt lat="44.34387" lon="2.49421">
        <ele>528</ele>
        <time>2013-02-19T13:37:51Z</time>
      </trkpt>
      <trkpt lat="44.34383" lon="2.49426">
        <ele>528</ele>
        <time>2013-02-19T13:37:54Z</time>
      </trkpt>
      <trkpt lat="44.34378" lon="2.4943">
        <ele>528</ele>
        <time>2013-02-19T13:37:57Z</time>
      </trkpt>
      <trkpt lat="44.34375" lon="2.49436">
        <ele>527</ele>
        <time>2013-02-19T13:38:00Z</time>
      </trkpt>
      <trkpt lat="44.34372" lon="2.49442">
        <ele>527</ele>
        <time>2013-02-19T13:38:04Z</time>
      </trkpt>
      <trkpt lat="44.34369" lon="2.49448">
        <ele>527</ele>
        <time>2013-02-19T13:38:08Z</time>
      </trkpt>
      <trkpt lat="44.34366" lon="2.49454">
        <ele>527</ele>
        <time>2013-02-19T13:38:13Z</time>
      </trkpt>
      <trkpt lat="44.34362" lon="2.49458">
        <ele>527</ele>
        <time>2013-02-19T13:38:16Z</time>
      </trkpt>
      <trkpt lat="44.34358" lon="2.49462">
        <ele>527</ele>
        <time>2013-02-19T13:38:19Z</time>
      </trkpt>
      <trkpt lat="44.34353" lon="2.49466">
        <ele>527</ele>
        <time>2013-02-19T13:38:22Z</time>
      </trkpt>
      <trkpt lat="44.34347" lon="2.4947">
        <ele>527</ele>
        <time>2013-02-19T13:38:25Z</time>
      </trkpt>
      <trkpt lat="44.34342" lon="2.49473">
        <ele>526</ele>
        <time>2013-02-19T13:38:28Z</time>
      </trkpt>
      <trkpt lat="44.34337" lon="2.49476">
        <ele>526</ele>
        <time>2013-02-19T13:38:31Z</time>
      </trkpt>
      <trkpt lat="44.34332" lon="2.49478">
        <ele>526</ele>
        <time>2013-02-19T13:38:34Z</time>
      </trkpt>
      <trkpt lat="44.34327" lon="2.4948">
        <ele>527</ele>
        <time>2013-02-19T13:38:38Z</time>
      </trkpt>
      <trkpt lat="44.34322" lon="2.49483">
        <ele>527</ele>
        <time>2013-02-19T13:38:41Z</time>
      </trkpt>
      <trkpt lat="44.34316" lon="2.49484">
        <ele>527</ele>
        <time>2013-02-19T13:39:54Z</time>
      </trkpt>
      <trkpt lat="44.34311" lon="2.49488">
        <ele>526</ele>
        <time>2013-02-19T13:39:57Z</time>
      </trkpt>
      <trkpt lat="44.34307" lon="2.49493">
        <ele>525</ele>
        <time>2013-02-19T13:40:00Z</time>
      </trkpt>
      <trkpt lat="44.34303" lon="2.49497">
        <ele>526</ele>
        <time>2013-02-19T13:40:04Z</time>
      </trkpt>
      <trkpt lat="44.34298" lon="2.49502">
        <ele>526</ele>
        <time>2013-02-19T13:40:08Z</time>
      </trkpt>
      <trkpt lat="44.34294" lon="2.49508">
        <ele>526</ele>
        <time>2013-02-19T13:40:12Z</time>
      </trkpt>
      <trkpt lat="44.34289" lon="2.49512">
        <ele>527</ele>
        <time>2013-02-19T13:40:16Z</time>
      </trkpt>
      <trkpt lat="44.34285" lon="2.49516">
        <ele>526</ele>
        <time>2013-02-19T13:40:20Z</time>
      </trkpt>
      <trkpt lat="44.34281" lon="2.49522">
        <ele>526</ele>
        <time>2013-02-19T13:40:23Z</time>
      </trkpt>
      <trkpt lat="44.34277" lon="2.49527">
        <ele>526</ele>
        <time>2013-02-19T13:40:27Z</time>
      </trkpt>
      <trkpt lat="44.34273" lon="2.49533">
        <ele>526</ele>
        <time>2013-02-19T13:40:32Z</time>
      </trkpt>
      <trkpt lat="44.34271" lon="2.49544">
        <ele>527</ele>
        <time>2013-02-19T13:40:38Z</time>
      </trkpt>
      <trkpt lat="44.34273" lon="2.4955">
        <ele>527</ele>
        <time>2013-02-19T13:40:41Z</time>
      </trkpt>
      <trkpt lat="44.34274" lon="2.49557">
        <ele>528</ele>
        <time>2013-02-19T13:40:45Z</time>
      </trkpt>
      <trkpt lat="44.34276" lon="2.49564">
        <ele>529</ele>
        <time>2013-02-19T13:40:49Z</time>
      </trkpt>
      <trkpt lat="44.34278" lon="2.49571">
        <ele>528</ele>
        <time>2013-02-19T13:40:53Z</time>
      </trkpt>
      <trkpt lat="44.34278" lon="2.49579">
        <ele>528</ele>
        <time>2013-02-19T13:40:57Z</time>
      </trkpt>
      <trkpt lat="44.34283" lon="2.49592">
        <ele>528</ele>
        <time>2013-02-19T13:41:04Z</time>
      </trkpt>
      <trkpt lat="44.34285" lon="2.49598">
        <ele>528</ele>
        <time>2013-02-19T13:41:07Z</time>
      </trkpt>
      <trkpt lat="44.34283" lon="2.49596">
        <ele>533</ele>
        <time>2013-02-19T13:42:16Z</time>
      </trkpt>
      <trkpt lat="44.34283" lon="2.49589">
        <ele>532</ele>
        <time>2013-02-19T13:42:20Z</time>
      </trkpt>
      <trkpt lat="44.34281" lon="2.49582">
        <ele>531</ele>
        <time>2013-02-19T13:42:23Z</time>
      </trkpt>
      <trkpt lat="44.34279" lon="2.49576">
        <ele>531</ele>
        <time>2013-02-19T13:42:26Z</time>
      </trkpt>
      <trkpt lat="44.34277" lon="2.49568">
        <ele>530</ele>
        <time>2013-02-19T13:42:30Z</time>
      </trkpt>
      <trkpt lat="44.34274" lon="2.49562">
        <ele>530</ele>
        <time>2013-02-19T13:42:32Z</time>
      </trkpt>
      <trkpt lat="44.34286" lon="2.49517">
        <ele>524</ele>
        <time>2013-02-19T13:45:29Z</time>
      </trkpt>
      <trkpt lat="44.34288" lon="2.49514">
        <ele>524</ele>
        <time>2013-02-19T13:45:31Z</time>
      </trkpt>
      <trkpt lat="44.34292" lon="2.49509">
        <ele>525</ele>
        <time>2013-02-19T13:45:34Z</time>
      </trkpt>
      <trkpt lat="44.34297" lon="2.49503">
        <ele>520</ele>
        <time>2013-02-19T13:45:57Z</time>
      </trkpt>
      <trkpt lat="44.34302" lon="2.49499">
        <ele>520</ele>
        <time>2013-02-19T13:46:00Z</time>
      </trkpt>
      <trkpt lat="44.34305" lon="2.49494">
        <ele>520</ele>
        <time>2013-02-19T13:46:03Z</time>
      </trkpt>
      <trkpt lat="44.343" lon="2.49482">
        <ele>520</ele>
        <time>2013-02-19T13:46:14Z</time>
      </trkpt>
      <trkpt lat="44.34291" lon="2.49479">
        <ele>520</ele>
        <time>2013-02-19T13:46:18Z</time>
      </trkpt>
      <trkpt lat="44.34285" lon="2.49479">
        <ele>521</ele>
        <time>2013-02-19T13:46:22Z</time>
      </trkpt>
      <trkpt lat="44.34275" lon="2.49478">
        <ele>520</ele>
        <time>2013-02-19T13:46:29Z</time>
      </trkpt>
      <trkpt lat="44.34269" lon="2.49477">
        <ele>520</ele>
        <time>2013-02-19T13:46:32Z</time>
      </trkpt>
      <trkpt lat="44.34261" lon="2.49475">
        <ele>519</ele>
        <time>2013-02-19T13:46:37Z</time>
      </trkpt>
      <trkpt lat="44.34256" lon="2.49474">
        <ele>519</ele>
        <time>2013-02-19T13:46:40Z</time>
      </trkpt>
      <trkpt lat="44.34246" lon="2.49472">
        <ele>518</ele>
        <time>2013-02-19T13:46:46Z</time>
      </trkpt>
      <trkpt lat="44.34236" lon="2.49472">
        <ele>517</ele>
        <time>2013-02-19T13:46:53Z</time>
      </trkpt>
      <trkpt lat="44.34227" lon="2.49466">
        <ele>518</ele>
        <time>2013-02-19T13:47:01Z</time>
      </trkpt>
      <trkpt lat="44.34217" lon="2.49464">
        <ele>518</ele>
        <time>2013-02-19T13:47:06Z</time>
      </trkpt>
      <trkpt lat="44.34208" lon="2.49462">
        <ele>518</ele>
        <time>2013-02-19T13:47:12Z</time>
      </trkpt>
      <trkpt lat="44.34199" lon="2.49463">
        <ele>518</ele>
        <time>2013-02-19T13:47:17Z</time>
      </trkpt>
      <trkpt lat="44.34193" lon="2.49461">
        <ele>516</ele>
        <time>2013-02-19T13:47:20Z</time>
      </trkpt>
      <trkpt lat="44.34187" lon="2.4946">
        <ele>515</ele>
        <time>2013-02-19T13:47:24Z</time>
      </trkpt>
      <trkpt lat="44.34177" lon="2.49461">
        <ele>515</ele>
        <time>2013-02-19T13:47:31Z</time>
      </trkpt>
      <trkpt lat="44.34168" lon="2.49463">
        <ele>516</ele>
        <time>2013-02-19T13:47:38Z</time>
      </trkpt>
      <trkpt lat="44.34159" lon="2.49465">
        <ele>518</ele>
        <time>2013-02-19T13:47:46Z</time>
      </trkpt>
      <trkpt lat="44.3415" lon="2.49471">
        <ele>519</ele>
        <time>2013-02-19T13:47:51Z</time>
      </trkpt>
      <trkpt lat="44.34141" lon="2.49472">
        <ele>520</ele>
        <time>2013-02-19T13:47:58Z</time>
      </trkpt>
      <trkpt lat="44.34132" lon="2.49474">
        <ele>521</ele>
        <time>2013-02-19T13:48:04Z</time>
      </trkpt>
      <trkpt lat="44.34122" lon="2.49475">
        <ele>522</ele>
        <time>2013-02-19T13:48:15Z</time>
      </trkpt>
      <trkpt lat="44.34112" lon="2.49481">
        <ele>521</ele>
        <time>2013-02-19T13:48:20Z</time>
      </trkpt>
      <trkpt lat="44.34103" lon="2.49487">
        <ele>520</ele>
        <time>2013-02-19T13:48:27Z</time>
      </trkpt>
      <trkpt lat="44.34094" lon="2.49491">
        <ele>517</ele>
        <time>2013-02-19T13:48:32Z</time>
      </trkpt>
      <trkpt lat="44.34085" lon="2.49496">
        <ele>514</ele>
        <time>2013-02-19T13:48:37Z</time>
      </trkpt>
      <trkpt lat="44.34076" lon="2.495">
        <ele>510</ele>
        <time>2013-02-19T13:48:42Z</time>
      </trkpt>
      <trkpt lat="44.34066" lon="2.49508">
        <ele>508</ele>
        <time>2013-02-19T13:48:47Z</time>
      </trkpt>
      <trkpt lat="44.34056" lon="2.49513">
        <ele>507</ele>
        <time>2013-02-19T13:48:53Z</time>
      </trkpt>
      <trkpt lat="44.34046" lon="2.4952">
        <ele>506</ele>
        <time>2013-02-19T13:48:59Z</time>
      </trkpt>
      <trkpt lat="44.34036" lon="2.49525">
        <ele>509</ele>
        <time>2013-02-19T13:49:05Z</time>
      </trkpt>
      <trkpt lat="44.34027" lon="2.49529">
        <ele>510</ele>
        <time>2013-02-19T13:49:12Z</time>
      </trkpt>
      <trkpt lat="44.34017" lon="2.49532">
        <ele>508</ele>
        <time>2013-02-19T13:49:17Z</time>
      </trkpt>
      <trkpt lat="44.34007" lon="2.49537">
        <ele>505</ele>
        <time>2013-02-19T13:49:22Z</time>
      </trkpt>
      <trkpt lat="44.33997" lon="2.49542">
        <ele>503</ele>
        <time>2013-02-19T13:49:28Z</time>
      </trkpt>
      <trkpt lat="44.33988" lon="2.49548">
        <ele>503</ele>
        <time>2013-02-19T13:49:32Z</time>
      </trkpt>
      <trkpt lat="44.33979" lon="2.49554">
        <ele>502</ele>
        <time>2013-02-19T13:49:37Z</time>
      </trkpt>
      <trkpt lat="44.33974" lon="2.49557">
        <ele>501</ele>
        <time>2013-02-19T13:49:41Z</time>
      </trkpt>
      <trkpt lat="44.33969" lon="2.4956">
        <ele>501</ele>
        <time>2013-02-19T13:49:44Z</time>
      </trkpt>
      <trkpt lat="44.3396" lon="2.49564">
        <ele>501</ele>
        <time>2013-02-19T13:49:49Z</time>
      </trkpt>
      <trkpt lat="44.33952" lon="2.49565">
        <ele>500</ele>
        <time>2013-02-19T13:49:54Z</time>
      </trkpt>
      <trkpt lat="44.33948" lon="2.49565">
        <ele>499</ele>
        <time>2013-02-19T13:49:57Z</time>
      </trkpt>
      <trkpt lat="44.33942" lon="2.49566">
        <ele>497</ele>
        <time>2013-02-19T13:50:01Z</time>
      </trkpt>
      <trkpt lat="44.33937" lon="2.49566">
        <ele>495</ele>
        <time>2013-02-19T13:50:05Z</time>
      </trkpt>
      <trkpt lat="44.33928" lon="2.49565">
        <ele>494</ele>
        <time>2013-02-19T13:50:10Z</time>
      </trkpt>
      <trkpt lat="44.33918" lon="2.49564">
        <ele>495</ele>
        <time>2013-02-19T13:50:18Z</time>
      </trkpt>
      <trkpt lat="44.33909" lon="2.49558">
        <ele>494</ele>
        <time>2013-02-19T13:50:24Z</time>
      </trkpt>
      <trkpt lat="44.33904" lon="2.49553">
        <ele>494</ele>
        <time>2013-02-19T13:50:28Z</time>
      </trkpt>
      <trkpt lat="44.339" lon="2.4955">
        <ele>493</ele>
        <time>2013-02-19T13:50:31Z</time>
      </trkpt>
      <trkpt lat="44.33895" lon="2.49546">
        <ele>493</ele>
        <time>2013-02-19T13:50:35Z</time>
      </trkpt>
      <trkpt lat="44.33889" lon="2.49542">
        <ele>493</ele>
        <time>2013-02-19T13:50:39Z</time>
      </trkpt>
      <trkpt lat="44.33886" lon="2.49536">
        <ele>493</ele>
        <time>2013-02-19T13:50:42Z</time>
      </trkpt>
      <trkpt lat="44.33883" lon="2.49531">
        <ele>493</ele>
        <time>2013-02-19T13:50:45Z</time>
      </trkpt>
      <trkpt lat="44.33879" lon="2.49525">
        <ele>492</ele>
        <time>2013-02-19T13:50:49Z</time>
      </trkpt>
      <trkpt lat="44.33874" lon="2.49519">
        <ele>492</ele>
        <time>2013-02-19T13:50:54Z</time>
      </trkpt>
      <trkpt lat="44.33871" lon="2.49513">
        <ele>491</ele>
        <time>2013-02-19T13:50:57Z</time>
      </trkpt>
      <trkpt lat="44.33868" lon="2.49508">
        <ele>491</ele>
        <time>2013-02-19T13:51:00Z</time>
      </trkpt>
      <trkpt lat="44.33865" lon="2.49503">
        <ele>491</ele>
        <time>2013-02-19T13:51:03Z</time>
      </trkpt>
      <trkpt lat="44.33859" lon="2.49498">
        <ele>490</ele>
        <time>2013-02-19T13:51:07Z</time>
      </trkpt>
      <trkpt lat="44.33856" lon="2.49492">
        <ele>490</ele>
        <time>2013-02-19T13:51:10Z</time>
      </trkpt>
      <trkpt lat="44.33848" lon="2.4948">
        <ele>490</ele>
        <time>2013-02-19T13:51:13Z</time>
      </trkpt>
      <trkpt lat="44.3384" lon="2.49471">
        <ele>490</ele>
        <time>2013-02-19T13:51:16Z</time>
      </trkpt>
      <trkpt lat="44.33838" lon="2.49467">
        <ele>487</ele>
        <time>2013-02-19T13:51:36Z</time>
      </trkpt>
      <trkpt lat="44.3384" lon="2.49461">
        <ele>487</ele>
        <time>2013-02-19T13:51:39Z</time>
      </trkpt>
      <trkpt lat="44.33834" lon="2.49448">
        <ele>488</ele>
        <time>2013-02-19T13:51:47Z</time>
      </trkpt>
      <trkpt lat="44.33831" lon="2.49442">
        <ele>487</ele>
        <time>2013-02-19T13:51:51Z</time>
      </trkpt>
      <trkpt lat="44.33827" lon="2.49438">
        <ele>487</ele>
        <time>2013-02-19T13:51:54Z</time>
      </trkpt>
      <trkpt lat="44.3382" lon="2.4943">
        <ele>487</ele>
        <time>2013-02-19T13:52:00Z</time>
      </trkpt>
      <trkpt lat="44.33812" lon="2.4942">
        <ele>486</ele>
        <time>2013-02-19T13:52:06Z</time>
      </trkpt>
      <trkpt lat="44.33808" lon="2.49408">
        <ele>485</ele>
        <time>2013-02-19T13:52:13Z</time>
      </trkpt>
      <trkpt lat="44.33801" lon="2.49399">
        <ele>485</ele>
        <time>2013-02-19T13:52:17Z</time>
      </trkpt>
      <trkpt lat="44.33794" lon="2.4939">
        <ele>485</ele>
        <time>2013-02-19T13:52:22Z</time>
      </trkpt>
      <trkpt lat="44.33787" lon="2.49382">
        <ele>484</ele>
        <time>2013-02-19T13:52:29Z</time>
      </trkpt>
      <trkpt lat="44.33781" lon="2.4937">
        <ele>483</ele>
        <time>2013-02-19T13:52:38Z</time>
      </trkpt>
      <trkpt lat="44.33776" lon="2.49362">
        <ele>484</ele>
        <time>2013-02-19T13:52:43Z</time>
      </trkpt>
      <trkpt lat="44.33773" lon="2.49358">
        <ele>485</ele>
        <time>2013-02-19T13:52:45Z</time>
      </trkpt>
      <trkpt lat="44.33769" lon="2.49353">
        <ele>487</ele>
        <time>2013-02-19T13:52:49Z</time>
      </trkpt>
      <trkpt lat="44.33768" lon="2.49345">
        <ele>489</ele>
        <time>2013-02-19T13:52:54Z</time>
      </trkpt>
      <trkpt lat="44.3377" lon="2.49338">
        <ele>489</ele>
        <time>2013-02-19T13:52:58Z</time>
      </trkpt>
      <trkpt lat="44.33774" lon="2.49326">
        <ele>489</ele>
        <time>2013-02-19T13:53:04Z</time>
      </trkpt>
      <trkpt lat="44.33777" lon="2.49318">
        <ele>489</ele>
        <time>2013-02-19T13:53:08Z</time>
      </trkpt>
      <trkpt lat="44.33782" lon="2.49308">
        <ele>490</ele>
        <time>2013-02-19T13:53:13Z</time>
      </trkpt>
      <trkpt lat="44.33786" lon="2.49303">
        <ele>490</ele>
        <time>2013-02-19T13:53:17Z</time>
      </trkpt>
      <trkpt lat="44.33789" lon="2.4929">
        <ele>490</ele>
        <time>2013-02-19T13:53:25Z</time>
      </trkpt>
      <trkpt lat="44.33791" lon="2.49284">
        <ele>490</ele>
        <time>2013-02-19T13:53:27Z</time>
      </trkpt>
      <trkpt lat="44.33793" lon="2.49278">
        <ele>490</ele>
        <time>2013-02-19T13:53:30Z</time>
      </trkpt>
      <trkpt lat="44.33794" lon="2.49272">
        <ele>489</ele>
        <time>2013-02-19T13:53:33Z</time>
      </trkpt>
      <trkpt lat="44.33797" lon="2.49266">
        <ele>489</ele>
        <time>2013-02-19T13:53:37Z</time>
      </trkpt>
      <trkpt lat="44.33799" lon="2.4926">
        <ele>490</ele>
        <time>2013-02-19T13:53:41Z</time>
      </trkpt>
      <trkpt lat="44.33802" lon="2.49255">
        <ele>491</ele>
        <time>2013-02-19T13:53:45Z</time>
      </trkpt>
      <trkpt lat="44.33806" lon="2.49251">
        <ele>492</ele>
        <time>2013-02-19T13:53:49Z</time>
      </trkpt>
      <trkpt lat="44.33811" lon="2.49247">
        <ele>493</ele>
        <time>2013-02-19T13:53:54Z</time>
      </trkpt>
      <trkpt lat="44.33814" lon="2.4924">
        <ele>494</ele>
        <time>2013-02-19T13:53:58Z</time>
      </trkpt>
      <trkpt lat="44.33817" lon="2.49234">
        <ele>494</ele>
        <time>2013-02-19T13:54:02Z</time>
      </trkpt>
      <trkpt lat="44.33819" lon="2.49226">
        <ele>495</ele>
        <time>2013-02-19T13:54:06Z</time>
      </trkpt>
      <trkpt lat="44.33821" lon="2.49219">
        <ele>496</ele>
        <time>2013-02-19T13:54:09Z</time>
      </trkpt>
      <trkpt lat="44.33827" lon="2.49207">
        <ele>496</ele>
        <time>2013-02-19T13:54:16Z</time>
      </trkpt>
      <trkpt lat="44.33834" lon="2.49197">
        <ele>497</ele>
        <time>2013-02-19T13:54:23Z</time>
      </trkpt>
      <trkpt lat="44.33843" lon="2.49191">
        <ele>496</ele>
        <time>2013-02-19T13:54:29Z</time>
      </trkpt>
      <trkpt lat="44.33851" lon="2.49185">
        <ele>497</ele>
        <time>2013-02-19T13:54:35Z</time>
      </trkpt>
      <trkpt lat="44.33855" lon="2.49181">
        <ele>497</ele>
        <time>2013-02-19T13:54:38Z</time>
      </trkpt>
      <trkpt lat="44.33846" lon="2.4918">
        <ele>496</ele>
        <time>2013-02-19T13:54:53Z</time>
      </trkpt>
      <trkpt lat="44.33836" lon="2.49182">
        <ele>497</ele>
        <time>2013-02-19T13:55:02Z</time>
      </trkpt>
      <trkpt lat="44.33827" lon="2.49187">
        <ele>497</ele>
        <time>2013-02-19T13:55:07Z</time>
      </trkpt>
      <trkpt lat="44.33818" lon="2.49187">
        <ele>500</ele>
        <time>2013-02-19T13:55:17Z</time>
      </trkpt>
      <trkpt lat="44.33809" lon="2.4919">
        <ele>500</ele>
        <time>2013-02-19T13:55:22Z</time>
      </trkpt>
      <trkpt lat="44.33799" lon="2.49193">
        <ele>498</ele>
        <time>2013-02-19T13:55:29Z</time>
      </trkpt>
      <trkpt lat="44.3379" lon="2.49197">
        <ele>497</ele>
        <time>2013-02-19T13:55:36Z</time>
      </trkpt>
      <trkpt lat="44.33781" lon="2.49203">
        <ele>497</ele>
        <time>2013-02-19T13:55:41Z</time>
      </trkpt>
      <trkpt lat="44.33771" lon="2.49208">
        <ele>498</ele>
        <time>2013-02-19T13:55:46Z</time>
      </trkpt>
      <trkpt lat="44.33762" lon="2.49213">
        <ele>497</ele>
        <time>2013-02-19T13:55:50Z</time>
      </trkpt>
      <trkpt lat="44.33753" lon="2.49216">
        <ele>495</ele>
        <time>2013-02-19T13:55:55Z</time>
      </trkpt>
      <trkpt lat="44.33744" lon="2.4922">
        <ele>493</ele>
        <time>2013-02-19T13:56:00Z</time>
      </trkpt>
      <trkpt lat="44.33735" lon="2.49227">
        <ele>491</ele>
        <time>2013-02-19T13:56:10Z</time>
      </trkpt>
      <trkpt lat="44.33729" lon="2.49237">
        <ele>491</ele>
        <time>2013-02-19T13:56:17Z</time>
      </trkpt>
      <trkpt lat="44.33722" lon="2.49245">
        <ele>492</ele>
        <time>2013-02-19T13:56:22Z</time>
      </trkpt>
      <trkpt lat="44.33717" lon="2.49248">
        <ele>492</ele>
        <time>2013-02-19T13:56:26Z</time>
      </trkpt>
      <trkpt lat="44.33713" lon="2.49252">
        <ele>492</ele>
        <time>2013-02-19T13:56:29Z</time>
      </trkpt>
      <trkpt lat="44.33704" lon="2.49261">
        <ele>493</ele>
        <time>2013-02-19T13:56:36Z</time>
      </trkpt>
      <trkpt lat="44.33696" lon="2.49271">
        <ele>493</ele>
        <time>2013-02-19T13:56:41Z</time>
      </trkpt>
      <trkpt lat="44.33685" lon="2.4928">
        <ele>491</ele>
        <time>2013-02-19T13:56:46Z</time>
      </trkpt>
      <trkpt lat="44.33676" lon="2.49286">
        <ele>489</ele>
        <time>2013-02-19T13:56:50Z</time>
      </trkpt>
      <trkpt lat="44.33667" lon="2.49294">
        <ele>489</ele>
        <time>2013-02-19T13:56:53Z</time>
      </trkpt>
      <trkpt lat="44.33659" lon="2.49302">
        <ele>487</ele>
        <time>2013-02-19T13:56:55Z</time>
      </trkpt>
      <trkpt lat="44.33651" lon="2.49309">
        <ele>486</ele>
        <time>2013-02-19T13:56:57Z</time>
      </trkpt>
      <trkpt lat="44.33642" lon="2.49317">
        <ele>485</ele>
        <time>2013-02-19T13:57:00Z</time>
      </trkpt>
      <trkpt lat="44.33634" lon="2.49324">
        <ele>484</ele>
        <time>2013-02-19T13:57:02Z</time>
      </trkpt>
      <trkpt lat="44.33625" lon="2.49333">
        <ele>483</ele>
        <time>2013-02-19T13:57:05Z</time>
      </trkpt>
      <trkpt lat="44.33615" lon="2.49338">
        <ele>481</ele>
        <time>2013-02-19T13:57:08Z</time>
      </trkpt>
      <trkpt lat="44.33603" lon="2.4934">
        <ele>480</ele>
        <time>2013-02-19T13:57:12Z</time>
      </trkpt>
      <trkpt lat="44.33593" lon="2.49342">
        <ele>478</ele>
        <time>2013-02-19T13:57:15Z</time>
      </trkpt>
      <trkpt lat="44.33583" lon="2.49345">
        <ele>477</ele>
        <time>2013-02-19T13:57:18Z</time>
      </trkpt>
      <trkpt lat="44.33574" lon="2.49349">
        <ele>476</ele>
        <time>2013-02-19T13:57:21Z</time>
      </trkpt>
      <trkpt lat="44.33565" lon="2.49353">
        <ele>475</ele>
        <time>2013-02-19T13:57:24Z</time>
      </trkpt>
      <trkpt lat="44.33553" lon="2.49362">
        <ele>473</ele>
        <time>2013-02-19T13:57:27Z</time>
      </trkpt>
      <trkpt lat="44.33541" lon="2.4937">
        <ele>471</ele>
        <time>2013-02-19T13:57:30Z</time>
      </trkpt>
      <trkpt lat="44.33532" lon="2.49374">
        <ele>471</ele>
        <time>2013-02-19T13:57:33Z</time>
      </trkpt>
      <trkpt lat="44.33522" lon="2.49379">
        <ele>471</ele>
        <time>2013-02-19T13:57:36Z</time>
      </trkpt>
      <trkpt lat="44.33512" lon="2.49387">
        <ele>470</ele>
        <time>2013-02-19T13:57:39Z</time>
      </trkpt>
      <trkpt lat="44.33503" lon="2.49392">
        <ele>471</ele>
        <time>2013-02-19T13:57:41Z</time>
      </trkpt>
      <trkpt lat="44.33492" lon="2.49395">
        <ele>472</ele>
        <time>2013-02-19T13:57:44Z</time>
      </trkpt>
      <trkpt lat="44.33478" lon="2.49397">
        <ele>474</ele>
        <time>2013-02-19T13:57:47Z</time>
      </trkpt>
      <trkpt lat="44.33469" lon="2.494">
        <ele>475</ele>
        <time>2013-02-19T13:57:49Z</time>
      </trkpt>
      <trkpt lat="44.33459" lon="2.49401">
        <ele>475</ele>
        <time>2013-02-19T13:57:52Z</time>
      </trkpt>
      <trkpt lat="44.33448" lon="2.49404">
        <ele>475</ele>
        <time>2013-02-19T13:57:55Z</time>
      </trkpt>
      <trkpt lat="44.33436" lon="2.49406">
        <ele>474</ele>
        <time>2013-02-19T13:57:58Z</time>
      </trkpt>
      <trkpt lat="44.33425" lon="2.49409">
        <ele>473</ele>
        <time>2013-02-19T13:58:01Z</time>
      </trkpt>
      <trkpt lat="44.33415" lon="2.49409">
        <ele>473</ele>
        <time>2013-02-19T13:58:04Z</time>
      </trkpt>
      <trkpt lat="44.33404" lon="2.49409">
        <ele>473</ele>
        <time>2013-02-19T13:58:07Z</time>
      </trkpt>
      <trkpt lat="44.33393" lon="2.49411">
        <ele>473</ele>
        <time>2013-02-19T13:58:12Z</time>
      </trkpt>
      <trkpt lat="44.33384" lon="2.49416">
        <ele>471</ele>
        <time>2013-02-19T13:58:17Z</time>
      </trkpt>
      <trkpt lat="44.33372" lon="2.4942">
        <ele>470</ele>
        <time>2013-02-19T13:58:23Z</time>
      </trkpt>
      <trkpt lat="44.33362" lon="2.4943">
        <ele>469</ele>
        <time>2013-02-19T13:58:26Z</time>
      </trkpt>
      <trkpt lat="44.33352" lon="2.49439">
        <ele>467</ele>
        <time>2013-02-19T13:58:29Z</time>
      </trkpt>
      <trkpt lat="44.3334" lon="2.49447">
        <ele>466</ele>
        <time>2013-02-19T13:58:32Z</time>
      </trkpt>
      <trkpt lat="44.33329" lon="2.49452">
        <ele>466</ele>
        <time>2013-02-19T13:58:35Z</time>
      </trkpt>
      <trkpt lat="44.33319" lon="2.49455">
        <ele>467</ele>
        <time>2013-02-19T13:58:38Z</time>
      </trkpt>
      <trkpt lat="44.33309" lon="2.49456">
        <ele>467</ele>
        <time>2013-02-19T13:58:41Z</time>
      </trkpt>
      <trkpt lat="44.33297" lon="2.4946">
        <ele>468</ele>
        <time>2013-02-19T13:58:45Z</time>
      </trkpt>
      <trkpt lat="44.33286" lon="2.49461">
        <ele>467</ele>
        <time>2013-02-19T13:58:50Z</time>
      </trkpt>
      <trkpt lat="44.33273" lon="2.49461">
        <ele>467</ele>
        <time>2013-02-19T13:58:53Z</time>
      </trkpt>
      <trkpt lat="44.33261" lon="2.4946">
        <ele>467</ele>
        <time>2013-02-19T13:58:56Z</time>
      </trkpt>
      <trkpt lat="44.33251" lon="2.49457">
        <ele>467</ele>
        <time>2013-02-19T13:58:59Z</time>
      </trkpt>
      <trkpt lat="44.3324" lon="2.49454">
        <ele>466</ele>
        <time>2013-02-19T13:59:03Z</time>
      </trkpt>
      <trkpt lat="44.3323" lon="2.49447">
        <ele>466</ele>
        <time>2013-02-19T13:59:07Z</time>
      </trkpt>
      <trkpt lat="44.3322" lon="2.49439">
        <ele>468</ele>
        <time>2013-02-19T13:59:11Z</time>
      </trkpt>
      <trkpt lat="44.33211" lon="2.49427">
        <ele>469</ele>
        <time>2013-02-19T13:59:13Z</time>
      </trkpt>
      <trkpt lat="44.33202" lon="2.49413">
        <ele>470</ele>
        <time>2013-02-19T13:59:16Z</time>
      </trkpt>
      <trkpt lat="44.33194" lon="2.49401">
        <ele>471</ele>
        <time>2013-02-19T13:59:19Z</time>
      </trkpt>
      <trkpt lat="44.33187" lon="2.49389">
        <ele>472</ele>
        <time>2013-02-19T13:59:22Z</time>
      </trkpt>
      <trkpt lat="44.33178" lon="2.4938">
        <ele>472</ele>
        <time>2013-02-19T13:59:26Z</time>
      </trkpt>
      <trkpt lat="44.3317" lon="2.49369">
        <ele>473</ele>
        <time>2013-02-19T13:59:34Z</time>
      </trkpt>
      <trkpt lat="44.33166" lon="2.49358">
        <ele>473</ele>
        <time>2013-02-19T13:59:41Z</time>
      </trkpt>
      <trkpt lat="44.33164" lon="2.49351">
        <ele>475</ele>
        <time>2013-02-19T13:59:53Z</time>
      </trkpt>
      <trkpt lat="44.33158" lon="2.49351">
        <ele>483</ele>
        <time>2013-02-19T14:00:17Z</time>
      </trkpt>
      <trkpt lat="44.33162" lon="2.49358">
        <ele>479</ele>
        <time>2013-02-19T14:01:18Z</time>
      </trkpt>
      <trkpt lat="44.33167" lon="2.4937">
        <ele>480</ele>
        <time>2013-02-19T14:01:27Z</time>
      </trkpt>
      <trkpt lat="44.33174" lon="2.49381">
        <ele>479</ele>
        <time>2013-02-19T14:01:32Z</time>
      </trkpt>
      <trkpt lat="44.33181" lon="2.49393">
        <ele>478</ele>
        <time>2013-02-19T14:01:36Z</time>
      </trkpt>
      <trkpt lat="44.33186" lon="2.49405">
        <ele>477</ele>
        <time>2013-02-19T14:01:42Z</time>
      </trkpt>
      <trkpt lat="44.33187" lon="2.49418">
        <ele>478</ele>
        <time>2013-02-19T14:01:46Z</time>
      </trkpt>
      <trkpt lat="44.33195" lon="2.4943">
        <ele>481</ele>
        <time>2013-02-19T14:01:49Z</time>
      </trkpt>
      <trkpt lat="44.33203" lon="2.49437">
        <ele>482</ele>
        <time>2013-02-19T14:01:51Z</time>
      </trkpt>
      <trkpt lat="44.33217" lon="2.49442">
        <ele>484</ele>
        <time>2013-02-19T14:01:54Z</time>
      </trkpt>
      <trkpt lat="44.33229" lon="2.49448">
        <ele>485</ele>
        <time>2013-02-19T14:01:57Z</time>
      </trkpt>
      <trkpt lat="44.3324" lon="2.49452">
        <ele>486</ele>
        <time>2013-02-19T14:01:59Z</time>
      </trkpt>
      <trkpt lat="44.33251" lon="2.49455">
        <ele>487</ele>
        <time>2013-02-19T14:02:01Z</time>
      </trkpt>
      <trkpt lat="44.33262" lon="2.49457">
        <ele>487</ele>
        <time>2013-02-19T14:02:03Z</time>
      </trkpt>
      <trkpt lat="44.33273" lon="2.4946">
        <ele>486</ele>
        <time>2013-02-19T14:02:05Z</time>
      </trkpt>
      <trkpt lat="44.33283" lon="2.49461">
        <ele>485</ele>
        <time>2013-02-19T14:02:07Z</time>
      </trkpt>
      <trkpt lat="44.33295" lon="2.49463">
        <ele>484</ele>
        <time>2013-02-19T14:02:09Z</time>
      </trkpt>
      <trkpt lat="44.33305" lon="2.49463">
        <ele>483</ele>
        <time>2013-02-19T14:02:11Z</time>
      </trkpt>
      <trkpt lat="44.33315" lon="2.49466">
        <ele>481</ele>
        <time>2013-02-19T14:02:13Z</time>
      </trkpt>
      <trkpt lat="44.3333" lon="2.49466">
        <ele>479</ele>
        <time>2013-02-19T14:02:16Z</time>
      </trkpt>
      <trkpt lat="44.33342" lon="2.49465">
        <ele>477</ele>
        <time>2013-02-19T14:02:18Z</time>
      </trkpt>
      <trkpt lat="44.33353" lon="2.49459">
        <ele>476</ele>
        <time>2013-02-19T14:02:20Z</time>
      </trkpt>
      <trkpt lat="44.33363" lon="2.49451">
        <ele>475</ele>
        <time>2013-02-19T14:02:22Z</time>
      </trkpt>
      <trkpt lat="44.33374" lon="2.49446">
        <ele>474</ele>
        <time>2013-02-19T14:02:26Z</time>
      </trkpt>
      <trkpt lat="44.33369" lon="2.49444">
        <ele>470</ele>
        <time>2013-02-19T14:02:47Z</time>
      </trkpt>
      <trkpt lat="44.33361" lon="2.4945">
        <ele>470</ele>
        <time>2013-02-19T14:02:49Z</time>
      </trkpt>
      <trkpt lat="44.33347" lon="2.49455">
        <ele>470</ele>
        <time>2013-02-19T14:02:51Z</time>
      </trkpt>
      <trkpt lat="44.33333" lon="2.49461">
        <ele>470</ele>
        <time>2013-02-19T14:02:53Z</time>
      </trkpt>
      <trkpt lat="44.33323" lon="2.49464">
        <ele>470</ele>
        <time>2013-02-19T14:02:55Z</time>
      </trkpt>
      <trkpt lat="44.33314" lon="2.49465">
        <ele>470</ele>
        <time>2013-02-19T14:02:57Z</time>
      </trkpt>
      <trkpt lat="44.33303" lon="2.49465">
        <ele>469</ele>
        <time>2013-02-19T14:02:59Z</time>
      </trkpt>
      <trkpt lat="44.33293" lon="2.49465">
        <ele>470</ele>
        <time>2013-02-19T14:03:03Z</time>
      </trkpt>
      <trkpt lat="44.33285" lon="2.4945">
        <ele>484</ele>
        <time>2013-02-19T14:03:24Z</time>
      </trkpt>
      <trkpt lat="44.33281" lon="2.4945">
        <ele>490</ele>
        <time>2013-02-19T14:03:42Z</time>
      </trkpt>
      <trkpt lat="44.33272" lon="2.49456">
        <ele>486</ele>
        <time>2013-02-19T14:04:14Z</time>
      </trkpt>
      <trkpt lat="44.33258" lon="2.49456">
        <ele>484</ele>
        <time>2013-02-19T14:04:22Z</time>
      </trkpt>
      <trkpt lat="44.33248" lon="2.49452">
        <ele>482</ele>
        <time>2013-02-19T14:04:28Z</time>
      </trkpt>
      <trkpt lat="44.33239" lon="2.4945">
        <ele>482</ele>
        <time>2013-02-19T14:04:33Z</time>
      </trkpt>
      <trkpt lat="44.33229" lon="2.49447">
        <ele>482</ele>
        <time>2013-02-19T14:04:39Z</time>
      </trkpt>
      <trkpt lat="44.33221" lon="2.49442">
        <ele>482</ele>
        <time>2013-02-19T14:04:46Z</time>
      </trkpt>
      <trkpt lat="44.33214" lon="2.49432">
        <ele>480</ele>
        <time>2013-02-19T14:04:52Z</time>
      </trkpt>
      <trkpt lat="44.3321" lon="2.4942">
        <ele>479</ele>
        <time>2013-02-19T14:04:58Z</time>
      </trkpt>
      <trkpt lat="44.33203" lon="2.49409">
        <ele>477</ele>
        <time>2013-02-19T14:05:04Z</time>
      </trkpt>
      <trkpt lat="44.33196" lon="2.494">
        <ele>476</ele>
        <time>2013-02-19T14:05:08Z</time>
      </trkpt>
      <trkpt lat="44.33189" lon="2.4939">
        <ele>476</ele>
        <time>2013-02-19T14:05:13Z</time>
      </trkpt>
      <trkpt lat="44.33182" lon="2.49379">
        <ele>478</ele>
        <time>2013-02-19T14:05:19Z</time>
      </trkpt>
      <trkpt lat="44.33175" lon="2.49371">
        <ele>479</ele>
        <time>2013-02-19T14:05:25Z</time>
      </trkpt>
      <trkpt lat="44.3317" lon="2.49375">
        <ele>476</ele>
        <time>2013-02-19T14:05:42Z</time>
      </trkpt>
      <trkpt lat="44.33163" lon="2.49366">
        <ele>472</ele>
        <time>2013-02-19T14:05:54Z</time>
      </trkpt>
      <trkpt lat="44.33159" lon="2.49361">
        <ele>472</ele>
        <time>2013-02-19T14:06:09Z</time>
      </trkpt>
      <trkpt lat="44.33147" lon="2.49356">
        <ele>475</ele>
        <time>2013-02-19T14:06:17Z</time>
      </trkpt>
      <trkpt lat="44.33135" lon="2.49358">
        <ele>477</ele>
        <time>2013-02-19T14:06:32Z</time>
      </trkpt>
      <trkpt lat="44.33123" lon="2.49359">
        <ele>480</ele>
        <time>2013-02-19T14:06:48Z</time>
      </trkpt>
      <trkpt lat="44.33115" lon="2.49351">
        <ele>481</ele>
        <time>2013-02-19T14:06:56Z</time>
      </trkpt>
      <trkpt lat="44.3311" lon="2.4934">
        <ele>481</ele>
        <time>2013-02-19T14:07:06Z</time>
      </trkpt>
      <trkpt lat="44.33102" lon="2.49334">
        <ele>480</ele>
        <time>2013-02-19T14:07:11Z</time>
      </trkpt>
      <trkpt lat="44.33092" lon="2.49329">
        <ele>478</ele>
        <time>2013-02-19T14:07:16Z</time>
      </trkpt>
      <trkpt lat="44.33083" lon="2.49325">
        <ele>476</ele>
        <time>2013-02-19T14:07:21Z</time>
      </trkpt>
      <trkpt lat="44.33074" lon="2.49319">
        <ele>475</ele>
        <time>2013-02-19T14:07:27Z</time>
      </trkpt>
      <trkpt lat="44.33064" lon="2.49314">
        <ele>473</ele>
        <time>2013-02-19T14:07:33Z</time>
      </trkpt>
      <trkpt lat="44.33054" lon="2.49305">
        <ele>470</ele>
        <time>2013-02-19T14:07:49Z</time>
      </trkpt>
      <trkpt lat="44.33044" lon="2.49297">
        <ele>470</ele>
        <time>2013-02-19T14:08:00Z</time>
      </trkpt>
      <trkpt lat="44.33035" lon="2.4929">
        <ele>468</ele>
        <time>2013-02-19T14:08:06Z</time>
      </trkpt>
      <trkpt lat="44.33026" lon="2.49283">
        <ele>467</ele>
        <time>2013-02-19T14:08:11Z</time>
      </trkpt>
      <trkpt lat="44.33017" lon="2.49287">
        <ele>468</ele>
        <time>2013-02-19T14:08:22Z</time>
      </trkpt>
      <trkpt lat="44.3302" lon="2.49302">
        <ele>475</ele>
        <time>2013-02-19T14:08:41Z</time>
      </trkpt>
      <trkpt lat="44.33024" lon="2.49314">
        <ele>478</ele>
        <time>2013-02-19T14:08:47Z</time>
      </trkpt>
      <trkpt lat="44.33029" lon="2.49327">
        <ele>482</ele>
        <time>2013-02-19T14:08:55Z</time>
      </trkpt>
      <trkpt lat="44.33028" lon="2.49341">
        <ele>490</ele>
        <time>2013-02-19T14:09:07Z</time>
      </trkpt>
      <trkpt lat="44.3303" lon="2.49353">
        <ele>493</ele>
        <time>2013-02-19T14:09:11Z</time>
      </trkpt>
      <trkpt lat="44.33034" lon="2.49366">
        <ele>496</ele>
        <time>2013-02-19T14:09:16Z</time>
      </trkpt>
      <trkpt lat="44.3304" lon="2.49375">
        <ele>497</ele>
        <time>2013-02-19T14:09:23Z</time>
      </trkpt>
      <trkpt lat="44.33044" lon="2.49389">
        <ele>498</ele>
        <time>2013-02-19T14:09:30Z</time>
      </trkpt>
      <trkpt lat="44.33045" lon="2.49402">
        <ele>503</ele>
        <time>2013-02-19T14:09:40Z</time>
      </trkpt>
      <trkpt lat="44.33031" lon="2.49426">
        <ele>519</ele>
        <time>2013-02-19T14:10:11Z</time>
      </trkpt>
      <trkpt lat="44.33022" lon="2.49437">
        <ele>519</ele>
        <time>2013-02-19T14:10:29Z</time>
      </trkpt>
      <trkpt lat="44.33014" lon="2.49449">
        <ele>518</ele>
        <time>2013-02-19T14:10:42Z</time>
      </trkpt>
      <trkpt lat="44.33006" lon="2.49459">
        <ele>515</ele>
        <time>2013-02-19T14:10:47Z</time>
      </trkpt>
      <trkpt lat="44.32987" lon="2.49466">
        <ele>509</ele>
        <time>2013-02-19T14:11:05Z</time>
      </trkpt>
      <trkpt lat="44.32976" lon="2.49469">
        <ele>504</ele>
        <time>2013-02-19T14:11:13Z</time>
      </trkpt>
      <trkpt lat="44.32945" lon="2.4947">
        <ele>499</ele>
        <time>2013-02-19T14:11:38Z</time>
      </trkpt>
      <trkpt lat="44.32932" lon="2.49452">
        <ele>495</ele>
        <time>2013-02-19T14:12:14Z</time>
      </trkpt>
      <trkpt lat="44.32909" lon="2.49452">
        <ele>488</ele>
        <time>2013-02-19T14:13:14Z</time>
      </trkpt>
      <trkpt lat="44.32878" lon="2.49455">
        <ele>486</ele>
        <time>2013-02-19T14:13:48Z</time>
      </trkpt>
      <trkpt lat="44.3286" lon="2.49447">
        <ele>486</ele>
        <time>2013-02-19T14:14:40Z</time>
      </trkpt>
      <trkpt lat="44.32882" lon="2.49406">
        <ele>486</ele>
        <time>2013-02-19T14:15:20Z</time>
      </trkpt>
      <trkpt lat="44.32892" lon="2.4937">
        <ele>487</ele>
        <time>2013-02-19T14:15:33Z</time>
      </trkpt>
      <trkpt lat="44.32911" lon="2.49343">
        <ele>487</ele>
        <time>2013-02-19T14:15:47Z</time>
      </trkpt>
      <trkpt lat="44.32921" lon="2.49305">
        <ele>488</ele>
        <time>2013-02-19T14:16:03Z</time>
      </trkpt>
      <trkpt lat="44.32939" lon="2.49274">
        <ele>488</ele>
        <time>2013-02-19T14:16:20Z</time>
      </trkpt>
      <trkpt lat="44.32957" lon="2.4924">
        <ele>488</ele>
        <time>2013-02-19T14:16:36Z</time>
      </trkpt>
      <trkpt lat="44.32957" lon="2.49205">
        <ele>487</ele>
        <time>2013-02-19T14:17:07Z</time>
      </trkpt>
      <trkpt lat="44.32936" lon="2.49195">
        <ele>521</ele>
        <time>2013-02-19T14:18:05Z</time>
      </trkpt>
      <trkpt lat="44.32924" lon="2.49214">
        <ele>537</ele>
        <time>2013-02-19T14:18:11Z</time>
      </trkpt>
      <trkpt lat="44.32918" lon="2.49264">
        <ele>560</ele>
        <time>2013-02-19T14:18:26Z</time>
      </trkpt>
      <trkpt lat="44.32914" lon="2.49281">
        <ele>562</ele>
        <time>2013-02-19T14:18:26Z</time>
      </trkpt>
      <trkpt lat="44.32909" lon="2.49293">
        <ele>565</ele>
        <time>2013-02-19T14:18:27Z</time>
      </trkpt>
      <trkpt lat="44.32889" lon="2.4932">
        <ele>571</ele>
        <time>2013-02-19T14:18:30Z</time>
      </trkpt>
      <trkpt lat="44.3288" lon="2.4932">
        <ele>574</ele>
        <time>2013-02-19T14:18:32Z</time>
      </trkpt>
      <trkpt lat="44.32868" lon="2.49311">
        <ele>577</ele>
        <time>2013-02-19T14:18:35Z</time>
      </trkpt>
      <trkpt lat="44.32864" lon="2.49299">
        <ele>584</ele>
        <time>2013-02-19T14:18:44Z</time>
      </trkpt>
      <trkpt lat="44.32862" lon="2.49285">
        <ele>589</ele>
        <time>2013-02-19T14:18:50Z</time>
      </trkpt>
      <trkpt lat="44.3286" lon="2.49279">
        <ele>591</ele>
        <time>2013-02-19T14:18:53Z</time>
      </trkpt>
      <trkpt lat="44.32852" lon="2.49269">
        <ele>593</ele>
        <time>2013-02-19T14:18:59Z</time>
      </trkpt>
      <trkpt lat="44.32844" lon="2.49261">
        <ele>597</ele>
        <time>2013-02-19T14:19:08Z</time>
      </trkpt>
      <trkpt lat="44.32838" lon="2.49252">
        <ele>599</ele>
        <time>2013-02-19T14:19:16Z</time>
      </trkpt>
      <trkpt lat="44.3283" lon="2.49245">
        <ele>600</ele>
        <time>2013-02-19T14:19:23Z</time>
      </trkpt>
      <trkpt lat="44.32822" lon="2.49238">
        <ele>599</ele>
        <time>2013-02-19T14:19:30Z</time>
      </trkpt>
      <trkpt lat="44.32813" lon="2.49233">
        <ele>597</ele>
        <time>2013-02-19T14:19:38Z</time>
      </trkpt>
      <trkpt lat="44.32817" lon="2.49215">
        <ele>598</ele>
        <time>2013-02-19T14:19:55Z</time>
      </trkpt>
      <trkpt lat="44.32825" lon="2.49206">
        <ele>598</ele>
        <time>2013-02-19T14:20:01Z</time>
      </trkpt>
      <trkpt lat="44.32834" lon="2.49199">
        <ele>599</ele>
        <time>2013-02-19T14:20:07Z</time>
      </trkpt>
      <trkpt lat="44.32841" lon="2.4919">
        <ele>598</ele>
        <time>2013-02-19T14:20:12Z</time>
      </trkpt>
      <trkpt lat="44.32846" lon="2.4918">
        <ele>597</ele>
        <time>2013-02-19T14:20:19Z</time>
      </trkpt>
      <trkpt lat="44.32853" lon="2.49165">
        <ele>595</ele>
        <time>2013-02-19T14:20:31Z</time>
      </trkpt>
      <trkpt lat="44.3286" lon="2.49157">
        <ele>594</ele>
        <time>2013-02-19T14:20:37Z</time>
      </trkpt>
      <trkpt lat="44.32864" lon="2.49145">
        <ele>590</ele>
        <time>2013-02-19T14:20:45Z</time>
      </trkpt>
      <trkpt lat="44.3287" lon="2.49131">
        <ele>587</ele>
        <time>2013-02-19T14:20:52Z</time>
      </trkpt>
      <trkpt lat="44.32881" lon="2.49109">
        <ele>575</ele>
        <time>2013-02-19T14:21:04Z</time>
      </trkpt>
      <trkpt lat="44.32881" lon="2.49076">
        <ele>563</ele>
        <time>2013-02-19T14:21:28Z</time>
      </trkpt>
      <trkpt lat="44.3288" lon="2.49061">
        <ele>563</ele>
        <time>2013-02-19T14:21:30Z</time>
      </trkpt>
      <trkpt lat="44.3288" lon="2.49047">
        <ele>564</ele>
        <time>2013-02-19T14:21:36Z</time>
      </trkpt>
      <trkpt lat="44.32878" lon="2.49028">
        <ele>568</ele>
        <time>2013-02-19T14:21:47Z</time>
      </trkpt>
      <trkpt lat="44.32877" lon="2.49015">
        <ele>572</ele>
        <time>2013-02-19T14:21:54Z</time>
      </trkpt>
      <trkpt lat="44.32874" lon="2.49003">
        <ele>576</ele>
        <time>2013-02-19T14:22:01Z</time>
      </trkpt>
      <trkpt lat="44.32873" lon="2.48991">
        <ele>579</ele>
        <time>2013-02-19T14:22:06Z</time>
      </trkpt>
      <trkpt lat="44.32879" lon="2.48979">
        <ele>584</ele>
        <time>2013-02-19T14:22:14Z</time>
      </trkpt>
      <trkpt lat="44.32894" lon="2.48954">
        <ele>597</ele>
        <time>2013-02-19T14:22:40Z</time>
      </trkpt>
      <trkpt lat="44.32896" lon="2.48941">
        <ele>597</ele>
        <time>2013-02-19T14:22:57Z</time>
      </trkpt>
      <trkpt lat="44.32896" lon="2.48923">
        <ele>594</ele>
        <time>2013-02-19T14:23:08Z</time>
      </trkpt>
      <trkpt lat="44.32901" lon="2.48912">
        <ele>589</ele>
        <time>2013-02-19T14:23:15Z</time>
      </trkpt>
      <trkpt lat="44.32909" lon="2.48905">
        <ele>586</ele>
        <time>2013-02-19T14:23:21Z</time>
      </trkpt>
      <trkpt lat="44.32916" lon="2.48891">
        <ele>582</ele>
        <time>2013-02-19T14:23:28Z</time>
      </trkpt>
      <trkpt lat="44.32923" lon="2.4888">
        <ele>577</ele>
        <time>2013-02-19T14:23:36Z</time>
      </trkpt>
      <trkpt lat="44.32929" lon="2.48869">
        <ele>576</ele>
        <time>2013-02-19T14:23:44Z</time>
      </trkpt>
      <trkpt lat="44.32934" lon="2.48855">
        <ele>578</ele>
        <time>2013-02-19T14:23:52Z</time>
      </trkpt>
      <trkpt lat="44.32937" lon="2.48839">
        <ele>581</ele>
        <time>2013-02-19T14:23:56Z</time>
      </trkpt>
      <trkpt lat="44.32937" lon="2.48826">
        <ele>584</ele>
        <time>2013-02-19T14:24:00Z</time>
      </trkpt>
      <trkpt lat="44.32937" lon="2.48804">
        <ele>587</ele>
        <time>2013-02-19T14:24:10Z</time>
      </trkpt>
      <trkpt lat="44.32937" lon="2.48785">
        <ele>585</ele>
        <time>2013-02-19T14:24:19Z</time>
      </trkpt>
      <trkpt lat="44.32943" lon="2.48768">
        <ele>583</ele>
        <time>2013-02-19T14:24:29Z</time>
      </trkpt>
      <trkpt lat="44.32948" lon="2.48757">
        <ele>583</ele>
        <time>2013-02-19T14:24:39Z</time>
      </trkpt>
      <trkpt lat="44.32948" lon="2.4875">
        <ele>582</ele>
        <time>2013-02-19T14:25:02Z</time>
      </trkpt>
      <trkpt lat="44.32951" lon="2.48744">
        <ele>583</ele>
        <time>2013-02-19T14:25:14Z</time>
      </trkpt>
      <trkpt lat="44.32952" lon="2.48734">
        <ele>587</ele>
        <time>2013-02-19T14:25:30Z</time>
      </trkpt>
      <trkpt lat="44.32951" lon="2.48727">
        <ele>588</ele>
        <time>2013-02-19T14:25:51Z</time>
      </trkpt>
      <trkpt lat="44.32951" lon="2.48712">
        <ele>590</ele>
        <time>2013-02-19T14:26:40Z</time>
      </trkpt>
      <trkpt lat="44.32957" lon="2.48701">
        <ele>591</ele>
        <time>2013-02-19T14:26:46Z</time>
      </trkpt>
      <trkpt lat="44.32966" lon="2.48689">
        <ele>591</ele>
        <time>2013-02-19T14:26:54Z</time>
      </trkpt>
      <trkpt lat="44.3297" lon="2.48673">
        <ele>589</ele>
        <time>2013-02-19T14:27:02Z</time>
      </trkpt>
      <trkpt lat="44.32973" lon="2.48661">
        <ele>587</ele>
        <time>2013-02-19T14:27:08Z</time>
      </trkpt>
      <trkpt lat="44.32975" lon="2.48648">
        <ele>585</ele>
        <time>2013-02-19T14:27:14Z</time>
      </trkpt>
      <trkpt lat="44.32983" lon="2.48638">
        <ele>584</ele>
        <time>2013-02-19T14:27:24Z</time>
      </trkpt>
      <trkpt lat="44.32986" lon="2.48623">
        <ele>582</ele>
        <time>2013-02-19T14:27:31Z</time>
      </trkpt>
      <trkpt lat="44.3299" lon="2.48609">
        <ele>580</ele>
        <time>2013-02-19T14:27:37Z</time>
      </trkpt>
      <trkpt lat="44.32993" lon="2.48596">
        <ele>579</ele>
        <time>2013-02-19T14:27:42Z</time>
      </trkpt>
      <trkpt lat="44.32995" lon="2.48582">
        <ele>577</ele>
        <time>2013-02-19T14:27:48Z</time>
      </trkpt>
      <trkpt lat="44.32997" lon="2.48569">
        <ele>574</ele>
        <time>2013-02-19T14:27:53Z</time>
      </trkpt>
      <trkpt lat="44.32997" lon="2.48555">
        <ele>571</ele>
        <time>2013-02-19T14:28:02Z</time>
      </trkpt>
      <trkpt lat="44.33004" lon="2.48542">
        <ele>570</ele>
        <time>2013-02-19T14:28:09Z</time>
      </trkpt>
      <trkpt lat="44.33009" lon="2.4853">
        <ele>566</ele>
        <time>2013-02-19T14:28:15Z</time>
      </trkpt>
      <trkpt lat="44.33014" lon="2.48516">
        <ele>564</ele>
        <time>2013-02-19T14:28:24Z</time>
      </trkpt>
      <trkpt lat="44.33018" lon="2.48502">
        <ele>560</ele>
        <time>2013-02-19T14:28:30Z</time>
      </trkpt>
      <trkpt lat="44.33022" lon="2.48491">
        <ele>558</ele>
        <time>2013-02-19T14:28:36Z</time>
      </trkpt>
      <trkpt lat="44.33028" lon="2.48479">
        <ele>555</ele>
        <time>2013-02-19T14:28:44Z</time>
      </trkpt>
      <trkpt lat="44.33032" lon="2.48467">
        <ele>554</ele>
        <time>2013-02-19T14:28:50Z</time>
      </trkpt>
      <trkpt lat="44.33036" lon="2.48455">
        <ele>554</ele>
        <time>2013-02-19T14:28:56Z</time>
      </trkpt>
      <trkpt lat="44.3304" lon="2.48443">
        <ele>552</ele>
        <time>2013-02-19T14:29:01Z</time>
      </trkpt>
      <trkpt lat="44.33043" lon="2.4843">
        <ele>550</ele>
        <time>2013-02-19T14:29:06Z</time>
      </trkpt>
      <trkpt lat="44.33048" lon="2.48415">
        <ele>552</ele>
        <time>2013-02-19T14:29:13Z</time>
      </trkpt>
      <trkpt lat="44.33054" lon="2.48358">
        <ele>568</ele>
        <time>2013-02-19T14:29:36Z</time>
      </trkpt>
      <trkpt lat="44.33056" lon="2.48343">
        <ele>570</ele>
        <time>2013-02-19T14:29:40Z</time>
      </trkpt>
      <trkpt lat="44.33054" lon="2.48329">
        <ele>572</ele>
        <time>2013-02-19T14:29:45Z</time>
      </trkpt>
      <trkpt lat="44.33055" lon="2.48317">
        <ele>573</ele>
        <time>2013-02-19T14:29:51Z</time>
      </trkpt>
      <trkpt lat="44.33058" lon="2.48298">
        <ele>575</ele>
        <time>2013-02-19T14:30:02Z</time>
      </trkpt>
      <trkpt lat="44.33066" lon="2.4829">
        <ele>575</ele>
        <time>2013-02-19T14:30:06Z</time>
      </trkpt>
      <trkpt lat="44.3307" lon="2.48275">
        <ele>573</ele>
        <time>2013-02-19T14:30:14Z</time>
      </trkpt>
      <trkpt lat="44.33076" lon="2.4826">
        <ele>571</ele>
        <time>2013-02-19T14:30:35Z</time>
      </trkpt>
      <trkpt lat="44.33078" lon="2.48247">
        <ele>570</ele>
        <time>2013-02-19T14:30:41Z</time>
      </trkpt>
      <trkpt lat="44.33077" lon="2.4824">
        <ele>569</ele>
        <time>2013-02-19T14:30:52Z</time>
      </trkpt>
      <trkpt lat="44.33081" lon="2.48227">
        <ele>568</ele>
        <time>2013-02-19T14:30:57Z</time>
      </trkpt>
      <trkpt lat="44.33083" lon="2.48212">
        <ele>565</ele>
        <time>2013-02-19T14:31:06Z</time>
      </trkpt>
      <trkpt lat="44.33083" lon="2.48199">
        <ele>560</ele>
        <time>2013-02-19T14:31:16Z</time>
      </trkpt>
      <trkpt lat="44.33085" lon="2.48184">
        <ele>558</ele>
        <time>2013-02-19T14:31:25Z</time>
      </trkpt>
      <trkpt lat="44.33087" lon="2.48156">
        <ele>547</ele>
        <time>2013-02-19T14:31:37Z</time>
      </trkpt>
      <trkpt lat="44.33093" lon="2.48142">
        <ele>541</ele>
        <time>2013-02-19T14:31:45Z</time>
      </trkpt>
      <trkpt lat="44.331" lon="2.48132">
        <ele>540</ele>
        <time>2013-02-19T14:31:47Z</time>
      </trkpt>
      <trkpt lat="44.33107" lon="2.48121">
        <ele>543</ele>
        <time>2013-02-19T14:31:52Z</time>
      </trkpt>
      <trkpt lat="44.33121" lon="2.48105">
        <ele>547</ele>
        <time>2013-02-19T14:31:59Z</time>
      </trkpt>
      <trkpt lat="44.33126" lon="2.48092">
        <ele>550</ele>
        <time>2013-02-19T14:32:04Z</time>
      </trkpt>
      <trkpt lat="44.33131" lon="2.48081">
        <ele>552</ele>
        <time>2013-02-19T14:32:11Z</time>
      </trkpt>
      <trkpt lat="44.33137" lon="2.48071">
        <ele>556</ele>
        <time>2013-02-19T14:32:18Z</time>
      </trkpt>
      <trkpt lat="44.33141" lon="2.48056">
        <ele>557</ele>
        <time>2013-02-19T14:32:24Z</time>
      </trkpt>
      <trkpt lat="44.33148" lon="2.48041">
        <ele>554</ele>
        <time>2013-02-19T14:32:38Z</time>
      </trkpt>
      <trkpt lat="44.33155" lon="2.48028">
        <ele>551</ele>
        <time>2013-02-19T14:32:45Z</time>
      </trkpt>
      <trkpt lat="44.3316" lon="2.48016">
        <ele>545</ele>
        <time>2013-02-19T14:32:55Z</time>
      </trkpt>
      <trkpt lat="44.33158" lon="2.47998">
        <ele>538</ele>
        <time>2013-02-19T14:33:05Z</time>
      </trkpt>
      <trkpt lat="44.33161" lon="2.48001">
        <ele>524</ele>
        <time>2013-02-19T14:34:02Z</time>
      </trkpt>
      <trkpt lat="44.33167" lon="2.48011">
        <ele>525</ele>
        <time>2013-02-19T14:34:16Z</time>
      </trkpt>
      <trkpt lat="44.33175" lon="2.48003">
        <ele>525</ele>
        <time>2013-02-19T14:34:23Z</time>
      </trkpt>
      <trkpt lat="44.33185" lon="2.47988">
        <ele>528</ele>
        <time>2013-02-19T14:34:41Z</time>
      </trkpt>
      <trkpt lat="44.3319" lon="2.47977">
        <ele>530</ele>
        <time>2013-02-19T14:34:48Z</time>
      </trkpt>
      <trkpt lat="44.33192" lon="2.47964">
        <ele>533</ele>
        <time>2013-02-19T14:34:54Z</time>
      </trkpt>
      <trkpt lat="44.33191" lon="2.47951">
        <ele>532</ele>
        <time>2013-02-19T14:35:01Z</time>
      </trkpt>
      <trkpt lat="44.33187" lon="2.47938">
        <ele>527</ele>
        <time>2013-02-19T14:35:10Z</time>
      </trkpt>
      <trkpt lat="44.33152" lon="2.47892">
        <ele>503</ele>
        <time>2013-02-19T14:35:46Z</time>
      </trkpt>
      <trkpt lat="44.33147" lon="2.47882">
        <ele>499</ele>
        <time>2013-02-19T14:35:53Z</time>
      </trkpt>
      <trkpt lat="44.33138" lon="2.47875">
        <ele>495</ele>
        <time>2013-02-19T14:36:00Z</time>
      </trkpt>
      <trkpt lat="44.33127" lon="2.47864">
        <ele>494</ele>
        <time>2013-02-19T14:36:08Z</time>
      </trkpt>
      <trkpt lat="44.33123" lon="2.47853">
        <ele>493</ele>
        <time>2013-02-19T14:36:14Z</time>
      </trkpt>
      <trkpt lat="44.33119" lon="2.47841">
        <ele>491</ele>
        <time>2013-02-19T14:36:22Z</time>
      </trkpt>
      <trkpt lat="44.33113" lon="2.47831">
        <ele>488</ele>
        <time>2013-02-19T14:36:27Z</time>
      </trkpt>
      <trkpt lat="44.33108" lon="2.47818">
        <ele>490</ele>
        <time>2013-02-19T14:36:33Z</time>
      </trkpt>
      <trkpt lat="44.33104" lon="2.47806">
        <ele>494</ele>
        <time>2013-02-19T14:36:39Z</time>
      </trkpt>
      <trkpt lat="44.33098" lon="2.47794">
        <ele>497</ele>
        <time>2013-02-19T14:36:47Z</time>
      </trkpt>
      <trkpt lat="44.33096" lon="2.47782">
        <ele>495</ele>
        <time>2013-02-19T14:36:56Z</time>
      </trkpt>
      <trkpt lat="44.33095" lon="2.47765">
        <ele>492</ele>
        <time>2013-02-19T14:37:09Z</time>
      </trkpt>
      <trkpt lat="44.33099" lon="2.4776">
        <ele>484</ele>
        <time>2013-02-19T14:37:25Z</time>
      </trkpt>
      <trkpt lat="44.33103" lon="2.47773">
        <ele>482</ele>
        <time>2013-02-19T14:37:31Z</time>
      </trkpt>
      <trkpt lat="44.33111" lon="2.47781">
        <ele>480</ele>
        <time>2013-02-19T14:37:47Z</time>
      </trkpt>
      <trkpt lat="44.33118" lon="2.47793">
        <ele>482</ele>
        <time>2013-02-19T14:37:56Z</time>
      </trkpt>
      <trkpt lat="44.33129" lon="2.47807">
        <ele>487</ele>
        <time>2013-02-19T14:38:12Z</time>
      </trkpt>
      <trkpt lat="44.33137" lon="2.47814">
        <ele>490</ele>
        <time>2013-02-19T14:38:18Z</time>
      </trkpt>
      <trkpt lat="44.33145" lon="2.47823">
        <ele>492</ele>
        <time>2013-02-19T14:38:26Z</time>
      </trkpt>
      <trkpt lat="44.33155" lon="2.47829">
        <ele>494</ele>
        <time>2013-02-19T14:38:37Z</time>
      </trkpt>
      <trkpt lat="44.33168" lon="2.47833">
        <ele>496</ele>
        <time>2013-02-19T14:38:44Z</time>
      </trkpt>
      <trkpt lat="44.33178" lon="2.47843">
        <ele>499</ele>
        <time>2013-02-19T14:38:52Z</time>
      </trkpt>
      <trkpt lat="44.33189" lon="2.4785">
        <ele>504</ele>
        <time>2013-02-19T14:39:00Z</time>
      </trkpt>
      <trkpt lat="44.33199" lon="2.47856">
        <ele>510</ele>
        <time>2013-02-19T14:39:07Z</time>
      </trkpt>
      <trkpt lat="44.33212" lon="2.47855">
        <ele>515</ele>
        <time>2013-02-19T14:39:16Z</time>
      </trkpt>
      <trkpt lat="44.33221" lon="2.47859">
        <ele>516</ele>
        <time>2013-02-19T14:39:20Z</time>
      </trkpt>
      <trkpt lat="44.33234" lon="2.47858">
        <ele>517</ele>
        <time>2013-02-19T14:39:24Z</time>
      </trkpt>
      <trkpt lat="44.33246" lon="2.47858">
        <ele>515</ele>
        <time>2013-02-19T14:39:30Z</time>
      </trkpt>
      <trkpt lat="44.33256" lon="2.47855">
        <ele>513</ele>
        <time>2013-02-19T14:39:35Z</time>
      </trkpt>
      <trkpt lat="44.33266" lon="2.47846">
        <ele>504</ele>
        <time>2013-02-19T14:39:57Z</time>
      </trkpt>
      <trkpt lat="44.33278" lon="2.47843">
        <ele>500</ele>
        <time>2013-02-19T14:40:13Z</time>
      </trkpt>
      <trkpt lat="44.33287" lon="2.47843">
        <ele>498</ele>
        <time>2013-02-19T14:40:21Z</time>
      </trkpt>
      <trkpt lat="44.33297" lon="2.47841">
        <ele>491</ele>
        <time>2013-02-19T14:40:28Z</time>
      </trkpt>
      <trkpt lat="44.33307" lon="2.47843">
        <ele>490</ele>
        <time>2013-02-19T14:40:31Z</time>
      </trkpt>
      <trkpt lat="44.33317" lon="2.47846">
        <ele>489</ele>
        <time>2013-02-19T14:40:33Z</time>
      </trkpt>
      <trkpt lat="44.33327" lon="2.47852">
        <ele>490</ele>
        <time>2013-02-19T14:40:37Z</time>
      </trkpt>
      <trkpt lat="44.33335" lon="2.47862">
        <ele>491</ele>
        <time>2013-02-19T14:40:43Z</time>
      </trkpt>
      <trkpt lat="44.33343" lon="2.4787">
        <ele>491</ele>
        <time>2013-02-19T14:40:49Z</time>
      </trkpt>
      <trkpt lat="44.33351" lon="2.47879">
        <ele>491</ele>
        <time>2013-02-19T14:40:57Z</time>
      </trkpt>
      <trkpt lat="44.33357" lon="2.47891">
        <ele>491</ele>
        <time>2013-02-19T14:41:02Z</time>
      </trkpt>
      <trkpt lat="44.33362" lon="2.47902">
        <ele>489</ele>
        <time>2013-02-19T14:41:09Z</time>
      </trkpt>
      <trkpt lat="44.33367" lon="2.47914">
        <ele>487</ele>
        <time>2013-02-19T14:41:16Z</time>
      </trkpt>
      <trkpt lat="44.33368" lon="2.47928">
        <ele>484</ele>
        <time>2013-02-19T14:41:22Z</time>
      </trkpt>
      <trkpt lat="44.33368" lon="2.47941">
        <ele>483</ele>
        <time>2013-02-19T14:41:27Z</time>
      </trkpt>
      <trkpt lat="44.33368" lon="2.47948">
        <ele>483</ele>
        <time>2013-02-19T14:41:31Z</time>
      </trkpt>
      <trkpt lat="44.33371" lon="2.47962">
        <ele>483</ele>
        <time>2013-02-19T14:41:39Z</time>
      </trkpt>
      <trkpt lat="44.33372" lon="2.47976">
        <ele>482</ele>
        <time>2013-02-19T14:41:46Z</time>
      </trkpt>
      <trkpt lat="44.33376" lon="2.47988">
        <ele>481</ele>
        <time>2013-02-19T14:41:52Z</time>
      </trkpt>
      <trkpt lat="44.33378" lon="2.48001">
        <ele>477</ele>
        <time>2013-02-19T14:41:59Z</time>
      </trkpt>
      <trkpt lat="44.33378" lon="2.48009">
        <ele>475</ele>
        <time>2013-02-19T14:42:13Z</time>
      </trkpt>
      <trkpt lat="44.33383" lon="2.48026">
        <ele>472</ele>
        <time>2013-02-19T14:42:34Z</time>
      </trkpt>
      <trkpt lat="44.33388" lon="2.48036">
        <ele>473</ele>
        <time>2013-02-19T14:42:39Z</time>
      </trkpt>
      <trkpt lat="44.33394" lon="2.48046">
        <ele>472</ele>
        <time>2013-02-19T14:42:47Z</time>
      </trkpt>
      <trkpt lat="44.33401" lon="2.48045">
        <ele>471</ele>
        <time>2013-02-19T14:42:57Z</time>
      </trkpt>
      <trkpt lat="44.33412" lon="2.48048">
        <ele>472</ele>
        <time>2013-02-19T14:43:05Z</time>
      </trkpt>
      <trkpt lat="44.33423" lon="2.48047">
        <ele>471</ele>
        <time>2013-02-19T14:43:17Z</time>
      </trkpt>
      <trkpt lat="44.33431" lon="2.48047">
        <ele>469</ele>
        <time>2013-02-19T14:43:35Z</time>
      </trkpt>
      <trkpt lat="44.33435" lon="2.4805">
        <ele>463</ele>
        <time>2013-02-19T14:44:11Z</time>
      </trkpt>
      <trkpt lat="44.33441" lon="2.48046">
        <ele>461</ele>
        <time>2013-02-19T14:44:28Z</time>
      </trkpt>
      <trkpt lat="44.33449" lon="2.48038">
        <ele>461</ele>
        <time>2013-02-19T14:44:51Z</time>
      </trkpt>
      <trkpt lat="44.33453" lon="2.48038">
        <ele>459</ele>
        <time>2013-02-19T14:45:01Z</time>
      </trkpt>
      <trkpt lat="44.33457" lon="2.48034">
        <ele>461</ele>
        <time>2013-02-19T14:46:06Z</time>
      </trkpt>
      <trkpt lat="44.33463" lon="2.48032">
        <ele>463</ele>
        <time>2013-02-19T14:49:28Z</time>
      </trkpt>
      <trkpt lat="44.33468" lon="2.48028">
        <ele>462</ele>
        <time>2013-02-19T14:50:08Z</time>
      </trkpt>
      <trkpt lat="44.33475" lon="2.4802">
        <ele>462</ele>
        <time>2013-02-19T14:50:18Z</time>
      </trkpt>
      <trkpt lat="44.33486" lon="2.48016">
        <ele>462</ele>
        <time>2013-02-19T14:50:33Z</time>
      </trkpt>
      <trkpt lat="44.33494" lon="2.48009">
        <ele>461</ele>
        <time>2013-02-19T14:50:40Z</time>
      </trkpt>
      <trkpt lat="44.335" lon="2.47999">
        <ele>457</ele>
        <time>2013-02-19T14:50:48Z</time>
      </trkpt>
      <trkpt lat="44.33507" lon="2.47991">
        <ele>452</ele>
        <time>2013-02-19T14:51:02Z</time>
      </trkpt>
      <trkpt lat="44.33506" lon="2.47981">
        <ele>455</ele>
        <time>2013-02-19T14:51:30Z</time>
      </trkpt>
      <trkpt lat="44.33516" lon="2.47978">
        <ele>455</ele>
        <time>2013-02-19T14:51:37Z</time>
      </trkpt>
      <trkpt lat="44.33527" lon="2.47976">
        <ele>460</ele>
        <time>2013-02-19T14:51:47Z</time>
      </trkpt>
      <trkpt lat="44.3353" lon="2.47969">
        <ele>472</ele>
        <time>2013-02-19T14:52:40Z</time>
      </trkpt>
      <trkpt lat="44.33532" lon="2.47963">
        <ele>473</ele>
        <time>2013-02-19T14:53:02Z</time>
      </trkpt>
      <trkpt lat="44.33537" lon="2.47964">
        <ele>478</ele>
        <time>2013-02-19T14:54:05Z</time>
      </trkpt>
      <trkpt lat="44.33542" lon="2.47976">
        <ele>479</ele>
        <time>2013-02-19T14:54:18Z</time>
      </trkpt>
      <trkpt lat="44.3354" lon="2.47991">
        <ele>479</ele>
        <time>2013-02-19T14:54:22Z</time>
      </trkpt>
      <trkpt lat="44.33535" lon="2.48006">
        <ele>481</ele>
        <time>2013-02-19T14:54:28Z</time>
      </trkpt>
      <trkpt lat="44.33533" lon="2.48021">
        <ele>483</ele>
        <time>2013-02-19T14:54:34Z</time>
      </trkpt>
      <trkpt lat="44.33531" lon="2.48035">
        <ele>484</ele>
        <time>2013-02-19T14:54:43Z</time>
      </trkpt>
      <trkpt lat="44.33531" lon="2.4805">
        <ele>485</ele>
        <time>2013-02-19T14:54:50Z</time>
      </trkpt>
      <trkpt lat="44.3353" lon="2.48063">
        <ele>486</ele>
        <time>2013-02-19T14:54:57Z</time>
      </trkpt>
      <trkpt lat="44.33535" lon="2.4808">
        <ele>484</ele>
        <time>2013-02-19T14:55:11Z</time>
      </trkpt>
      <trkpt lat="44.33548" lon="2.48083">
        <ele>481</ele>
        <time>2013-02-19T14:55:23Z</time>
      </trkpt>
      <trkpt lat="44.33559" lon="2.4808">
        <ele>482</ele>
        <time>2013-02-19T14:55:36Z</time>
      </trkpt>
      <trkpt lat="44.33569" lon="2.48078">
        <ele>483</ele>
        <time>2013-02-19T14:55:43Z</time>
      </trkpt>
      <trkpt lat="44.33577" lon="2.48082">
        <ele>484</ele>
        <time>2013-02-19T14:55:48Z</time>
      </trkpt>
      <trkpt lat="44.33588" lon="2.48082">
        <ele>485</ele>
        <time>2013-02-19T14:55:54Z</time>
      </trkpt>
      <trkpt lat="44.336" lon="2.48081">
        <ele>488</ele>
        <time>2013-02-19T14:56:01Z</time>
      </trkpt>
      <trkpt lat="44.33612" lon="2.4808">
        <ele>493</ele>
        <time>2013-02-19T14:56:09Z</time>
      </trkpt>
      <trkpt lat="44.33623" lon="2.48084">
        <ele>497</ele>
        <time>2013-02-19T14:56:19Z</time>
      </trkpt>
      <trkpt lat="44.33633" lon="2.48092">
        <ele>498</ele>
        <time>2013-02-19T14:56:26Z</time>
      </trkpt>
      <trkpt lat="44.33646" lon="2.481">
        <ele>498</ele>
        <time>2013-02-19T14:56:32Z</time>
      </trkpt>
      <trkpt lat="44.33655" lon="2.48101">
        <ele>498</ele>
        <time>2013-02-19T14:56:38Z</time>
      </trkpt>
      <trkpt lat="44.33665" lon="2.481">
        <ele>496</ele>
        <time>2013-02-19T14:56:46Z</time>
      </trkpt>
      <trkpt lat="44.33676" lon="2.481">
        <ele>493</ele>
        <time>2013-02-19T14:56:54Z</time>
      </trkpt>
      <trkpt lat="44.33686" lon="2.48102">
        <ele>490</ele>
        <time>2013-02-19T14:57:01Z</time>
      </trkpt>
      <trkpt lat="44.33697" lon="2.48097">
        <ele>488</ele>
        <time>2013-02-19T14:57:08Z</time>
      </trkpt>
      <trkpt lat="44.33708" lon="2.48091">
        <ele>484</ele>
        <time>2013-02-19T14:57:18Z</time>
      </trkpt>
      <trkpt lat="44.33717" lon="2.4809">
        <ele>481</ele>
        <time>2013-02-19T14:57:26Z</time>
      </trkpt>
      <trkpt lat="44.33727" lon="2.48081">
        <ele>477</ele>
        <time>2013-02-19T14:57:35Z</time>
      </trkpt>
      <trkpt lat="44.33737" lon="2.48083">
        <ele>476</ele>
        <time>2013-02-19T14:57:42Z</time>
      </trkpt>
      <trkpt lat="44.33747" lon="2.48083">
        <ele>476</ele>
        <time>2013-02-19T14:57:47Z</time>
      </trkpt>
      <trkpt lat="44.33756" lon="2.4808">
        <ele>473</ele>
        <time>2013-02-19T14:57:54Z</time>
      </trkpt>
      <trkpt lat="44.33767" lon="2.4807">
        <ele>470</ele>
        <time>2013-02-19T14:58:02Z</time>
      </trkpt>
      <trkpt lat="44.33775" lon="2.48063">
        <ele>468</ele>
        <time>2013-02-19T14:58:09Z</time>
      </trkpt>
      <trkpt lat="44.33783" lon="2.48053">
        <ele>467</ele>
        <time>2013-02-19T14:58:17Z</time>
      </trkpt>
      <trkpt lat="44.33791" lon="2.48045">
        <ele>466</ele>
        <time>2013-02-19T14:58:26Z</time>
      </trkpt>
      <trkpt lat="44.33799" lon="2.48037">
        <ele>465</ele>
        <time>2013-02-19T14:58:33Z</time>
      </trkpt>
      <trkpt lat="44.33807" lon="2.48025">
        <ele>463</ele>
        <time>2013-02-19T14:58:42Z</time>
      </trkpt>
      <trkpt lat="44.33809" lon="2.48006">
        <ele>462</ele>
        <time>2013-02-19T14:58:55Z</time>
      </trkpt>
      <trkpt lat="44.33815" lon="2.47994">
        <ele>461</ele>
        <time>2013-02-19T14:59:03Z</time>
      </trkpt>
      <trkpt lat="44.33818" lon="2.47981">
        <ele>462</ele>
        <time>2013-02-19T14:59:11Z</time>
      </trkpt>
      <trkpt lat="44.33822" lon="2.47969">
        <ele>463</ele>
        <time>2013-02-19T14:59:19Z</time>
      </trkpt>
      <trkpt lat="44.33827" lon="2.47958">
        <ele>466</ele>
        <time>2013-02-19T14:59:22Z</time>
      </trkpt>
      <trkpt lat="44.33833" lon="2.4794">
        <ele>470</ele>
        <time>2013-02-19T14:59:29Z</time>
      </trkpt>
      <trkpt lat="44.33838" lon="2.47927">
        <ele>472</ele>
        <time>2013-02-19T14:59:35Z</time>
      </trkpt>
      <trkpt lat="44.33847" lon="2.47921">
        <ele>472</ele>
        <time>2013-02-19T14:59:40Z</time>
      </trkpt>
      <trkpt lat="44.33854" lon="2.47906">
        <ele>472</ele>
        <time>2013-02-19T14:59:50Z</time>
      </trkpt>
      <trkpt lat="44.3386" lon="2.47897">
        <ele>475</ele>
        <time>2013-02-19T14:59:56Z</time>
      </trkpt>
      <trkpt lat="44.3387" lon="2.47885">
        <ele>478</ele>
        <time>2013-02-19T15:00:03Z</time>
      </trkpt>
      <trkpt lat="44.33878" lon="2.47875">
        <ele>480</ele>
        <time>2013-02-19T15:00:10Z</time>
      </trkpt>
      <trkpt lat="44.33884" lon="2.47863">
        <ele>483</ele>
        <time>2013-02-19T15:00:18Z</time>
      </trkpt>
      <trkpt lat="44.33887" lon="2.47851">
        <ele>483</ele>
        <time>2013-02-19T15:00:25Z</time>
      </trkpt>
      <trkpt lat="44.33892" lon="2.47839">
        <ele>479</ele>
        <time>2013-02-19T15:00:33Z</time>
      </trkpt>
      <trkpt lat="44.33895" lon="2.47825">
        <ele>476</ele>
        <time>2013-02-19T15:00:40Z</time>
      </trkpt>
      <trkpt lat="44.33901" lon="2.47814">
        <ele>476</ele>
        <time>2013-02-19T15:00:48Z</time>
      </trkpt>
      <trkpt lat="44.33907" lon="2.47805">
        <ele>475</ele>
        <time>2013-02-19T15:00:54Z</time>
      </trkpt>
      <trkpt lat="44.33911" lon="2.4779">
        <ele>474</ele>
        <time>2013-02-19T15:01:01Z</time>
      </trkpt>
      <trkpt lat="44.33909" lon="2.47771">
        <ele>473</ele>
        <time>2013-02-19T15:01:06Z</time>
      </trkpt>
      <trkpt lat="44.33908" lon="2.47758">
        <ele>473</ele>
        <time>2013-02-19T15:01:11Z</time>
      </trkpt>
      <trkpt lat="44.33913" lon="2.47746">
        <ele>473</ele>
        <time>2013-02-19T15:01:18Z</time>
      </trkpt>
      <trkpt lat="44.33915" lon="2.47733">
        <ele>472</ele>
        <time>2013-02-19T15:01:23Z</time>
      </trkpt>
      <trkpt lat="44.3392" lon="2.47719">
        <ele>471</ele>
        <time>2013-02-19T15:01:31Z</time>
      </trkpt>
      <trkpt lat="44.33927" lon="2.47707">
        <ele>470</ele>
        <time>2013-02-19T15:01:39Z</time>
      </trkpt>
      <trkpt lat="44.33925" lon="2.47692">
        <ele>470</ele>
        <time>2013-02-19T15:01:46Z</time>
      </trkpt>
      <trkpt lat="44.33925" lon="2.47674">
        <ele>466</ele>
        <time>2013-02-19T15:02:00Z</time>
      </trkpt>
      <trkpt lat="44.33927" lon="2.47657">
        <ele>463</ele>
        <time>2013-02-19T15:02:09Z</time>
      </trkpt>
      <trkpt lat="44.33929" lon="2.47645">
        <ele>463</ele>
        <time>2013-02-19T15:02:15Z</time>
      </trkpt>
      <trkpt lat="44.33934" lon="2.47632">
        <ele>461</ele>
        <time>2013-02-19T15:02:23Z</time>
      </trkpt>
      <trkpt lat="44.33942" lon="2.47622">
        <ele>458</ele>
        <time>2013-02-19T15:02:28Z</time>
      </trkpt>
      <trkpt lat="44.33949" lon="2.47613">
        <ele>458</ele>
        <time>2013-02-19T15:02:34Z</time>
      </trkpt>
      <trkpt lat="44.33959" lon="2.47603">
        <ele>455</ele>
        <time>2013-02-19T15:02:45Z</time>
      </trkpt>
      <trkpt lat="44.33963" lon="2.47591">
        <ele>456</ele>
        <time>2013-02-19T15:02:51Z</time>
      </trkpt>
      <trkpt lat="44.3397" lon="2.47578">
        <ele>456</ele>
        <time>2013-02-19T15:02:56Z</time>
      </trkpt>
      <trkpt lat="44.33971" lon="2.47566">
        <ele>457</ele>
        <time>2013-02-19T15:03:03Z</time>
      </trkpt>
      <trkpt lat="44.33974" lon="2.47552">
        <ele>456</ele>
        <time>2013-02-19T15:03:12Z</time>
      </trkpt>
      <trkpt lat="44.3398" lon="2.47541">
        <ele>454</ele>
        <time>2013-02-19T15:03:19Z</time>
      </trkpt>
      <trkpt lat="44.33993" lon="2.47521">
        <ele>452</ele>
        <time>2013-02-19T15:03:33Z</time>
      </trkpt>
      <trkpt lat="44.33993" lon="2.47508">
        <ele>450</ele>
        <time>2013-02-19T15:03:37Z</time>
      </trkpt>
      <trkpt lat="44.33995" lon="2.47489">
        <ele>451</ele>
        <time>2013-02-19T15:03:43Z</time>
      </trkpt>
      <trkpt lat="44.33993" lon="2.47476">
        <ele>454</ele>
        <time>2013-02-19T15:03:46Z</time>
      </trkpt>
      <trkpt lat="44.33992" lon="2.47461">
        <ele>461</ele>
        <time>2013-02-19T15:03:52Z</time>
      </trkpt>
      <trkpt lat="44.33989" lon="2.47448">
        <ele>464</ele>
        <time>2013-02-19T15:03:58Z</time>
      </trkpt>
      <trkpt lat="44.33991" lon="2.47435">
        <ele>467</ele>
        <time>2013-02-19T15:04:04Z</time>
      </trkpt>
      <trkpt lat="44.33996" lon="2.47423">
        <ele>472</ele>
        <time>2013-02-19T15:04:11Z</time>
      </trkpt>
      <trkpt lat="44.33999" lon="2.4741">
        <ele>475</ele>
        <time>2013-02-19T15:04:19Z</time>
      </trkpt>
      <trkpt lat="44.34001" lon="2.47397">
        <ele>476</ele>
        <time>2013-02-19T15:04:25Z</time>
      </trkpt>
      <trkpt lat="44.34004" lon="2.47383">
        <ele>475</ele>
        <time>2013-02-19T15:04:32Z</time>
      </trkpt>
      <trkpt lat="44.34009" lon="2.47371">
        <ele>476</ele>
        <time>2013-02-19T15:04:38Z</time>
      </trkpt>
      <trkpt lat="44.3401" lon="2.47358">
        <ele>477</ele>
        <time>2013-02-19T15:04:47Z</time>
      </trkpt>
      <trkpt lat="44.3402" lon="2.47349">
        <ele>479</ele>
        <time>2013-02-19T15:05:01Z</time>
      </trkpt>
      <trkpt lat="44.34024" lon="2.47334">
        <ele>480</ele>
        <time>2013-02-19T15:05:07Z</time>
      </trkpt>
      <trkpt lat="44.34024" lon="2.47321">
        <ele>480</ele>
        <time>2013-02-19T15:05:14Z</time>
      </trkpt>
      <trkpt lat="44.34024" lon="2.47306">
        <ele>482</ele>
        <time>2013-02-19T15:05:21Z</time>
      </trkpt>
      <trkpt lat="44.34025" lon="2.47293">
        <ele>482</ele>
        <time>2013-02-19T15:05:30Z</time>
      </trkpt>
      <trkpt lat="44.34026" lon="2.47279">
        <ele>484</ele>
        <time>2013-02-19T15:05:37Z</time>
      </trkpt>
      <trkpt lat="44.34028" lon="2.47267">
        <ele>485</ele>
        <time>2013-02-19T15:05:43Z</time>
      </trkpt>
      <trkpt lat="44.34028" lon="2.47253">
        <ele>482</ele>
        <time>2013-02-19T15:05:53Z</time>
      </trkpt>
      <trkpt lat="44.34028" lon="2.47239">
        <ele>479</ele>
        <time>2013-02-19T15:06:00Z</time>
      </trkpt>
      <trkpt lat="44.34028" lon="2.47221">
        <ele>476</ele>
        <time>2013-02-19T15:06:08Z</time>
      </trkpt>
      <trkpt lat="44.34028" lon="2.47208">
        <ele>474</ele>
        <time>2013-02-19T15:06:14Z</time>
      </trkpt>
      <trkpt lat="44.34029" lon="2.47193">
        <ele>474</ele>
        <time>2013-02-19T15:06:22Z</time>
      </trkpt>
      <trkpt lat="44.34028" lon="2.47179">
        <ele>475</ele>
        <time>2013-02-19T15:06:29Z</time>
      </trkpt>
      <trkpt lat="44.34028" lon="2.47164">
        <ele>475</ele>
        <time>2013-02-19T15:06:36Z</time>
      </trkpt>
      <trkpt lat="44.34027" lon="2.47151">
        <ele>474</ele>
        <time>2013-02-19T15:06:43Z</time>
      </trkpt>
      <trkpt lat="44.34023" lon="2.47139">
        <ele>475</ele>
        <time>2013-02-19T15:06:50Z</time>
      </trkpt>
      <trkpt lat="44.34018" lon="2.47128">
        <ele>476</ele>
        <time>2013-02-19T15:06:55Z</time>
      </trkpt>
      <trkpt lat="44.34014" lon="2.47114">
        <ele>477</ele>
        <time>2013-02-19T15:07:04Z</time>
      </trkpt>
      <trkpt lat="44.3401" lon="2.47102">
        <ele>475</ele>
        <time>2013-02-19T15:07:11Z</time>
      </trkpt>
      <trkpt lat="44.34008" lon="2.4709">
        <ele>471</ele>
        <time>2013-02-19T15:07:16Z</time>
      </trkpt>
      <trkpt lat="44.34007" lon="2.47076">
        <ele>470</ele>
        <time>2013-02-19T15:07:22Z</time>
      </trkpt>
      <trkpt lat="44.34006" lon="2.47062">
        <ele>468</ele>
        <time>2013-02-19T15:07:30Z</time>
      </trkpt>
      <trkpt lat="44.34007" lon="2.47048">
        <ele>466</ele>
        <time>2013-02-19T15:07:38Z</time>
      </trkpt>
      <trkpt lat="44.34008" lon="2.47034">
        <ele>465</ele>
        <time>2013-02-19T15:07:45Z</time>
      </trkpt>
      <trkpt lat="44.34005" lon="2.47018">
        <ele>461</ele>
        <time>2013-02-19T15:07:53Z</time>
      </trkpt>
      <trkpt lat="44.34001" lon="2.47003">
        <ele>459</ele>
        <time>2013-02-19T15:08:00Z</time>
      </trkpt>
      <trkpt lat="44.34001" lon="2.4699">
        <ele>459</ele>
        <time>2013-02-19T15:08:05Z</time>
      </trkpt>
      <trkpt lat="44.34002" lon="2.46975">
        <ele>460</ele>
        <time>2013-02-19T15:08:11Z</time>
      </trkpt>
      <trkpt lat="44.34001" lon="2.46961">
        <ele>457</ele>
        <time>2013-02-19T15:08:18Z</time>
      </trkpt>
      <trkpt lat="44.33998" lon="2.46944">
        <ele>453</ele>
        <time>2013-02-19T15:08:30Z</time>
      </trkpt>
      <trkpt lat="44.33997" lon="2.4693">
        <ele>454</ele>
        <time>2013-02-19T15:08:37Z</time>
      </trkpt>
      <trkpt lat="44.33995" lon="2.46917">
        <ele>453</ele>
        <time>2013-02-19T15:08:45Z</time>
      </trkpt>
      <trkpt lat="44.33991" lon="2.46903">
        <ele>453</ele>
        <time>2013-02-19T15:08:52Z</time>
      </trkpt>
      <trkpt lat="44.33988" lon="2.46888">
        <ele>454</ele>
        <time>2013-02-19T15:08:58Z</time>
      </trkpt>
      <trkpt lat="44.33986" lon="2.46872">
        <ele>452</ele>
        <time>2013-02-19T15:09:03Z</time>
      </trkpt>
      <trkpt lat="44.33984" lon="2.46855">
        <ele>450</ele>
        <time>2013-02-19T15:09:08Z</time>
      </trkpt>
      <trkpt lat="44.33981" lon="2.46842">
        <ele>449</ele>
        <time>2013-02-19T15:09:13Z</time>
      </trkpt>
      <trkpt lat="44.33981" lon="2.46828">
        <ele>449</ele>
        <time>2013-02-19T15:09:19Z</time>
      </trkpt>
      <trkpt lat="44.33982" lon="2.46811">
        <ele>449</ele>
        <time>2013-02-19T15:09:25Z</time>
      </trkpt>
      <trkpt lat="44.33982" lon="2.46798">
        <ele>452</ele>
        <time>2013-02-19T15:09:32Z</time>
      </trkpt>
      <trkpt lat="44.33984" lon="2.46784">
        <ele>456</ele>
        <time>2013-02-19T15:09:41Z</time>
      </trkpt>
      <trkpt lat="44.33986" lon="2.4677">
        <ele>459</ele>
        <time>2013-02-19T15:09:48Z</time>
      </trkpt>
      <trkpt lat="44.33989" lon="2.46758">
        <ele>460</ele>
        <time>2013-02-19T15:09:54Z</time>
      </trkpt>
      <trkpt lat="44.3399" lon="2.46744">
        <ele>458</ele>
        <time>2013-02-19T15:10:01Z</time>
      </trkpt>
      <trkpt lat="44.33991" lon="2.46732">
        <ele>460</ele>
        <time>2013-02-19T15:10:07Z</time>
      </trkpt>
      <trkpt lat="44.33992" lon="2.46719">
        <ele>462</ele>
        <time>2013-02-19T15:10:13Z</time>
      </trkpt>
      <trkpt lat="44.33993" lon="2.46705">
        <ele>464</ele>
        <time>2013-02-19T15:10:19Z</time>
      </trkpt>
      <trkpt lat="44.33993" lon="2.46692">
        <ele>469</ele>
        <time>2013-02-19T15:10:26Z</time>
      </trkpt>
      <trkpt lat="44.33995" lon="2.46678">
        <ele>471</ele>
        <time>2013-02-19T15:10:35Z</time>
      </trkpt>
      <trkpt lat="44.34001" lon="2.46667">
        <ele>471</ele>
        <time>2013-02-19T15:10:42Z</time>
      </trkpt>
      <trkpt lat="44.34006" lon="2.46652">
        <ele>469</ele>
        <time>2013-02-19T15:10:56Z</time>
      </trkpt>
      <trkpt lat="44.34008" lon="2.46638">
        <ele>470</ele>
        <time>2013-02-19T15:11:03Z</time>
      </trkpt>
      <trkpt lat="44.34014" lon="2.46623">
        <ele>473</ele>
        <time>2013-02-19T15:11:20Z</time>
      </trkpt>
      <trkpt lat="44.3402" lon="2.4661">
        <ele>475</ele>
        <time>2013-02-19T15:11:33Z</time>
      </trkpt>
      <trkpt lat="44.34027" lon="2.46602">
        <ele>476</ele>
        <time>2013-02-19T15:11:39Z</time>
      </trkpt>
      <trkpt lat="44.34036" lon="2.46593">
        <ele>475</ele>
        <time>2013-02-19T15:11:45Z</time>
      </trkpt>
      <trkpt lat="44.34042" lon="2.46584">
        <ele>473</ele>
        <time>2013-02-19T15:11:50Z</time>
      </trkpt>
      <trkpt lat="44.3405" lon="2.46575">
        <ele>472</ele>
        <time>2013-02-19T15:11:56Z</time>
      </trkpt>
      <trkpt lat="44.34057" lon="2.46566">
        <ele>474</ele>
        <time>2013-02-19T15:12:02Z</time>
      </trkpt>
      <trkpt lat="44.34064" lon="2.46557">
        <ele>475</ele>
        <time>2013-02-19T15:12:09Z</time>
      </trkpt>
      <trkpt lat="44.34071" lon="2.46547">
        <ele>477</ele>
        <time>2013-02-19T15:12:16Z</time>
      </trkpt>
      <trkpt lat="44.34077" lon="2.46535">
        <ele>477</ele>
        <time>2013-02-19T15:12:21Z</time>
      </trkpt>
      <trkpt lat="44.34083" lon="2.46524">
        <ele>475</ele>
        <time>2013-02-19T15:12:26Z</time>
      </trkpt>
      <trkpt lat="44.34089" lon="2.46508">
        <ele>473</ele>
        <time>2013-02-19T15:12:34Z</time>
      </trkpt>
      <trkpt lat="44.34095" lon="2.46498">
        <ele>475</ele>
        <time>2013-02-19T15:12:40Z</time>
      </trkpt>
      <trkpt lat="44.34102" lon="2.46488">
        <ele>476</ele>
        <time>2013-02-19T15:12:50Z</time>
      </trkpt>
      <trkpt lat="44.34112" lon="2.46479">
        <ele>475</ele>
        <time>2013-02-19T15:12:57Z</time>
      </trkpt>
      <trkpt lat="44.34118" lon="2.4647">
        <ele>475</ele>
        <time>2013-02-19T15:13:03Z</time>
      </trkpt>
      <trkpt lat="44.34125" lon="2.46461">
        <ele>477</ele>
        <time>2013-02-19T15:13:11Z</time>
      </trkpt>
      <trkpt lat="44.34132" lon="2.4645">
        <ele>480</ele>
        <time>2013-02-19T15:13:17Z</time>
      </trkpt>
      <trkpt lat="44.34136" lon="2.46443">
        <ele>481</ele>
        <time>2013-02-19T15:13:23Z</time>
      </trkpt>
      <trkpt lat="44.34141" lon="2.46439">
        <ele>480</ele>
        <time>2013-02-19T15:13:26Z</time>
      </trkpt>
      <trkpt lat="44.34148" lon="2.4643">
        <ele>480</ele>
        <time>2013-02-19T15:13:32Z</time>
      </trkpt>
      <trkpt lat="44.34153" lon="2.46418">
        <ele>481</ele>
        <time>2013-02-19T15:13:40Z</time>
      </trkpt>
      <trkpt lat="44.34157" lon="2.46406">
        <ele>481</ele>
        <time>2013-02-19T15:13:48Z</time>
      </trkpt>
      <trkpt lat="44.34162" lon="2.46394">
        <ele>483</ele>
        <time>2013-02-19T15:13:55Z</time>
      </trkpt>
      <trkpt lat="44.34169" lon="2.46383">
        <ele>482</ele>
        <time>2013-02-19T15:14:04Z</time>
      </trkpt>
      <trkpt lat="44.34175" lon="2.46373">
        <ele>483</ele>
        <time>2013-02-19T15:14:12Z</time>
      </trkpt>
      <trkpt lat="44.34179" lon="2.46362">
        <ele>484</ele>
        <time>2013-02-19T15:14:18Z</time>
      </trkpt>
      <trkpt lat="44.34186" lon="2.46351">
        <ele>486</ele>
        <time>2013-02-19T15:14:27Z</time>
      </trkpt>
      <trkpt lat="44.34194" lon="2.46345">
        <ele>486</ele>
        <time>2013-02-19T15:14:33Z</time>
      </trkpt>
      <trkpt lat="44.34198" lon="2.46341">
        <ele>488</ele>
        <time>2013-02-19T15:14:39Z</time>
      </trkpt>
      <trkpt lat="44.34202" lon="2.46338">
        <ele>488</ele>
        <time>2013-02-19T15:14:43Z</time>
      </trkpt>
      <trkpt lat="44.34208" lon="2.46335">
        <ele>488</ele>
        <time>2013-02-19T15:14:46Z</time>
      </trkpt>
      <trkpt lat="44.34213" lon="2.46335">
        <ele>489</ele>
        <time>2013-02-19T15:14:50Z</time>
      </trkpt>
      <trkpt lat="44.34219" lon="2.46334">
        <ele>490</ele>
        <time>2013-02-19T15:14:55Z</time>
      </trkpt>
      <trkpt lat="44.34228" lon="2.46339">
        <ele>491</ele>
        <time>2013-02-19T15:15:04Z</time>
      </trkpt>
      <trkpt lat="44.34232" lon="2.46341">
        <ele>493</ele>
        <time>2013-02-19T15:15:09Z</time>
      </trkpt>
      <trkpt lat="44.34236" lon="2.46347">
        <ele>494</ele>
        <time>2013-02-19T15:15:14Z</time>
      </trkpt>
      <trkpt lat="44.34241" lon="2.46353">
        <ele>497</ele>
        <time>2013-02-19T15:15:19Z</time>
      </trkpt>
      <trkpt lat="44.34244" lon="2.46358">
        <ele>499</ele>
        <time>2013-02-19T15:15:22Z</time>
      </trkpt>
      <trkpt lat="44.34248" lon="2.46361">
        <ele>500</ele>
        <time>2013-02-19T15:15:25Z</time>
      </trkpt>
      <trkpt lat="44.34255" lon="2.4637">
        <ele>504</ele>
        <time>2013-02-19T15:15:32Z</time>
      </trkpt>
      <trkpt lat="44.34262" lon="2.46372">
        <ele>506</ele>
        <time>2013-02-19T15:15:43Z</time>
      </trkpt>
      <trkpt lat="44.34272" lon="2.46373">
        <ele>508</ele>
        <time>2013-02-19T15:15:49Z</time>
      </trkpt>
      <trkpt lat="44.34281" lon="2.46374">
        <ele>510</ele>
        <time>2013-02-19T15:15:57Z</time>
      </trkpt>
      <trkpt lat="44.34291" lon="2.46371">
        <ele>511</ele>
        <time>2013-02-19T15:16:01Z</time>
      </trkpt>
      <trkpt lat="44.34296" lon="2.46369">
        <ele>510</ele>
        <time>2013-02-19T15:16:04Z</time>
      </trkpt>
      <trkpt lat="44.34305" lon="2.46367">
        <ele>511</ele>
        <time>2013-02-19T15:16:11Z</time>
      </trkpt>
      <trkpt lat="44.34316" lon="2.46367">
        <ele>513</ele>
        <time>2013-02-19T15:16:21Z</time>
      </trkpt>
      <trkpt lat="44.34328" lon="2.46368">
        <ele>513</ele>
        <time>2013-02-19T15:16:28Z</time>
      </trkpt>
      <trkpt lat="44.34339" lon="2.46369">
        <ele>512</ele>
        <time>2013-02-19T15:16:35Z</time>
      </trkpt>
      <trkpt lat="44.34349" lon="2.46368">
        <ele>511</ele>
        <time>2013-02-19T15:16:40Z</time>
      </trkpt>
      <trkpt lat="44.34354" lon="2.46368">
        <ele>511</ele>
        <time>2013-02-19T15:16:42Z</time>
      </trkpt>
      <trkpt lat="44.3436" lon="2.46368">
        <ele>510</ele>
        <time>2013-02-19T15:16:45Z</time>
      </trkpt>
      <trkpt lat="44.34365" lon="2.46369">
        <ele>509</ele>
        <time>2013-02-19T15:16:48Z</time>
      </trkpt>
      <trkpt lat="44.34371" lon="2.4637">
        <ele>510</ele>
        <time>2013-02-19T15:16:51Z</time>
      </trkpt>
      <trkpt lat="44.34376" lon="2.46371">
        <ele>510</ele>
        <time>2013-02-19T15:16:54Z</time>
      </trkpt>
      <trkpt lat="44.3438" lon="2.46371">
        <ele>510</ele>
        <time>2013-02-19T15:16:57Z</time>
      </trkpt>
      <trkpt lat="44.3439" lon="2.46372">
        <ele>509</ele>
        <time>2013-02-19T15:17:03Z</time>
      </trkpt>
      <trkpt lat="44.34396" lon="2.46372">
        <ele>508</ele>
        <time>2013-02-19T15:17:07Z</time>
      </trkpt>
      <trkpt lat="44.34401" lon="2.46372">
        <ele>509</ele>
        <time>2013-02-19T15:17:10Z</time>
      </trkpt>
      <trkpt lat="44.34407" lon="2.46372">
        <ele>508</ele>
        <time>2013-02-19T15:17:13Z</time>
      </trkpt>
      <trkpt lat="44.34413" lon="2.46371">
        <ele>507</ele>
        <time>2013-02-19T15:17:16Z</time>
      </trkpt>
      <trkpt lat="44.34418" lon="2.46371">
        <ele>507</ele>
        <time>2013-02-19T15:17:19Z</time>
      </trkpt>
      <trkpt lat="44.34428" lon="2.46376">
        <ele>503</ele>
        <time>2013-02-19T15:17:29Z</time>
      </trkpt>
      <trkpt lat="44.34437" lon="2.46384">
        <ele>503</ele>
        <time>2013-02-19T15:17:37Z</time>
      </trkpt>
      <trkpt lat="44.34445" lon="2.46396">
        <ele>503</ele>
        <time>2013-02-19T15:17:44Z</time>
      </trkpt>
      <trkpt lat="44.34455" lon="2.46399">
        <ele>502</ele>
        <time>2013-02-19T15:17:51Z</time>
      </trkpt>
      <trkpt lat="44.34466" lon="2.46404">
        <ele>501</ele>
        <time>2013-02-19T15:18:00Z</time>
      </trkpt>
      <trkpt lat="44.34475" lon="2.4641">
        <ele>501</ele>
        <time>2013-02-19T15:18:06Z</time>
      </trkpt>
      <trkpt lat="44.34484" lon="2.46415">
        <ele>501</ele>
        <time>2013-02-19T15:18:11Z</time>
      </trkpt>
      <trkpt lat="44.34493" lon="2.46426">
        <ele>502</ele>
        <time>2013-02-19T15:18:20Z</time>
      </trkpt>
      <trkpt lat="44.34502" lon="2.46431">
        <ele>502</ele>
        <time>2013-02-19T15:18:23Z</time>
      </trkpt>
      <trkpt lat="44.34511" lon="2.46438">
        <ele>500</ele>
        <time>2013-02-19T15:18:26Z</time>
      </trkpt>
      <trkpt lat="44.34519" lon="2.46444">
        <ele>500</ele>
        <time>2013-02-19T15:18:29Z</time>
      </trkpt>
      <trkpt lat="44.34527" lon="2.46454">
        <ele>499</ele>
        <time>2013-02-19T15:18:33Z</time>
      </trkpt>
      <trkpt lat="44.34536" lon="2.46459">
        <ele>495</ele>
        <time>2013-02-19T15:18:52Z</time>
      </trkpt>
      <trkpt lat="44.34547" lon="2.46461">
        <ele>495</ele>
        <time>2013-02-19T15:19:08Z</time>
      </trkpt>
      <trkpt lat="44.34552" lon="2.46461">
        <ele>495</ele>
        <time>2013-02-19T15:19:24Z</time>
      </trkpt>
      <trkpt lat="44.34562" lon="2.46464">
        <ele>495</ele>
        <time>2013-02-19T15:19:34Z</time>
      </trkpt>
      <trkpt lat="44.3457" lon="2.46472">
        <ele>493</ele>
        <time>2013-02-19T15:19:41Z</time>
      </trkpt>
      <trkpt lat="44.3458" lon="2.46483">
        <ele>488</ele>
        <time>2013-02-19T15:19:52Z</time>
      </trkpt>
      <trkpt lat="44.3459" lon="2.46487">
        <ele>485</ele>
        <time>2013-02-19T15:19:57Z</time>
      </trkpt>
      <trkpt lat="44.34599" lon="2.46489">
        <ele>484</ele>
        <time>2013-02-19T15:20:02Z</time>
      </trkpt>
      <trkpt lat="44.3461" lon="2.46492">
        <ele>483</ele>
        <time>2013-02-19T15:20:08Z</time>
      </trkpt>
      <trkpt lat="44.34618" lon="2.46497">
        <ele>483</ele>
        <time>2013-02-19T15:20:14Z</time>
      </trkpt>
      <trkpt lat="44.34627" lon="2.4651">
        <ele>483</ele>
        <time>2013-02-19T15:20:22Z</time>
      </trkpt>
      <trkpt lat="44.34634" lon="2.46524">
        <ele>485</ele>
        <time>2013-02-19T15:20:28Z</time>
      </trkpt>
      <trkpt lat="44.34637" lon="2.46536">
        <ele>487</ele>
        <time>2013-02-19T15:20:33Z</time>
      </trkpt>
      <trkpt lat="44.34643" lon="2.46546">
        <ele>489</ele>
        <time>2013-02-19T15:20:39Z</time>
      </trkpt>
      <trkpt lat="44.3465" lon="2.46543">
        <ele>492</ele>
        <time>2013-02-19T15:20:45Z</time>
      </trkpt>
      <trkpt lat="44.34655" lon="2.46539">
        <ele>490</ele>
        <time>2013-02-19T15:20:49Z</time>
      </trkpt>
      <trkpt lat="44.34662" lon="2.46529">
        <ele>488</ele>
        <time>2013-02-19T15:20:55Z</time>
      </trkpt>
      <trkpt lat="44.34665" lon="2.46529">
        <ele>485</ele>
        <time>2013-02-19T15:21:02Z</time>
      </trkpt>
      <trkpt lat="44.34659" lon="2.4654">
        <ele>482</ele>
        <time>2013-02-19T15:21:14Z</time>
      </trkpt>
      <trkpt lat="44.34654" lon="2.46552">
        <ele>479</ele>
        <time>2013-02-19T15:21:24Z</time>
      </trkpt>
      <trkpt lat="44.34645" lon="2.46568">
        <ele>479</ele>
        <time>2013-02-19T15:21:35Z</time>
      </trkpt>
      <trkpt lat="44.3464" lon="2.46582">
        <ele>480</ele>
        <time>2013-02-19T15:21:45Z</time>
      </trkpt>
      <trkpt lat="44.34636" lon="2.46598">
        <ele>487</ele>
        <time>2013-02-19T15:21:56Z</time>
      </trkpt>
      <trkpt lat="44.34639" lon="2.46612">
        <ele>490</ele>
        <time>2013-02-19T15:22:01Z</time>
      </trkpt>
      <trkpt lat="44.34642" lon="2.46627">
        <ele>491</ele>
        <time>2013-02-19T15:22:06Z</time>
      </trkpt>
      <trkpt lat="44.34647" lon="2.46639">
        <ele>493</ele>
        <time>2013-02-19T15:22:13Z</time>
      </trkpt>
      <trkpt lat="44.3465" lon="2.46652">
        <ele>494</ele>
        <time>2013-02-19T15:22:20Z</time>
      </trkpt>
      <trkpt lat="44.34651" lon="2.46665">
        <ele>496</ele>
        <time>2013-02-19T15:22:28Z</time>
      </trkpt>
      <trkpt lat="44.34653" lon="2.46679">
        <ele>497</ele>
        <time>2013-02-19T15:22:37Z</time>
      </trkpt>
      <trkpt lat="44.34652" lon="2.46692">
        <ele>498</ele>
        <time>2013-02-19T15:22:41Z</time>
      </trkpt>
      <trkpt lat="44.34653" lon="2.46707">
        <ele>498</ele>
        <time>2013-02-19T15:22:46Z</time>
      </trkpt>
      <trkpt lat="44.34653" lon="2.46721">
        <ele>498</ele>
        <time>2013-02-19T15:22:53Z</time>
      </trkpt>
      <trkpt lat="44.3465" lon="2.46736">
        <ele>496</ele>
        <time>2013-02-19T15:23:01Z</time>
      </trkpt>
      <trkpt lat="44.34645" lon="2.46749">
        <ele>495</ele>
        <time>2013-02-19T15:23:08Z</time>
      </trkpt>
      <trkpt lat="44.3464" lon="2.4676">
        <ele>494</ele>
        <time>2013-02-19T15:23:16Z</time>
      </trkpt>
      <trkpt lat="44.34634" lon="2.46771">
        <ele>493</ele>
        <time>2013-02-19T15:23:24Z</time>
      </trkpt>
      <trkpt lat="44.34631" lon="2.46784">
        <ele>493</ele>
        <time>2013-02-19T15:23:32Z</time>
      </trkpt>
      <trkpt lat="44.34625" lon="2.46798">
        <ele>492</ele>
        <time>2013-02-19T15:23:46Z</time>
      </trkpt>
      <trkpt lat="44.34627" lon="2.46813">
        <ele>498</ele>
        <time>2013-02-19T15:23:59Z</time>
      </trkpt>
      <trkpt lat="44.34631" lon="2.46827">
        <ele>505</ele>
        <time>2013-02-19T15:24:05Z</time>
      </trkpt>
      <trkpt lat="44.34628" lon="2.46845">
        <ele>522</ele>
        <time>2013-02-19T15:24:24Z</time>
      </trkpt>
      <trkpt lat="44.3463" lon="2.46859">
        <ele>525</ele>
        <time>2013-02-19T15:24:31Z</time>
      </trkpt>
      <trkpt lat="44.34636" lon="2.46873">
        <ele>531</ele>
        <time>2013-02-19T15:24:38Z</time>
      </trkpt>
      <trkpt lat="44.34643" lon="2.46884">
        <ele>534</ele>
        <time>2013-02-19T15:24:44Z</time>
      </trkpt>
      <trkpt lat="44.34649" lon="2.46893">
        <ele>536</ele>
        <time>2013-02-19T15:24:50Z</time>
      </trkpt>
      <trkpt lat="44.34655" lon="2.46905">
        <ele>537</ele>
        <time>2013-02-19T15:24:59Z</time>
      </trkpt>
      <trkpt lat="44.34659" lon="2.46912">
        <ele>538</ele>
        <time>2013-02-19T15:25:04Z</time>
      </trkpt>
      <trkpt lat="44.3466" lon="2.46909">
        <ele>547</ele>
        <time>2013-02-19T15:25:56Z</time>
      </trkpt>
      <trkpt lat="44.34655" lon="2.46897">
        <ele>548</ele>
        <time>2013-02-19T15:26:11Z</time>
      </trkpt>
      <trkpt lat="44.34656" lon="2.46883">
        <ele>547</ele>
        <time>2013-02-19T15:26:18Z</time>
      </trkpt>
      <trkpt lat="44.34661" lon="2.46871">
        <ele>545</ele>
        <time>2013-02-19T15:26:28Z</time>
      </trkpt>
      <trkpt lat="44.34664" lon="2.46858">
        <ele>545</ele>
        <time>2013-02-19T15:26:35Z</time>
      </trkpt>
      <trkpt lat="44.34668" lon="2.46846">
        <ele>546</ele>
        <time>2013-02-19T15:26:42Z</time>
      </trkpt>
      <trkpt lat="44.34673" lon="2.46834">
        <ele>547</ele>
        <time>2013-02-19T15:26:49Z</time>
      </trkpt>
      <trkpt lat="44.34678" lon="2.46824">
        <ele>547</ele>
        <time>2013-02-19T15:26:56Z</time>
      </trkpt>
      <trkpt lat="44.34694" lon="2.46812">
        <ele>546</ele>
        <time>2013-02-19T15:27:04Z</time>
      </trkpt>
      <trkpt lat="44.34703" lon="2.46807">
        <ele>545</ele>
        <time>2013-02-19T15:27:06Z</time>
      </trkpt>
      <trkpt lat="44.3472" lon="2.4679">
        <ele>544</ele>
        <time>2013-02-19T15:27:11Z</time>
      </trkpt>
      <trkpt lat="44.34729" lon="2.46777">
        <ele>543</ele>
        <time>2013-02-19T15:27:13Z</time>
      </trkpt>
      <trkpt lat="44.34738" lon="2.46763">
        <ele>543</ele>
        <time>2013-02-19T15:27:15Z</time>
      </trkpt>
      <trkpt lat="44.34746" lon="2.46748">
        <ele>544</ele>
        <time>2013-02-19T15:27:17Z</time>
      </trkpt>
      <trkpt lat="44.34752" lon="2.46734">
        <ele>545</ele>
        <time>2013-02-19T15:27:19Z</time>
      </trkpt>
      <trkpt lat="44.34758" lon="2.46722">
        <ele>547</ele>
        <time>2013-02-19T15:27:21Z</time>
      </trkpt>
      <trkpt lat="44.34765" lon="2.46707">
        <ele>550</ele>
        <time>2013-02-19T15:27:24Z</time>
      </trkpt>
      <trkpt lat="44.3477" lon="2.46694">
        <ele>553</ele>
        <time>2013-02-19T15:27:28Z</time>
      </trkpt>
      <trkpt lat="44.34776" lon="2.46682">
        <ele>555</ele>
        <time>2013-02-19T15:27:31Z</time>
      </trkpt>
      <trkpt lat="44.34782" lon="2.46674">
        <ele>558</ele>
        <time>2013-02-19T15:27:35Z</time>
      </trkpt>
      <trkpt lat="44.34791" lon="2.46667">
        <ele>558</ele>
        <time>2013-02-19T15:27:43Z</time>
      </trkpt>
      <trkpt lat="44.34799" lon="2.46658">
        <ele>556</ele>
        <time>2013-02-19T15:27:49Z</time>
      </trkpt>
      <trkpt lat="44.34814" lon="2.46658">
        <ele>554</ele>
        <time>2013-02-19T15:28:04Z</time>
      </trkpt>
      <trkpt lat="44.34824" lon="2.4666">
        <ele>554</ele>
        <time>2013-02-19T15:28:14Z</time>
      </trkpt>
      <trkpt lat="44.34836" lon="2.4666">
        <ele>555</ele>
        <time>2013-02-19T15:28:17Z</time>
      </trkpt>
      <trkpt lat="44.3485" lon="2.46659">
        <ele>558</ele>
        <time>2013-02-19T15:28:22Z</time>
      </trkpt>
      <trkpt lat="44.3486" lon="2.46656">
        <ele>560</ele>
        <time>2013-02-19T15:28:27Z</time>
      </trkpt>
      <trkpt lat="44.34869" lon="2.4665">
        <ele>561</ele>
        <time>2013-02-19T15:28:32Z</time>
      </trkpt>
      <trkpt lat="44.34879" lon="2.46649">
        <ele>561</ele>
        <time>2013-02-19T15:28:39Z</time>
      </trkpt>
      <trkpt lat="44.34889" lon="2.46644">
        <ele>559</ele>
        <time>2013-02-19T15:28:48Z</time>
      </trkpt>
      <trkpt lat="44.34898" lon="2.46641">
        <ele>558</ele>
        <time>2013-02-19T15:28:54Z</time>
      </trkpt>
      <trkpt lat="44.34906" lon="2.46634">
        <ele>558</ele>
        <time>2013-02-19T15:28:59Z</time>
      </trkpt>
      <trkpt lat="44.34911" lon="2.46628">
        <ele>558</ele>
        <time>2013-02-19T15:29:03Z</time>
      </trkpt>
      <trkpt lat="44.34916" lon="2.46618">
        <ele>559</ele>
        <time>2013-02-19T15:29:08Z</time>
      </trkpt>
      <trkpt lat="44.34923" lon="2.46607">
        <ele>562</ele>
        <time>2013-02-19T15:29:14Z</time>
      </trkpt>
      <trkpt lat="44.3493" lon="2.46597">
        <ele>564</ele>
        <time>2013-02-19T15:29:23Z</time>
      </trkpt>
      <trkpt lat="44.34938" lon="2.4659">
        <ele>562</ele>
        <time>2013-02-19T15:29:29Z</time>
      </trkpt>
      <trkpt lat="44.34946" lon="2.4658">
        <ele>561</ele>
        <time>2013-02-19T15:29:36Z</time>
      </trkpt>
      <trkpt lat="44.34955" lon="2.46574">
        <ele>561</ele>
        <time>2013-02-19T15:29:44Z</time>
      </trkpt>
      <trkpt lat="44.34965" lon="2.46566">
        <ele>562</ele>
        <time>2013-02-19T15:29:55Z</time>
      </trkpt>
      <trkpt lat="44.34974" lon="2.46558">
        <ele>560</ele>
        <time>2013-02-19T15:30:01Z</time>
      </trkpt>
      <trkpt lat="44.34982" lon="2.46551">
        <ele>559</ele>
        <time>2013-02-19T15:30:06Z</time>
      </trkpt>
      <trkpt lat="44.3499" lon="2.46545">
        <ele>558</ele>
        <time>2013-02-19T15:30:12Z</time>
      </trkpt>
      <trkpt lat="44.34994" lon="2.46542">
        <ele>558</ele>
        <time>2013-02-19T15:30:15Z</time>
      </trkpt>
      <trkpt lat="44.35001" lon="2.46536">
        <ele>558</ele>
        <time>2013-02-19T15:30:19Z</time>
      </trkpt>
      <trkpt lat="44.35006" lon="2.46532">
        <ele>557</ele>
        <time>2013-02-19T15:30:21Z</time>
      </trkpt>
      <trkpt lat="44.35013" lon="2.46532">
        <ele>555</ele>
        <time>2013-02-19T15:30:24Z</time>
      </trkpt>
      <trkpt lat="44.35017" lon="2.46529">
        <ele>553</ele>
        <time>2013-02-19T15:30:27Z</time>
      </trkpt>
      <trkpt lat="44.35023" lon="2.46528">
        <ele>551</ele>
        <time>2013-02-19T15:30:31Z</time>
      </trkpt>
      <trkpt lat="44.35029" lon="2.46527">
        <ele>551</ele>
        <time>2013-02-19T15:30:34Z</time>
      </trkpt>
      <trkpt lat="44.35033" lon="2.46524">
        <ele>550</ele>
        <time>2013-02-19T15:30:38Z</time>
      </trkpt>
      <trkpt lat="44.35038" lon="2.46523">
        <ele>550</ele>
        <time>2013-02-19T15:30:43Z</time>
      </trkpt>
      <trkpt lat="44.35048" lon="2.46522">
        <ele>546</ele>
        <time>2013-02-19T15:30:53Z</time>
      </trkpt>
      <trkpt lat="44.35057" lon="2.46519">
        <ele>547</ele>
        <time>2013-02-19T15:31:02Z</time>
      </trkpt>
      <trkpt lat="44.35067" lon="2.46519">
        <ele>547</ele>
        <time>2013-02-19T15:31:08Z</time>
      </trkpt>
      <trkpt lat="44.35078" lon="2.46515">
        <ele>544</ele>
        <time>2013-02-19T15:31:14Z</time>
      </trkpt>
      <trkpt lat="44.35088" lon="2.4651">
        <ele>543</ele>
        <time>2013-02-19T15:31:20Z</time>
      </trkpt>
      <trkpt lat="44.35097" lon="2.46505">
        <ele>540</ele>
        <time>2013-02-19T15:31:30Z</time>
      </trkpt>
      <trkpt lat="44.35106" lon="2.46503">
        <ele>541</ele>
        <time>2013-02-19T15:31:38Z</time>
      </trkpt>
      <trkpt lat="44.35116" lon="2.46493">
        <ele>540</ele>
        <time>2013-02-19T15:31:43Z</time>
      </trkpt>
      <trkpt lat="44.35123" lon="2.46486">
        <ele>542</ele>
        <time>2013-02-19T15:31:46Z</time>
      </trkpt>
      <trkpt lat="44.35125" lon="2.4648">
        <ele>542</ele>
        <time>2013-02-19T15:31:49Z</time>
      </trkpt>
      <trkpt lat="44.35129" lon="2.46468">
        <ele>543</ele>
        <time>2013-02-19T15:31:55Z</time>
      </trkpt>
      <trkpt lat="44.35133" lon="2.46462">
        <ele>542</ele>
        <time>2013-02-19T15:31:59Z</time>
      </trkpt>
      <trkpt lat="44.35137" lon="2.46456">
        <ele>542</ele>
        <time>2013-02-19T15:32:02Z</time>
      </trkpt>
      <trkpt lat="44.3514" lon="2.46451">
        <ele>541</ele>
        <time>2013-02-19T15:32:06Z</time>
      </trkpt>
      <trkpt lat="44.35145" lon="2.46446">
        <ele>540</ele>
        <time>2013-02-19T15:32:09Z</time>
      </trkpt>
      <trkpt lat="44.35149" lon="2.46444">
        <ele>540</ele>
        <time>2013-02-19T15:32:12Z</time>
      </trkpt>
      <trkpt lat="44.35158" lon="2.46439">
        <ele>540</ele>
        <time>2013-02-19T15:32:16Z</time>
      </trkpt>
      <trkpt lat="44.35169" lon="2.46436">
        <ele>540</ele>
        <time>2013-02-19T15:32:18Z</time>
      </trkpt>
      <trkpt lat="44.35181" lon="2.46431">
        <ele>540</ele>
        <time>2013-02-19T15:32:20Z</time>
      </trkpt>
      <trkpt lat="44.35192" lon="2.46428">
        <ele>541</ele>
        <time>2013-02-19T15:32:22Z</time>
      </trkpt>
      <trkpt lat="44.35201" lon="2.46426">
        <ele>542</ele>
        <time>2013-02-19T15:32:24Z</time>
      </trkpt>
      <trkpt lat="44.35212" lon="2.46422">
        <ele>542</ele>
        <time>2013-02-19T15:32:26Z</time>
      </trkpt>
      <trkpt lat="44.35223" lon="2.46418">
        <ele>543</ele>
        <time>2013-02-19T15:32:28Z</time>
      </trkpt>
      <trkpt lat="44.35232" lon="2.46414">
        <ele>543</ele>
        <time>2013-02-19T15:32:30Z</time>
      </trkpt>
      <trkpt lat="44.35245" lon="2.46409">
        <ele>544</ele>
        <time>2013-02-19T15:32:33Z</time>
      </trkpt>
      <trkpt lat="44.35257" lon="2.46405">
        <ele>545</ele>
        <time>2013-02-19T15:32:35Z</time>
      </trkpt>
      <trkpt lat="44.35271" lon="2.464">
        <ele>546</ele>
        <time>2013-02-19T15:32:37Z</time>
      </trkpt>
      <trkpt lat="44.35284" lon="2.46397">
        <ele>547</ele>
        <time>2013-02-19T15:32:39Z</time>
      </trkpt>
      <trkpt lat="44.35294" lon="2.46394">
        <ele>548</ele>
        <time>2013-02-19T15:32:41Z</time>
      </trkpt>
      <trkpt lat="44.35308" lon="2.46391">
        <ele>550</ele>
        <time>2013-02-19T15:32:43Z</time>
      </trkpt>
      <trkpt lat="44.35317" lon="2.4639">
        <ele>551</ele>
        <time>2013-02-19T15:32:46Z</time>
      </trkpt>
      <trkpt lat="44.35326" lon="2.46389">
        <ele>552</ele>
        <time>2013-02-19T15:32:48Z</time>
      </trkpt>
      <trkpt lat="44.35339" lon="2.46388">
        <ele>552</ele>
        <time>2013-02-19T15:32:51Z</time>
      </trkpt>
      <trkpt lat="44.3535" lon="2.46388">
        <ele>553</ele>
        <time>2013-02-19T15:32:54Z</time>
      </trkpt>
      <trkpt lat="44.3536" lon="2.46386">
        <ele>555</ele>
        <time>2013-02-19T15:32:56Z</time>
      </trkpt>
      <trkpt lat="44.35371" lon="2.46382">
        <ele>556</ele>
        <time>2013-02-19T15:32:58Z</time>
      </trkpt>
      <trkpt lat="44.35384" lon="2.46376">
        <ele>557</ele>
        <time>2013-02-19T15:33:00Z</time>
      </trkpt>
      <trkpt lat="44.35397" lon="2.46371">
        <ele>558</ele>
        <time>2013-02-19T15:33:02Z</time>
      </trkpt>
      <trkpt lat="44.3541" lon="2.46364">
        <ele>559</ele>
        <time>2013-02-19T15:33:04Z</time>
      </trkpt>
      <trkpt lat="44.35422" lon="2.46355">
        <ele>561</ele>
        <time>2013-02-19T15:33:06Z</time>
      </trkpt>
      <trkpt lat="44.35435" lon="2.46347">
        <ele>563</ele>
        <time>2013-02-19T15:33:08Z</time>
      </trkpt>
      <trkpt lat="44.35446" lon="2.4634">
        <ele>564</ele>
        <time>2013-02-19T15:33:10Z</time>
      </trkpt>
      <trkpt lat="44.35454" lon="2.46335">
        <ele>565</ele>
        <time>2013-02-19T15:33:12Z</time>
      </trkpt>
      <trkpt lat="44.35466" lon="2.46331">
        <ele>566</ele>
        <time>2013-02-19T15:33:15Z</time>
      </trkpt>
      <trkpt lat="44.35476" lon="2.46325">
        <ele>568</ele>
        <time>2013-02-19T15:33:18Z</time>
      </trkpt>
      <trkpt lat="44.35487" lon="2.4632">
        <ele>570</ele>
        <time>2013-02-19T15:33:21Z</time>
      </trkpt>
      <trkpt lat="44.35501" lon="2.46314">
        <ele>577</ele>
        <time>2013-02-19T15:33:29Z</time>
      </trkpt>
      <trkpt lat="44.35513" lon="2.4631">
        <ele>580</ele>
        <time>2013-02-19T15:33:33Z</time>
      </trkpt>
      <trkpt lat="44.35524" lon="2.46307">
        <ele>582</ele>
        <time>2013-02-19T15:33:35Z</time>
      </trkpt>
      <trkpt lat="44.35539" lon="2.46305">
        <ele>583</ele>
        <time>2013-02-19T15:33:37Z</time>
      </trkpt>
      <trkpt lat="44.35553" lon="2.46304">
        <ele>585</ele>
        <time>2013-02-19T15:33:39Z</time>
      </trkpt>
      <trkpt lat="44.35562" lon="2.46305">
        <ele>586</ele>
        <time>2013-02-19T15:33:41Z</time>
      </trkpt>
      <trkpt lat="44.3557" lon="2.46315">
        <ele>587</ele>
        <time>2013-02-19T15:33:44Z</time>
      </trkpt>
      <trkpt lat="44.35566" lon="2.46329">
        <ele>588</ele>
        <time>2013-02-19T15:33:49Z</time>
      </trkpt>
      <trkpt lat="44.35555" lon="2.46341">
        <ele>589</ele>
        <time>2013-02-19T15:33:53Z</time>
      </trkpt>
      <trkpt lat="44.35547" lon="2.4635">
        <ele>590</ele>
        <time>2013-02-19T15:33:55Z</time>
      </trkpt>
      <trkpt lat="44.35538" lon="2.46361">
        <ele>591</ele>
        <time>2013-02-19T15:33:57Z</time>
      </trkpt>
      <trkpt lat="44.35528" lon="2.46372">
        <ele>592</ele>
        <time>2013-02-19T15:33:59Z</time>
      </trkpt>
      <trkpt lat="44.35519" lon="2.46384">
        <ele>592</ele>
        <time>2013-02-19T15:34:01Z</time>
      </trkpt>
      <trkpt lat="44.3551" lon="2.46401">
        <ele>593</ele>
        <time>2013-02-19T15:34:02Z</time>
      </trkpt>
      <trkpt lat="44.35505" lon="2.46408">
        <ele>594</ele>
        <time>2013-02-19T15:34:04Z</time>
      </trkpt>
      <trkpt lat="44.355" lon="2.46415">
        <ele>595</ele>
        <time>2013-02-19T15:34:05Z</time>
      </trkpt>
      <trkpt lat="44.35491" lon="2.46429">
        <ele>597</ele>
        <time>2013-02-19T15:34:07Z</time>
      </trkpt>
      <trkpt lat="44.35481" lon="2.46443">
        <ele>599</ele>
        <time>2013-02-19T15:34:09Z</time>
      </trkpt>
      <trkpt lat="44.35472" lon="2.46456">
        <ele>600</ele>
        <time>2013-02-19T15:34:11Z</time>
      </trkpt>
      <trkpt lat="44.35463" lon="2.46469">
        <ele>602</ele>
        <time>2013-02-19T15:34:13Z</time>
      </trkpt>
      <trkpt lat="44.35458" lon="2.46477">
        <ele>603</ele>
        <time>2013-02-19T15:34:14Z</time>
      </trkpt>
      <trkpt lat="44.35453" lon="2.46484">
        <ele>603</ele>
        <time>2013-02-19T15:34:15Z</time>
      </trkpt>
      <trkpt lat="44.35447" lon="2.46491">
        <ele>604</ele>
        <time>2013-02-19T15:34:16Z</time>
      </trkpt>
      <trkpt lat="44.35442" lon="2.46498">
        <ele>604</ele>
        <time>2013-02-19T15:34:17Z</time>
      </trkpt>
      <trkpt lat="44.35437" lon="2.46505">
        <ele>604</ele>
        <time>2013-02-19T15:34:18Z</time>
      </trkpt>
      <trkpt lat="44.35431" lon="2.46512">
        <ele>604</ele>
        <time>2013-02-19T15:34:19Z</time>
      </trkpt>
      <trkpt lat="44.35425" lon="2.4652">
        <ele>604</ele>
        <time>2013-02-19T15:34:20Z</time>
      </trkpt>
      <trkpt lat="44.35419" lon="2.46527">
        <ele>604</ele>
        <time>2013-02-19T15:34:21Z</time>
      </trkpt>
      <trkpt lat="44.35407" lon="2.46541">
        <ele>605</ele>
        <time>2013-02-19T15:34:23Z</time>
      </trkpt>
      <trkpt lat="44.35395" lon="2.46556">
        <ele>604</ele>
        <time>2013-02-19T15:34:24Z</time>
      </trkpt>
      <trkpt lat="44.35389" lon="2.46563">
        <ele>605</ele>
        <time>2013-02-19T15:34:26Z</time>
      </trkpt>
      <trkpt lat="44.35383" lon="2.46569">
        <ele>605</ele>
        <time>2013-02-19T15:34:27Z</time>
      </trkpt>
      <trkpt lat="44.35377" lon="2.46576">
        <ele>605</ele>
        <time>2013-02-19T15:34:28Z</time>
      </trkpt>
      <trkpt lat="44.35371" lon="2.46582">
        <ele>605</ele>
        <time>2013-02-19T15:34:29Z</time>
      </trkpt>
      <trkpt lat="44.35359" lon="2.46594">
        <ele>606</ele>
        <time>2013-02-19T15:34:31Z</time>
      </trkpt>
      <trkpt lat="44.35346" lon="2.46607">
        <ele>606</ele>
        <time>2013-02-19T15:34:32Z</time>
      </trkpt>
      <trkpt lat="44.35334" lon="2.46622">
        <ele>606</ele>
        <time>2013-02-19T15:34:35Z</time>
      </trkpt>
      <trkpt lat="44.35324" lon="2.46639">
        <ele>606</ele>
        <time>2013-02-19T15:34:37Z</time>
      </trkpt>
      <trkpt lat="44.35316" lon="2.46658">
        <ele>606</ele>
        <time>2013-02-19T15:34:39Z</time>
      </trkpt>
      <trkpt lat="44.35309" lon="2.46678">
        <ele>607</ele>
        <time>2013-02-19T15:34:41Z</time>
      </trkpt>
      <trkpt lat="44.35303" lon="2.46695">
        <ele>608</ele>
        <time>2013-02-19T15:34:43Z</time>
      </trkpt>
      <trkpt lat="44.35298" lon="2.46711">
        <ele>608</ele>
        <time>2013-02-19T15:34:45Z</time>
      </trkpt>
      <trkpt lat="44.35294" lon="2.46726">
        <ele>609</ele>
        <time>2013-02-19T15:34:47Z</time>
      </trkpt>
      <trkpt lat="44.3529" lon="2.4674">
        <ele>610</ele>
        <time>2013-02-19T15:34:49Z</time>
      </trkpt>
      <trkpt lat="44.35285" lon="2.46756">
        <ele>610</ele>
        <time>2013-02-19T15:34:51Z</time>
      </trkpt>
      <trkpt lat="44.35279" lon="2.4677">
        <ele>611</ele>
        <time>2013-02-19T15:34:53Z</time>
      </trkpt>
      <trkpt lat="44.35273" lon="2.46785">
        <ele>612</ele>
        <time>2013-02-19T15:34:55Z</time>
      </trkpt>
      <trkpt lat="44.35268" lon="2.46798">
        <ele>613</ele>
        <time>2013-02-19T15:34:57Z</time>
      </trkpt>
      <trkpt lat="44.35263" lon="2.46811">
        <ele>614</ele>
        <time>2013-02-19T15:34:59Z</time>
      </trkpt>
      <trkpt lat="44.35258" lon="2.46823">
        <ele>615</ele>
        <time>2013-02-19T15:35:01Z</time>
      </trkpt>
      <trkpt lat="44.35252" lon="2.46838">
        <ele>615</ele>
        <time>2013-02-19T15:35:04Z</time>
      </trkpt>
      <trkpt lat="44.35243" lon="2.4686">
        <ele>614</ele>
        <time>2013-02-19T15:35:09Z</time>
      </trkpt>
      <trkpt lat="44.35237" lon="2.46875">
        <ele>615</ele>
        <time>2013-02-19T15:35:12Z</time>
      </trkpt>
      <trkpt lat="44.35232" lon="2.46886">
        <ele>617</ele>
        <time>2013-02-19T15:35:14Z</time>
      </trkpt>
      <trkpt lat="44.35226" lon="2.46897">
        <ele>619</ele>
        <time>2013-02-19T15:35:16Z</time>
      </trkpt>
      <trkpt lat="44.35218" lon="2.46907">
        <ele>621</ele>
        <time>2013-02-19T15:35:18Z</time>
      </trkpt>
      <trkpt lat="44.35211" lon="2.46918">
        <ele>623</ele>
        <time>2013-02-19T15:35:21Z</time>
      </trkpt>
      <trkpt lat="44.35204" lon="2.46928">
        <ele>623</ele>
        <time>2013-02-19T15:35:26Z</time>
      </trkpt>
      <trkpt lat="44.35197" lon="2.46941">
        <ele>624</ele>
        <time>2013-02-19T15:35:31Z</time>
      </trkpt>
      <trkpt lat="44.35186" lon="2.46953">
        <ele>625</ele>
        <time>2013-02-19T15:35:39Z</time>
      </trkpt>
      <trkpt lat="44.35181" lon="2.46956">
        <ele>626</ele>
        <time>2013-02-19T15:35:41Z</time>
      </trkpt>
      <trkpt lat="44.35176" lon="2.4696">
        <ele>627</ele>
        <time>2013-02-19T15:35:46Z</time>
      </trkpt>
      <trkpt lat="44.35169" lon="2.46968">
        <ele>626</ele>
        <time>2013-02-19T15:35:52Z</time>
      </trkpt>
      <trkpt lat="44.35162" lon="2.46975">
        <ele>626</ele>
        <time>2013-02-19T15:35:58Z</time>
      </trkpt>
      <trkpt lat="44.35157" lon="2.46978">
        <ele>625</ele>
        <time>2013-02-19T15:36:01Z</time>
      </trkpt>
      <trkpt lat="44.35166" lon="2.46971">
        <ele>625</ele>
        <time>2013-02-19T15:36:15Z</time>
      </trkpt>
      <trkpt lat="44.35171" lon="2.46966">
        <ele>626</ele>
        <time>2013-02-19T15:36:20Z</time>
      </trkpt>
      <trkpt lat="44.35175" lon="2.46963">
        <ele>627</ele>
        <time>2013-02-19T15:36:23Z</time>
      </trkpt>
      <trkpt lat="44.35179" lon="2.46958">
        <ele>628</ele>
        <time>2013-02-19T15:36:26Z</time>
      </trkpt>
      <trkpt lat="44.35183" lon="2.46953">
        <ele>629</ele>
        <time>2013-02-19T15:36:30Z</time>
      </trkpt>
      <trkpt lat="44.35187" lon="2.46948">
        <ele>628</ele>
        <time>2013-02-19T15:36:33Z</time>
      </trkpt>
      <trkpt lat="44.3519" lon="2.46944">
        <ele>628</ele>
        <time>2013-02-19T15:36:36Z</time>
      </trkpt>
      <trkpt lat="44.35195" lon="2.46939">
        <ele>627</ele>
        <time>2013-02-19T15:36:39Z</time>
      </trkpt>
      <trkpt lat="44.352" lon="2.46934">
        <ele>627</ele>
        <time>2013-02-19T15:36:43Z</time>
      </trkpt>
      <trkpt lat="44.35204" lon="2.46929">
        <ele>627</ele>
        <time>2013-02-19T15:36:46Z</time>
      </trkpt>
      <trkpt lat="44.35194" lon="2.46935">
        <ele>629</ele>
        <time>2013-02-19T15:37:01Z</time>
      </trkpt>
      <trkpt lat="44.3519" lon="2.46939">
        <ele>629</ele>
        <time>2013-02-19T15:37:04Z</time>
      </trkpt>
      <trkpt lat="44.35186" lon="2.46944">
        <ele>629</ele>
        <time>2013-02-19T15:37:08Z</time>
      </trkpt>
      <trkpt lat="44.35182" lon="2.46949">
        <ele>629</ele>
        <time>2013-02-19T15:37:12Z</time>
      </trkpt>
      <trkpt lat="44.35177" lon="2.46954">
        <ele>628</ele>
        <time>2013-02-19T15:37:16Z</time>
      </trkpt>
      <trkpt lat="44.35173" lon="2.46957">
        <ele>627</ele>
        <time>2013-02-19T15:37:19Z</time>
      </trkpt>
      <trkpt lat="44.35167" lon="2.4696">
        <ele>627</ele>
        <time>2013-02-19T15:37:24Z</time>
      </trkpt>
      <trkpt lat="44.35163" lon="2.46967">
        <ele>625</ele>
        <time>2013-02-19T15:37:28Z</time>
      </trkpt>
      <trkpt lat="44.35153" lon="2.46979">
        <ele>624</ele>
        <time>2013-02-19T15:37:34Z</time>
      </trkpt>
      <trkpt lat="44.35148" lon="2.46981">
        <ele>624</ele>
        <time>2013-02-19T15:37:36Z</time>
      </trkpt>
      <trkpt lat="44.35142" lon="2.46984">
        <ele>627</ele>
        <time>2013-02-19T15:37:41Z</time>
      </trkpt>
      <trkpt lat="44.35133" lon="2.46999">
        <ele>623</ele>
        <time>2013-02-19T15:37:52Z</time>
      </trkpt>
      <trkpt lat="44.3513" lon="2.47005">
        <ele>623</ele>
        <time>2013-02-19T15:37:55Z</time>
      </trkpt>
      <trkpt lat="44.35127" lon="2.47011">
        <ele>624</ele>
        <time>2013-02-19T15:37:58Z</time>
      </trkpt>
      <trkpt lat="44.35122" lon="2.47017">
        <ele>625</ele>
        <time>2013-02-19T15:38:01Z</time>
      </trkpt>
      <trkpt lat="44.35119" lon="2.47022">
        <ele>626</ele>
        <time>2013-02-19T15:38:04Z</time>
      </trkpt>
      <trkpt lat="44.35114" lon="2.47027">
        <ele>626</ele>
        <time>2013-02-19T15:38:08Z</time>
      </trkpt>
      <trkpt lat="44.3511" lon="2.47031">
        <ele>625</ele>
        <time>2013-02-19T15:38:11Z</time>
      </trkpt>
      <trkpt lat="44.35105" lon="2.47036">
        <ele>625</ele>
        <time>2013-02-19T15:38:14Z</time>
      </trkpt>
      <trkpt lat="44.35102" lon="2.4704">
        <ele>626</ele>
        <time>2013-02-19T15:38:17Z</time>
      </trkpt>
      <trkpt lat="44.35098" lon="2.47044">
        <ele>627</ele>
        <time>2013-02-19T15:38:20Z</time>
      </trkpt>
      <trkpt lat="44.35093" lon="2.47048">
        <ele>628</ele>
        <time>2013-02-19T15:38:23Z</time>
      </trkpt>
      <trkpt lat="44.3509" lon="2.47053">
        <ele>628</ele>
        <time>2013-02-19T15:38:26Z</time>
      </trkpt>
      <trkpt lat="44.35086" lon="2.47057">
        <ele>629</ele>
        <time>2013-02-19T15:38:29Z</time>
      </trkpt>
      <trkpt lat="44.35082" lon="2.47062">
        <ele>631</ele>
        <time>2013-02-19T15:38:33Z</time>
      </trkpt>
      <trkpt lat="44.35078" lon="2.47067">
        <ele>632</ele>
        <time>2013-02-19T15:38:36Z</time>
      </trkpt>
      <trkpt lat="44.35074" lon="2.47073">
        <ele>632</ele>
        <time>2013-02-19T15:38:39Z</time>
      </trkpt>
      <trkpt lat="44.35071" lon="2.47078">
        <ele>632</ele>
        <time>2013-02-19T15:38:41Z</time>
      </trkpt>
      <trkpt lat="44.35069" lon="2.47084">
        <ele>633</ele>
        <time>2013-02-19T15:38:44Z</time>
      </trkpt>
      <trkpt lat="44.35066" lon="2.4709">
        <ele>633</ele>
        <time>2013-02-19T15:38:47Z</time>
      </trkpt>
      <trkpt lat="44.35063" lon="2.47102">
        <ele>632</ele>
        <time>2013-02-19T15:38:52Z</time>
      </trkpt>
      <trkpt lat="44.35059" lon="2.47109">
        <ele>630</ele>
        <time>2013-02-19T15:38:56Z</time>
      </trkpt>
      <trkpt lat="44.35055" lon="2.47114">
        <ele>629</ele>
        <time>2013-02-19T15:38:59Z</time>
      </trkpt>
      <trkpt lat="44.35052" lon="2.4712">
        <ele>630</ele>
        <time>2013-02-19T15:39:03Z</time>
      </trkpt>
      <trkpt lat="44.35048" lon="2.47127">
        <ele>630</ele>
        <time>2013-02-19T15:39:07Z</time>
      </trkpt>
      <trkpt lat="44.35042" lon="2.47138">
        <ele>631</ele>
        <time>2013-02-19T15:39:12Z</time>
      </trkpt>
      <trkpt lat="44.35036" lon="2.4715">
        <ele>632</ele>
        <time>2013-02-19T15:39:16Z</time>
      </trkpt>
      <trkpt lat="44.3503" lon="2.47161">
        <ele>632</ele>
        <time>2013-02-19T15:39:21Z</time>
      </trkpt>
      <trkpt lat="44.35027" lon="2.47167">
        <ele>631</ele>
        <time>2013-02-19T15:39:24Z</time>
      </trkpt>
      <trkpt lat="44.35024" lon="2.47172">
        <ele>631</ele>
        <time>2013-02-19T15:39:28Z</time>
      </trkpt>
      <trkpt lat="44.35022" lon="2.47177">
        <ele>631</ele>
        <time>2013-02-19T15:39:32Z</time>
      </trkpt>
      <trkpt lat="44.35019" lon="2.47183">
        <ele>632</ele>
        <time>2013-02-19T15:39:35Z</time>
      </trkpt>
      <trkpt lat="44.35016" lon="2.47189">
        <ele>632</ele>
        <time>2013-02-19T15:39:38Z</time>
      </trkpt>
      <trkpt lat="44.35012" lon="2.47196">
        <ele>633</ele>
        <time>2013-02-19T15:39:42Z</time>
      </trkpt>
      <trkpt lat="44.35009" lon="2.47203">
        <ele>633</ele>
        <time>2013-02-19T15:39:45Z</time>
      </trkpt>
      <trkpt lat="44.35007" lon="2.47209">
        <ele>634</ele>
        <time>2013-02-19T15:39:48Z</time>
      </trkpt>
      <trkpt lat="44.35004" lon="2.47216">
        <ele>634</ele>
        <time>2013-02-19T15:39:51Z</time>
      </trkpt>
      <trkpt lat="44.35002" lon="2.47222">
        <ele>634</ele>
        <time>2013-02-19T15:39:54Z</time>
      </trkpt>
      <trkpt lat="44.34998" lon="2.47231">
        <ele>633</ele>
        <time>2013-02-19T15:39:59Z</time>
      </trkpt>
      <trkpt lat="44.34994" lon="2.47237">
        <ele>632</ele>
        <time>2013-02-19T15:40:03Z</time>
      </trkpt>
      <trkpt lat="44.34992" lon="2.47244">
        <ele>633</ele>
        <time>2013-02-19T15:40:07Z</time>
      </trkpt>
      <trkpt lat="44.34989" lon="2.47251">
        <ele>634</ele>
        <time>2013-02-19T15:40:11Z</time>
      </trkpt>
      <trkpt lat="44.34985" lon="2.47259">
        <ele>633</ele>
        <time>2013-02-19T15:40:15Z</time>
      </trkpt>
      <trkpt lat="44.34983" lon="2.47267">
        <ele>633</ele>
        <time>2013-02-19T15:40:18Z</time>
      </trkpt>
      <trkpt lat="44.34982" lon="2.47274">
        <ele>632</ele>
        <time>2013-02-19T15:40:20Z</time>
      </trkpt>
      <trkpt lat="44.34982" lon="2.47282">
        <ele>630</ele>
        <time>2013-02-19T15:40:23Z</time>
      </trkpt>
      <trkpt lat="44.34981" lon="2.4729">
        <ele>628</ele>
        <time>2013-02-19T15:40:26Z</time>
      </trkpt>
      <trkpt lat="44.34981" lon="2.47297">
        <ele>626</ele>
        <time>2013-02-19T15:40:29Z</time>
      </trkpt>
      <trkpt lat="44.3498" lon="2.47307">
        <ele>625</ele>
        <time>2013-02-19T15:40:33Z</time>
      </trkpt>
      <trkpt lat="44.34979" lon="2.47314">
        <ele>625</ele>
        <time>2013-02-19T15:40:36Z</time>
      </trkpt>
      <trkpt lat="44.34979" lon="2.47322">
        <ele>625</ele>
        <time>2013-02-19T15:40:40Z</time>
      </trkpt>
      <trkpt lat="44.34978" lon="2.4733">
        <ele>625</ele>
        <time>2013-02-19T15:40:43Z</time>
      </trkpt>
      <trkpt lat="44.34978" lon="2.47337">
        <ele>625</ele>
        <time>2013-02-19T15:40:46Z</time>
      </trkpt>
      <trkpt lat="44.34977" lon="2.47344">
        <ele>625</ele>
        <time>2013-02-19T15:40:49Z</time>
      </trkpt>
      <trkpt lat="44.34977" lon="2.47351">
        <ele>625</ele>
        <time>2013-02-19T15:40:52Z</time>
      </trkpt>
      <trkpt lat="44.34977" lon="2.47358">
        <ele>626</ele>
        <time>2013-02-19T15:40:55Z</time>
      </trkpt>
      <trkpt lat="44.34976" lon="2.47365">
        <ele>627</ele>
        <time>2013-02-19T15:40:58Z</time>
      </trkpt>
      <trkpt lat="44.34975" lon="2.47375">
        <ele>628</ele>
        <time>2013-02-19T15:41:03Z</time>
      </trkpt>
      <trkpt lat="44.34974" lon="2.47382">
        <ele>629</ele>
        <time>2013-02-19T15:41:06Z</time>
      </trkpt>
      <trkpt lat="44.34973" lon="2.47395">
        <ele>629</ele>
        <time>2013-02-19T15:41:12Z</time>
      </trkpt>
      <trkpt lat="44.34972" lon="2.47404">
        <ele>628</ele>
        <time>2013-02-19T15:41:15Z</time>
      </trkpt>
      <trkpt lat="44.34972" lon="2.47415">
        <ele>628</ele>
        <time>2013-02-19T15:41:20Z</time>
      </trkpt>
      <trkpt lat="44.34973" lon="2.47423">
        <ele>628</ele>
        <time>2013-02-19T15:41:23Z</time>
      </trkpt>
      <trkpt lat="44.34973" lon="2.4743">
        <ele>628</ele>
        <time>2013-02-19T15:41:25Z</time>
      </trkpt>
      <trkpt lat="44.34973" lon="2.47438">
        <ele>628</ele>
        <time>2013-02-19T15:41:29Z</time>
      </trkpt>
      <trkpt lat="44.34973" lon="2.47445">
        <ele>628</ele>
        <time>2013-02-19T15:41:31Z</time>
      </trkpt>
      <trkpt lat="44.34973" lon="2.47452">
        <ele>628</ele>
        <time>2013-02-19T15:41:35Z</time>
      </trkpt>
      <trkpt lat="44.34972" lon="2.47458">
        <ele>628</ele>
        <time>2013-02-19T15:41:41Z</time>
      </trkpt>
      <trkpt lat="44.34969" lon="2.47458">
        <ele>630</ele>
        <time>2013-02-19T15:43:04Z</time>
      </trkpt>
      <trkpt lat="44.3497" lon="2.47466">
        <ele>629</ele>
        <time>2013-02-19T15:43:17Z</time>
      </trkpt>
      <trkpt lat="44.34972" lon="2.47473">
        <ele>628</ele>
        <time>2013-02-19T15:43:20Z</time>
      </trkpt>
      <trkpt lat="44.34973" lon="2.4748">
        <ele>627</ele>
        <time>2013-02-19T15:43:24Z</time>
      </trkpt>
      <trkpt lat="44.34973" lon="2.47487">
        <ele>626</ele>
        <time>2013-02-19T15:43:27Z</time>
      </trkpt>
      <trkpt lat="44.34973" lon="2.47494">
        <ele>626</ele>
        <time>2013-02-19T15:43:30Z</time>
      </trkpt>
      <trkpt lat="44.34973" lon="2.475">
        <ele>626</ele>
        <time>2013-02-19T15:43:33Z</time>
      </trkpt>
      <trkpt lat="44.34973" lon="2.47507">
        <ele>626</ele>
        <time>2013-02-19T15:43:36Z</time>
      </trkpt>
      <trkpt lat="44.34973" lon="2.47513">
        <ele>626</ele>
        <time>2013-02-19T15:43:39Z</time>
      </trkpt>
      <trkpt lat="44.34974" lon="2.4752">
        <ele>627</ele>
        <time>2013-02-19T15:43:43Z</time>
      </trkpt>
      <trkpt lat="44.34974" lon="2.47527">
        <ele>627</ele>
        <time>2013-02-19T15:43:45Z</time>
      </trkpt>
      <trkpt lat="44.34975" lon="2.47533">
        <ele>628</ele>
        <time>2013-02-19T15:43:48Z</time>
      </trkpt>
      <trkpt lat="44.34975" lon="2.4754">
        <ele>629</ele>
        <time>2013-02-19T15:43:51Z</time>
      </trkpt>
      <trkpt lat="44.34975" lon="2.47548">
        <ele>630</ele>
        <time>2013-02-19T15:43:55Z</time>
      </trkpt>
      <trkpt lat="44.34975" lon="2.47556">
        <ele>631</ele>
        <time>2013-02-19T15:43:58Z</time>
      </trkpt>
      <trkpt lat="44.34975" lon="2.47564">
        <ele>632</ele>
        <time>2013-02-19T15:44:02Z</time>
      </trkpt>
      <trkpt lat="44.34974" lon="2.4757">
        <ele>632</ele>
        <time>2013-02-19T15:44:05Z</time>
      </trkpt>
      <trkpt lat="44.34974" lon="2.47576">
        <ele>632</ele>
        <time>2013-02-19T15:44:08Z</time>
      </trkpt>
      <trkpt lat="44.34974" lon="2.47583">
        <ele>632</ele>
        <time>2013-02-19T15:44:11Z</time>
      </trkpt>
      <trkpt lat="44.34974" lon="2.47589">
        <ele>632</ele>
        <time>2013-02-19T15:44:14Z</time>
      </trkpt>
      <trkpt lat="44.34973" lon="2.47596">
        <ele>632</ele>
        <time>2013-02-19T15:44:17Z</time>
      </trkpt>
      <trkpt lat="44.34973" lon="2.47604">
        <ele>632</ele>
        <time>2013-02-19T15:44:21Z</time>
      </trkpt>
      <trkpt lat="44.34973" lon="2.47611">
        <ele>632</ele>
        <time>2013-02-19T15:44:24Z</time>
      </trkpt>
      <trkpt lat="44.34973" lon="2.47617">
        <ele>631</ele>
        <time>2013-02-19T15:44:27Z</time>
      </trkpt>
      <trkpt lat="44.34973" lon="2.47624">
        <ele>631</ele>
        <time>2013-02-19T15:44:30Z</time>
      </trkpt>
      <trkpt lat="44.34973" lon="2.47631">
        <ele>631</ele>
        <time>2013-02-19T15:44:33Z</time>
      </trkpt>
      <trkpt lat="44.34972" lon="2.47637">
        <ele>632</ele>
        <time>2013-02-19T15:44:36Z</time>
      </trkpt>
      <trkpt lat="44.34972" lon="2.47644">
        <ele>632</ele>
        <time>2013-02-19T15:44:39Z</time>
      </trkpt>
      <trkpt lat="44.34971" lon="2.47651">
        <ele>632</ele>
        <time>2013-02-19T15:44:42Z</time>
      </trkpt>
      <trkpt lat="44.34971" lon="2.47657">
        <ele>632</ele>
        <time>2013-02-19T15:44:46Z</time>
      </trkpt>
      <trkpt lat="44.3497" lon="2.47665">
        <ele>633</ele>
        <time>2013-02-19T15:44:49Z</time>
      </trkpt>
      <trkpt lat="44.3497" lon="2.47672">
        <ele>633</ele>
        <time>2013-02-19T15:44:52Z</time>
      </trkpt>
      <trkpt lat="44.34971" lon="2.4768">
        <ele>633</ele>
        <time>2013-02-19T15:44:55Z</time>
      </trkpt>
      <trkpt lat="44.3497" lon="2.47686">
        <ele>633</ele>
        <time>2013-02-19T15:44:58Z</time>
      </trkpt>
      <trkpt lat="44.3497" lon="2.47693">
        <ele>633</ele>
        <time>2013-02-19T15:45:01Z</time>
      </trkpt>
      <trkpt lat="44.3497" lon="2.477">
        <ele>633</ele>
        <time>2013-02-19T15:45:04Z</time>
      </trkpt>
      <trkpt lat="44.3497" lon="2.47707">
        <ele>633</ele>
        <time>2013-02-19T15:45:07Z</time>
      </trkpt>
      <trkpt lat="44.3497" lon="2.47716">
        <ele>634</ele>
        <time>2013-02-19T15:45:10Z</time>
      </trkpt>
      <trkpt lat="44.3497" lon="2.47723">
        <ele>635</ele>
        <time>2013-02-19T15:45:13Z</time>
      </trkpt>
      <trkpt lat="44.34969" lon="2.4773">
        <ele>636</ele>
        <time>2013-02-19T15:45:16Z</time>
      </trkpt>
      <trkpt lat="44.34968" lon="2.47736">
        <ele>636</ele>
        <time>2013-02-19T15:45:20Z</time>
      </trkpt>
      <trkpt lat="44.34967" lon="2.47744">
        <ele>637</ele>
        <time>2013-02-19T15:45:24Z</time>
      </trkpt>
      <trkpt lat="44.34966" lon="2.47751">
        <ele>638</ele>
        <time>2013-02-19T15:45:27Z</time>
      </trkpt>
      <trkpt lat="44.34966" lon="2.47758">
        <ele>638</ele>
        <time>2013-02-19T15:45:30Z</time>
      </trkpt>
      <trkpt lat="44.34966" lon="2.47765">
        <ele>639</ele>
        <time>2013-02-19T15:45:33Z</time>
      </trkpt>
      <trkpt lat="44.34965" lon="2.47771">
        <ele>640</ele>
        <time>2013-02-19T15:45:38Z</time>
      </trkpt>
      <trkpt lat="44.34965" lon="2.47779">
        <ele>641</ele>
        <time>2013-02-19T15:45:42Z</time>
      </trkpt>
      <trkpt lat="44.34964" lon="2.47787">
        <ele>641</ele>
        <time>2013-02-19T15:45:46Z</time>
      </trkpt>
      <trkpt lat="44.34963" lon="2.47795">
        <ele>641</ele>
        <time>2013-02-19T15:45:51Z</time>
      </trkpt>
      <trkpt lat="44.3496" lon="2.47808">
        <ele>643</ele>
        <time>2013-02-19T15:45:58Z</time>
      </trkpt>
      <trkpt lat="44.34959" lon="2.47815">
        <ele>643</ele>
        <time>2013-02-19T15:46:01Z</time>
      </trkpt>
      <trkpt lat="44.34957" lon="2.47822">
        <ele>643</ele>
        <time>2013-02-19T15:46:03Z</time>
      </trkpt>
      <trkpt lat="44.34956" lon="2.47829">
        <ele>643</ele>
        <time>2013-02-19T15:46:07Z</time>
      </trkpt>
      <trkpt lat="44.34955" lon="2.47835">
        <ele>643</ele>
        <time>2013-02-19T15:46:10Z</time>
      </trkpt>
      <trkpt lat="44.34954" lon="2.47842">
        <ele>642</ele>
        <time>2013-02-19T15:46:13Z</time>
      </trkpt>
      <trkpt lat="44.34952" lon="2.47857">
        <ele>641</ele>
        <time>2013-02-19T15:46:21Z</time>
      </trkpt>
      <trkpt lat="44.34951" lon="2.47865">
        <ele>640</ele>
        <time>2013-02-19T15:46:24Z</time>
      </trkpt>
      <trkpt lat="44.34951" lon="2.47873">
        <ele>642</ele>
        <time>2013-02-19T15:46:27Z</time>
      </trkpt>
      <trkpt lat="44.34951" lon="2.47879">
        <ele>643</ele>
        <time>2013-02-19T15:46:32Z</time>
      </trkpt>
      <trkpt lat="44.34952" lon="2.47887">
        <ele>644</ele>
        <time>2013-02-19T15:47:11Z</time>
      </trkpt>
      <trkpt lat="44.34952" lon="2.47894">
        <ele>642</ele>
        <time>2013-02-19T15:47:14Z</time>
      </trkpt>
      <trkpt lat="44.34953" lon="2.47901">
        <ele>640</ele>
        <time>2013-02-19T15:47:17Z</time>
      </trkpt>
      <trkpt lat="44.34954" lon="2.4791">
        <ele>640</ele>
        <time>2013-02-19T15:47:21Z</time>
      </trkpt>
      <trkpt lat="44.34955" lon="2.47917">
        <ele>641</ele>
        <time>2013-02-19T15:47:25Z</time>
      </trkpt>
      <trkpt lat="44.34957" lon="2.47924">
        <ele>641</ele>
        <time>2013-02-19T15:47:28Z</time>
      </trkpt>
      <trkpt lat="44.34959" lon="2.47932">
        <ele>642</ele>
        <time>2013-02-19T15:47:31Z</time>
      </trkpt>
      <trkpt lat="44.34961" lon="2.47938">
        <ele>642</ele>
        <time>2013-02-19T15:47:34Z</time>
      </trkpt>
      <trkpt lat="44.34962" lon="2.47944">
        <ele>642</ele>
        <time>2013-02-19T15:47:37Z</time>
      </trkpt>
      <trkpt lat="44.34963" lon="2.47951">
        <ele>642</ele>
        <time>2013-02-19T15:47:40Z</time>
      </trkpt>
      <trkpt lat="44.34965" lon="2.47959">
        <ele>642</ele>
        <time>2013-02-19T15:47:44Z</time>
      </trkpt>
      <trkpt lat="44.34965" lon="2.47966">
        <ele>641</ele>
        <time>2013-02-19T15:47:47Z</time>
      </trkpt>
      <trkpt lat="44.34966" lon="2.47972">
        <ele>641</ele>
        <time>2013-02-19T15:47:51Z</time>
      </trkpt>
      <trkpt lat="44.34967" lon="2.47979">
        <ele>641</ele>
        <time>2013-02-19T15:47:54Z</time>
      </trkpt>
      <trkpt lat="44.34967" lon="2.47991">
        <ele>641</ele>
        <time>2013-02-19T15:48:00Z</time>
      </trkpt>
      <trkpt lat="44.34969" lon="2.4801">
        <ele>641</ele>
        <time>2013-02-19T15:48:11Z</time>
      </trkpt>
      <trkpt lat="44.34975" lon="2.48023">
        <ele>641</ele>
        <time>2013-02-19T15:48:14Z</time>
      </trkpt>
      <trkpt lat="44.34977" lon="2.48029">
        <ele>641</ele>
        <time>2013-02-19T15:48:15Z</time>
      </trkpt>
      <trkpt lat="44.34969" lon="2.48042">
        <ele>642</ele>
        <time>2013-02-19T15:48:29Z</time>
      </trkpt>
      <trkpt lat="44.3496" lon="2.48045">
        <ele>644</ele>
        <time>2013-02-19T15:48:35Z</time>
      </trkpt>
      <trkpt lat="44.34954" lon="2.48047">
        <ele>644</ele>
        <time>2013-02-19T15:48:38Z</time>
      </trkpt>
      <trkpt lat="44.34949" lon="2.48049">
        <ele>644</ele>
        <time>2013-02-19T15:48:41Z</time>
      </trkpt>
      <trkpt lat="44.34944" lon="2.48051">
        <ele>644</ele>
        <time>2013-02-19T15:48:45Z</time>
      </trkpt>
      <trkpt lat="44.34939" lon="2.48052">
        <ele>641</ele>
        <time>2013-02-19T15:48:49Z</time>
      </trkpt>
      <trkpt lat="44.34933" lon="2.48057">
        <ele>641</ele>
        <time>2013-02-19T15:48:53Z</time>
      </trkpt>
      <trkpt lat="44.34928" lon="2.4806">
        <ele>641</ele>
        <time>2013-02-19T15:48:56Z</time>
      </trkpt>
      <trkpt lat="44.34923" lon="2.48064">
        <ele>639</ele>
        <time>2013-02-19T15:48:59Z</time>
      </trkpt>
      <trkpt lat="44.34919" lon="2.48067">
        <ele>640</ele>
        <time>2013-02-19T15:49:02Z</time>
      </trkpt>
      <trkpt lat="44.34914" lon="2.4807">
        <ele>639</ele>
        <time>2013-02-19T15:49:05Z</time>
      </trkpt>
      <trkpt lat="44.34908" lon="2.48073">
        <ele>639</ele>
        <time>2013-02-19T15:49:08Z</time>
      </trkpt>
      <trkpt lat="44.34904" lon="2.48077">
        <ele>639</ele>
        <time>2013-02-19T15:49:11Z</time>
      </trkpt>
      <trkpt lat="44.34894" lon="2.4808">
        <ele>638</ele>
        <time>2013-02-19T15:49:17Z</time>
      </trkpt>
      <trkpt lat="44.34888" lon="2.48082">
        <ele>638</ele>
        <time>2013-02-19T15:49:21Z</time>
      </trkpt>
      <trkpt lat="44.34883" lon="2.48084">
        <ele>638</ele>
        <time>2013-02-19T15:49:24Z</time>
      </trkpt>
      <trkpt lat="44.34875" lon="2.48087">
        <ele>639</ele>
        <time>2013-02-19T15:49:28Z</time>
      </trkpt>
      <trkpt lat="44.34869" lon="2.48086">
        <ele>638</ele>
        <time>2013-02-19T15:49:31Z</time>
      </trkpt>
      <trkpt lat="44.34864" lon="2.48087">
        <ele>638</ele>
        <time>2013-02-19T15:49:35Z</time>
      </trkpt>
      <trkpt lat="44.34859" lon="2.48089">
        <ele>638</ele>
        <time>2013-02-19T15:49:39Z</time>
      </trkpt>
      <trkpt lat="44.34854" lon="2.4809">
        <ele>639</ele>
        <time>2013-02-19T15:49:42Z</time>
      </trkpt>
      <trkpt lat="44.34848" lon="2.48093">
        <ele>639</ele>
        <time>2013-02-19T15:49:45Z</time>
      </trkpt>
      <trkpt lat="44.34844" lon="2.48094">
        <ele>639</ele>
        <time>2013-02-19T15:49:50Z</time>
      </trkpt>
      <trkpt lat="44.34838" lon="2.48096">
        <ele>639</ele>
        <time>2013-02-19T15:49:55Z</time>
      </trkpt>
      <trkpt lat="44.34833" lon="2.48096">
        <ele>639</ele>
        <time>2013-02-19T15:49:59Z</time>
      </trkpt>
      <trkpt lat="44.34828" lon="2.48099">
        <ele>639</ele>
        <time>2013-02-19T15:50:03Z</time>
      </trkpt>
      <trkpt lat="44.34822" lon="2.48103">
        <ele>640</ele>
        <time>2013-02-19T15:50:10Z</time>
      </trkpt>
      <trkpt lat="44.34809" lon="2.48106">
        <ele>636</ele>
        <time>2013-02-19T15:50:23Z</time>
      </trkpt>
      <trkpt lat="44.34804" lon="2.48107">
        <ele>634</ele>
        <time>2013-02-19T15:50:26Z</time>
      </trkpt>
      <trkpt lat="44.34798" lon="2.48109">
        <ele>634</ele>
        <time>2013-02-19T15:50:30Z</time>
      </trkpt>
      <trkpt lat="44.34793" lon="2.48111">
        <ele>634</ele>
        <time>2013-02-19T15:50:33Z</time>
      </trkpt>
      <trkpt lat="44.34787" lon="2.48112">
        <ele>635</ele>
        <time>2013-02-19T15:50:37Z</time>
      </trkpt>
      <trkpt lat="44.34781" lon="2.48112">
        <ele>635</ele>
        <time>2013-02-19T15:50:40Z</time>
      </trkpt>
      <trkpt lat="44.34776" lon="2.48113">
        <ele>635</ele>
        <time>2013-02-19T15:50:44Z</time>
      </trkpt>
      <trkpt lat="44.34771" lon="2.48116">
        <ele>634</ele>
        <time>2013-02-19T15:50:47Z</time>
      </trkpt>
      <trkpt lat="44.34762" lon="2.4812">
        <ele>633</ele>
        <time>2013-02-19T15:50:53Z</time>
      </trkpt>
      <trkpt lat="44.34756" lon="2.48127">
        <ele>630</ele>
        <time>2013-02-19T15:51:01Z</time>
      </trkpt>
      <trkpt lat="44.34751" lon="2.48131">
        <ele>631</ele>
        <time>2013-02-19T15:51:05Z</time>
      </trkpt>
      <trkpt lat="44.34747" lon="2.48135">
        <ele>631</ele>
        <time>2013-02-19T15:51:08Z</time>
      </trkpt>
      <trkpt lat="44.34743" lon="2.48141">
        <ele>630</ele>
        <time>2013-02-19T15:51:12Z</time>
      </trkpt>
      <trkpt lat="44.34736" lon="2.48148">
        <ele>630</ele>
        <time>2013-02-19T15:51:16Z</time>
      </trkpt>
      <trkpt lat="44.34732" lon="2.48153">
        <ele>631</ele>
        <time>2013-02-19T15:51:19Z</time>
      </trkpt>
      <trkpt lat="44.34726" lon="2.48163">
        <ele>633</ele>
        <time>2013-02-19T15:51:25Z</time>
      </trkpt>
      <trkpt lat="44.34723" lon="2.48168">
        <ele>634</ele>
        <time>2013-02-19T15:51:29Z</time>
      </trkpt>
      <trkpt lat="44.3472" lon="2.48174">
        <ele>634</ele>
        <time>2013-02-19T15:51:32Z</time>
      </trkpt>
      <trkpt lat="44.34717" lon="2.4818">
        <ele>634</ele>
        <time>2013-02-19T15:51:35Z</time>
      </trkpt>
      <trkpt lat="44.34713" lon="2.48187">
        <ele>633</ele>
        <time>2013-02-19T15:51:40Z</time>
      </trkpt>
      <trkpt lat="44.34711" lon="2.48192">
        <ele>633</ele>
        <time>2013-02-19T15:51:43Z</time>
      </trkpt>
      <trkpt lat="44.34707" lon="2.48199">
        <ele>632</ele>
        <time>2013-02-19T15:51:46Z</time>
      </trkpt>
      <trkpt lat="44.34704" lon="2.48203">
        <ele>632</ele>
        <time>2013-02-19T15:51:50Z</time>
      </trkpt>
      <trkpt lat="44.34698" lon="2.48214">
        <ele>630</ele>
        <time>2013-02-19T15:51:57Z</time>
      </trkpt>
      <trkpt lat="44.34696" lon="2.48221">
        <ele>630</ele>
        <time>2013-02-19T15:52:01Z</time>
      </trkpt>
      <trkpt lat="44.34692" lon="2.48227">
        <ele>629</ele>
        <time>2013-02-19T15:52:05Z</time>
      </trkpt>
      <trkpt lat="44.34687" lon="2.48233">
        <ele>629</ele>
        <time>2013-02-19T15:52:08Z</time>
      </trkpt>
      <trkpt lat="44.34682" lon="2.48237">
        <ele>628</ele>
        <time>2013-02-19T15:52:11Z</time>
      </trkpt>
      <trkpt lat="44.34677" lon="2.48243">
        <ele>627</ele>
        <time>2013-02-19T15:52:15Z</time>
      </trkpt>
      <trkpt lat="44.34674" lon="2.48249">
        <ele>627</ele>
        <time>2013-02-19T15:52:18Z</time>
      </trkpt>
      <trkpt lat="44.34671" lon="2.48255">
        <ele>627</ele>
        <time>2013-02-19T15:52:20Z</time>
      </trkpt>
      <trkpt lat="44.34667" lon="2.48261">
        <ele>628</ele>
        <time>2013-02-19T15:52:23Z</time>
      </trkpt>
      <trkpt lat="44.34664" lon="2.48266">
        <ele>628</ele>
        <time>2013-02-19T15:52:27Z</time>
      </trkpt>
      <trkpt lat="44.3466" lon="2.4827">
        <ele>628</ele>
        <time>2013-02-19T15:52:31Z</time>
      </trkpt>
      <trkpt lat="44.34654" lon="2.48272">
        <ele>627</ele>
        <time>2013-02-19T15:52:35Z</time>
      </trkpt>
      <trkpt lat="44.3465" lon="2.48276">
        <ele>628</ele>
        <time>2013-02-19T15:52:39Z</time>
      </trkpt>
      <trkpt lat="44.34646" lon="2.48279">
        <ele>628</ele>
        <time>2013-02-19T15:52:42Z</time>
      </trkpt>
      <trkpt lat="44.34637" lon="2.48285">
        <ele>628</ele>
        <time>2013-02-19T15:52:47Z</time>
      </trkpt>
      <trkpt lat="44.34633" lon="2.48288">
        <ele>628</ele>
        <time>2013-02-19T15:52:50Z</time>
      </trkpt>
      <trkpt lat="44.34628" lon="2.48291">
        <ele>627</ele>
        <time>2013-02-19T15:52:53Z</time>
      </trkpt>
      <trkpt lat="44.34623" lon="2.48295">
        <ele>627</ele>
        <time>2013-02-19T15:52:56Z</time>
      </trkpt>
      <trkpt lat="44.34617" lon="2.48304">
        <ele>624</ele>
        <time>2013-02-19T15:53:03Z</time>
      </trkpt>
      <trkpt lat="44.34618" lon="2.48311">
        <ele>624</ele>
        <time>2013-02-19T15:53:10Z</time>
      </trkpt>
      <trkpt lat="44.34623" lon="2.48322">
        <ele>622</ele>
        <time>2013-02-19T15:53:16Z</time>
      </trkpt>
      <trkpt lat="44.34628" lon="2.48332">
        <ele>619</ele>
        <time>2013-02-19T15:53:22Z</time>
      </trkpt>
      <trkpt lat="44.3463" lon="2.48346">
        <ele>617</ele>
        <time>2013-02-19T15:53:30Z</time>
      </trkpt>
      <trkpt lat="44.34627" lon="2.4836">
        <ele>618</ele>
        <time>2013-02-19T15:53:36Z</time>
      </trkpt>
      <trkpt lat="44.34625" lon="2.48373">
        <ele>617</ele>
        <time>2013-02-19T15:53:43Z</time>
      </trkpt>
      <trkpt lat="44.34622" lon="2.48381">
        <ele>617</ele>
        <time>2013-02-19T15:53:46Z</time>
      </trkpt>
      <trkpt lat="44.3462" lon="2.48388">
        <ele>617</ele>
        <time>2013-02-19T15:53:50Z</time>
      </trkpt>
      <trkpt lat="44.34618" lon="2.48394">
        <ele>616</ele>
        <time>2013-02-19T15:53:54Z</time>
      </trkpt>
      <trkpt lat="44.34615" lon="2.48408">
        <ele>616</ele>
        <time>2013-02-19T15:54:01Z</time>
      </trkpt>
      <trkpt lat="44.34615" lon="2.4842">
        <ele>616</ele>
        <time>2013-02-19T15:54:07Z</time>
      </trkpt>
      <trkpt lat="44.34615" lon="2.48436">
        <ele>617</ele>
        <time>2013-02-19T15:54:23Z</time>
      </trkpt>
      <trkpt lat="44.34613" lon="2.48447">
        <ele>617</ele>
        <time>2013-02-19T15:54:28Z</time>
      </trkpt>
      <trkpt lat="44.3461" lon="2.48461">
        <ele>617</ele>
        <time>2013-02-19T15:54:35Z</time>
      </trkpt>
      <trkpt lat="44.34608" lon="2.48473">
        <ele>616</ele>
        <time>2013-02-19T15:54:40Z</time>
      </trkpt>
      <trkpt lat="44.34602" lon="2.48488">
        <ele>615</ele>
        <time>2013-02-19T15:54:46Z</time>
      </trkpt>
      <trkpt lat="44.34601" lon="2.485">
        <ele>614</ele>
        <time>2013-02-19T15:54:52Z</time>
      </trkpt>
      <trkpt lat="44.34596" lon="2.48512">
        <ele>612</ele>
        <time>2013-02-19T15:55:02Z</time>
      </trkpt>
      <trkpt lat="44.34592" lon="2.48524">
        <ele>608</ele>
        <time>2013-02-19T15:55:10Z</time>
      </trkpt>
      <trkpt lat="44.34586" lon="2.48535">
        <ele>605</ele>
        <time>2013-02-19T15:55:18Z</time>
      </trkpt>
      <trkpt lat="44.34589" lon="2.48555">
        <ele>601</ele>
        <time>2013-02-19T15:55:24Z</time>
      </trkpt>
      <trkpt lat="44.34598" lon="2.48555">
        <ele>601</ele>
        <time>2013-02-19T15:55:29Z</time>
      </trkpt>
      <trkpt lat="44.34601" lon="2.48531">
        <ele>605</ele>
        <time>2013-02-19T15:55:45Z</time>
      </trkpt>
      <trkpt lat="44.3461" lon="2.48523">
        <ele>606</ele>
        <time>2013-02-19T15:55:50Z</time>
      </trkpt>
      <trkpt lat="44.34617" lon="2.4851">
        <ele>606</ele>
        <time>2013-02-19T15:56:00Z</time>
      </trkpt>
      <trkpt lat="44.34623" lon="2.485">
        <ele>605</ele>
        <time>2013-02-19T15:56:06Z</time>
      </trkpt>
      <trkpt lat="44.34628" lon="2.48489">
        <ele>603</ele>
        <time>2013-02-19T15:56:10Z</time>
      </trkpt>
      <trkpt lat="44.34634" lon="2.48478">
        <ele>599</ele>
        <time>2013-02-19T15:56:16Z</time>
      </trkpt>
      <trkpt lat="44.3464" lon="2.48479">
        <ele>595</ele>
        <time>2013-02-19T15:56:30Z</time>
      </trkpt>
      <trkpt lat="44.34636" lon="2.48492">
        <ele>594</ele>
        <time>2013-02-19T15:56:40Z</time>
      </trkpt>
      <trkpt lat="44.34632" lon="2.48504">
        <ele>593</ele>
        <time>2013-02-19T15:56:45Z</time>
      </trkpt>
      <trkpt lat="44.34631" lon="2.48518">
        <ele>591</ele>
        <time>2013-02-19T15:56:52Z</time>
      </trkpt>
      <trkpt lat="44.34631" lon="2.48528">
        <ele>593</ele>
        <time>2013-02-19T15:56:58Z</time>
      </trkpt>
      <trkpt lat="44.34628" lon="2.48542">
        <ele>594</ele>
        <time>2013-02-19T15:57:05Z</time>
      </trkpt>
      <trkpt lat="44.34626" lon="2.48556">
        <ele>596</ele>
        <time>2013-02-19T15:57:12Z</time>
      </trkpt>
      <trkpt lat="44.34621" lon="2.48567">
        <ele>597</ele>
        <time>2013-02-19T15:57:20Z</time>
      </trkpt>
      <trkpt lat="44.34617" lon="2.48578">
        <ele>595</ele>
        <time>2013-02-19T15:57:28Z</time>
      </trkpt>
      <trkpt lat="44.34612" lon="2.48589">
        <ele>595</ele>
        <time>2013-02-19T15:57:34Z</time>
      </trkpt>
      <trkpt lat="44.34607" lon="2.48602">
        <ele>595</ele>
        <time>2013-02-19T15:57:39Z</time>
      </trkpt>
      <trkpt lat="44.34613" lon="2.48607">
        <ele>594</ele>
        <time>2013-02-19T15:57:51Z</time>
      </trkpt>
      <trkpt lat="44.34619" lon="2.48612">
        <ele>589</ele>
        <time>2013-02-19T15:58:15Z</time>
      </trkpt>
      <trkpt lat="44.34619" lon="2.48628">
        <ele>587</ele>
        <time>2013-02-19T15:58:21Z</time>
      </trkpt>
      <trkpt lat="44.34617" lon="2.48647">
        <ele>586</ele>
        <time>2013-02-19T15:58:31Z</time>
      </trkpt>
      <trkpt lat="44.34618" lon="2.48661">
        <ele>586</ele>
        <time>2013-02-19T15:58:38Z</time>
      </trkpt>
      <trkpt lat="44.34619" lon="2.48675">
        <ele>585</ele>
        <time>2013-02-19T15:58:44Z</time>
      </trkpt>
      <trkpt lat="44.34616" lon="2.48689">
        <ele>583</ele>
        <time>2013-02-19T15:58:51Z</time>
      </trkpt>
      <trkpt lat="44.34611" lon="2.48702">
        <ele>583</ele>
        <time>2013-02-19T15:58:58Z</time>
      </trkpt>
      <trkpt lat="44.34609" lon="2.48707">
        <ele>583</ele>
        <time>2013-02-19T15:59:03Z</time>
      </trkpt>
      <trkpt lat="44.34606" lon="2.48721">
        <ele>582</ele>
        <time>2013-02-19T15:59:12Z</time>
      </trkpt>
      <trkpt lat="44.34602" lon="2.4873">
        <ele>581</ele>
        <time>2013-02-19T15:59:19Z</time>
      </trkpt>
      <trkpt lat="44.34598" lon="2.48742">
        <ele>580</ele>
        <time>2013-02-19T15:59:27Z</time>
      </trkpt>
      <trkpt lat="44.34593" lon="2.48753">
        <ele>580</ele>
        <time>2013-02-19T15:59:35Z</time>
      </trkpt>
      <trkpt lat="44.34589" lon="2.48765">
        <ele>580</ele>
        <time>2013-02-19T15:59:41Z</time>
      </trkpt>
      <trkpt lat="44.34585" lon="2.48777">
        <ele>581</ele>
        <time>2013-02-19T15:59:47Z</time>
      </trkpt>
      <trkpt lat="44.34583" lon="2.48783">
        <ele>581</ele>
        <time>2013-02-19T15:59:51Z</time>
      </trkpt>
      <trkpt lat="44.34582" lon="2.4879">
        <ele>582</ele>
        <time>2013-02-19T15:59:57Z</time>
      </trkpt>
      <trkpt lat="44.34579" lon="2.48802">
        <ele>583</ele>
        <time>2013-02-19T16:00:04Z</time>
      </trkpt>
      <trkpt lat="44.34578" lon="2.48809">
        <ele>584</ele>
        <time>2013-02-19T16:00:08Z</time>
      </trkpt>
      <trkpt lat="44.34577" lon="2.4882">
        <ele>587</ele>
        <time>2013-02-19T16:00:16Z</time>
      </trkpt>
      <trkpt lat="44.34577" lon="2.48827">
        <ele>589</ele>
        <time>2013-02-19T16:00:20Z</time>
      </trkpt>
      <trkpt lat="44.34576" lon="2.48834">
        <ele>590</ele>
        <time>2013-02-19T16:00:24Z</time>
      </trkpt>
      <trkpt lat="44.34574" lon="2.48844">
        <ele>589</ele>
        <time>2013-02-19T16:00:30Z</time>
      </trkpt>
      <trkpt lat="44.34573" lon="2.48852">
        <ele>590</ele>
        <time>2013-02-19T16:00:34Z</time>
      </trkpt>
      <trkpt lat="44.34571" lon="2.48859">
        <ele>591</ele>
        <time>2013-02-19T16:00:38Z</time>
      </trkpt>
      <trkpt lat="44.3457" lon="2.48866">
        <ele>593</ele>
        <time>2013-02-19T16:00:42Z</time>
      </trkpt>
      <trkpt lat="44.34569" lon="2.48873">
        <ele>595</ele>
        <time>2013-02-19T16:00:47Z</time>
      </trkpt>
      <trkpt lat="44.34574" lon="2.48876">
        <ele>596</ele>
        <time>2013-02-19T16:00:53Z</time>
      </trkpt>
      <trkpt lat="44.34578" lon="2.4887">
        <ele>597</ele>
        <time>2013-02-19T16:00:58Z</time>
      </trkpt>
      <trkpt lat="44.3458" lon="2.48865">
        <ele>597</ele>
        <time>2013-02-19T16:01:02Z</time>
      </trkpt>
      <trkpt lat="44.34584" lon="2.48857">
        <ele>598</ele>
        <time>2013-02-19T16:01:07Z</time>
      </trkpt>
      <trkpt lat="44.34588" lon="2.48853">
        <ele>599</ele>
        <time>2013-02-19T16:01:14Z</time>
      </trkpt>
      <trkpt lat="44.34591" lon="2.48849">
        <ele>600</ele>
        <time>2013-02-19T16:01:18Z</time>
      </trkpt>
      <trkpt lat="44.34596" lon="2.48842">
        <ele>603</ele>
        <time>2013-02-19T16:01:24Z</time>
      </trkpt>
      <trkpt lat="44.346" lon="2.48836">
        <ele>606</ele>
        <time>2013-02-19T16:01:30Z</time>
      </trkpt>
      <trkpt lat="44.34604" lon="2.4883">
        <ele>606</ele>
        <time>2013-02-19T16:01:34Z</time>
      </trkpt>
      <trkpt lat="44.34607" lon="2.48825">
        <ele>608</ele>
        <time>2013-02-19T16:01:39Z</time>
      </trkpt>
      <trkpt lat="44.34611" lon="2.4882">
        <ele>609</ele>
        <time>2013-02-19T16:01:43Z</time>
      </trkpt>
      <trkpt lat="44.34615" lon="2.48815">
        <ele>610</ele>
        <time>2013-02-19T16:01:46Z</time>
      </trkpt>
      <trkpt lat="44.34618" lon="2.48809">
        <ele>610</ele>
        <time>2013-02-19T16:01:49Z</time>
      </trkpt>
      <trkpt lat="44.34622" lon="2.48803">
        <ele>611</ele>
        <time>2013-02-19T16:01:52Z</time>
      </trkpt>
      <trkpt lat="44.34625" lon="2.48798">
        <ele>612</ele>
        <time>2013-02-19T16:01:55Z</time>
      </trkpt>
      <trkpt lat="44.34629" lon="2.48794">
        <ele>613</ele>
        <time>2013-02-19T16:01:58Z</time>
      </trkpt>
      <trkpt lat="44.34633" lon="2.48789">
        <ele>613</ele>
        <time>2013-02-19T16:02:02Z</time>
      </trkpt>
      <trkpt lat="44.34636" lon="2.48785">
        <ele>613</ele>
        <time>2013-02-19T16:02:07Z</time>
      </trkpt>
      <trkpt lat="44.34641" lon="2.4878">
        <ele>614</ele>
        <time>2013-02-19T16:02:12Z</time>
      </trkpt>
      <trkpt lat="44.34645" lon="2.48777">
        <ele>615</ele>
        <time>2013-02-19T16:02:16Z</time>
      </trkpt>
      <trkpt lat="44.3465" lon="2.48773">
        <ele>615</ele>
        <time>2013-02-19T16:02:20Z</time>
      </trkpt>
      <trkpt lat="44.34654" lon="2.48768">
        <ele>615</ele>
        <time>2013-02-19T16:02:24Z</time>
      </trkpt>
      <trkpt lat="44.34657" lon="2.48763">
        <ele>616</ele>
        <time>2013-02-19T16:02:28Z</time>
      </trkpt>
      <trkpt lat="44.3466" lon="2.48758">
        <ele>616</ele>
        <time>2013-02-19T16:02:33Z</time>
      </trkpt>
      <trkpt lat="44.34666" lon="2.48755">
        <ele>615</ele>
        <time>2013-02-19T16:02:40Z</time>
      </trkpt>
      <trkpt lat="44.34672" lon="2.4875">
        <ele>615</ele>
        <time>2013-02-19T16:02:44Z</time>
      </trkpt>
      <trkpt lat="44.34674" lon="2.48748">
        <ele>616</ele>
        <time>2013-02-19T16:02:50Z</time>
      </trkpt>
      <trkpt lat="44.34679" lon="2.48741">
        <ele>617</ele>
        <time>2013-02-19T16:02:55Z</time>
      </trkpt>
      <trkpt lat="44.34683" lon="2.48735">
        <ele>617</ele>
        <time>2013-02-19T16:02:59Z</time>
      </trkpt>
      <trkpt lat="44.34687" lon="2.4873">
        <ele>617</ele>
        <time>2013-02-19T16:03:03Z</time>
      </trkpt>
      <trkpt lat="44.34691" lon="2.48726">
        <ele>620</ele>
        <time>2013-02-19T16:03:09Z</time>
      </trkpt>
      <trkpt lat="44.34694" lon="2.48722">
        <ele>621</ele>
        <time>2013-02-19T16:03:13Z</time>
      </trkpt>
      <trkpt lat="44.347" lon="2.48721">
        <ele>622</ele>
        <time>2013-02-19T16:03:19Z</time>
      </trkpt>
      <trkpt lat="44.34706" lon="2.48719">
        <ele>621</ele>
        <time>2013-02-19T16:03:23Z</time>
      </trkpt>
      <trkpt lat="44.34714" lon="2.48713">
        <ele>619</ele>
        <time>2013-02-19T16:03:29Z</time>
      </trkpt>
      <trkpt lat="44.34719" lon="2.48711">
        <ele>619</ele>
        <time>2013-02-19T16:03:33Z</time>
      </trkpt>
      <trkpt lat="44.34725" lon="2.48709">
        <ele>617</ele>
        <time>2013-02-19T16:03:37Z</time>
      </trkpt>
      <trkpt lat="44.34729" lon="2.48705">
        <ele>617</ele>
        <time>2013-02-19T16:03:41Z</time>
      </trkpt>
      <trkpt lat="44.34734" lon="2.48704">
        <ele>617</ele>
        <time>2013-02-19T16:03:45Z</time>
      </trkpt>
      <trkpt lat="44.34744" lon="2.48702">
        <ele>618</ele>
        <time>2013-02-19T16:03:52Z</time>
      </trkpt>
      <trkpt lat="44.3475" lon="2.48702">
        <ele>618</ele>
        <time>2013-02-19T16:03:55Z</time>
      </trkpt>
      <trkpt lat="44.34756" lon="2.48705">
        <ele>617</ele>
        <time>2013-02-19T16:03:59Z</time>
      </trkpt>
      <trkpt lat="44.34761" lon="2.48707">
        <ele>616</ele>
        <time>2013-02-19T16:04:03Z</time>
      </trkpt>
      <trkpt lat="44.34767" lon="2.48712">
        <ele>615</ele>
        <time>2013-02-19T16:04:07Z</time>
      </trkpt>
      <trkpt lat="44.34772" lon="2.48716">
        <ele>614</ele>
        <time>2013-02-19T16:04:10Z</time>
      </trkpt>
      <trkpt lat="44.34776" lon="2.48717">
        <ele>613</ele>
        <time>2013-02-19T16:04:13Z</time>
      </trkpt>
      <trkpt lat="44.34781" lon="2.4872">
        <ele>613</ele>
        <time>2013-02-19T16:04:16Z</time>
      </trkpt>
      <trkpt lat="44.34786" lon="2.48721">
        <ele>612</ele>
        <time>2013-02-19T16:04:19Z</time>
      </trkpt>
      <trkpt lat="44.34791" lon="2.48723">
        <ele>611</ele>
        <time>2013-02-19T16:04:22Z</time>
      </trkpt>
      <trkpt lat="44.348" lon="2.48727">
        <ele>609</ele>
        <time>2013-02-19T16:04:29Z</time>
      </trkpt>
      <trkpt lat="44.34811" lon="2.48732">
        <ele>606</ele>
        <time>2013-02-19T16:04:36Z</time>
      </trkpt>
      <trkpt lat="44.34819" lon="2.48738">
        <ele>604</ele>
        <time>2013-02-19T16:04:41Z</time>
      </trkpt>
      <trkpt lat="44.34828" lon="2.48744">
        <ele>602</ele>
        <time>2013-02-19T16:04:46Z</time>
      </trkpt>
      <trkpt lat="44.34837" lon="2.48751">
        <ele>601</ele>
        <time>2013-02-19T16:04:50Z</time>
      </trkpt>
      <trkpt lat="44.34845" lon="2.48756">
        <ele>602</ele>
        <time>2013-02-19T16:04:54Z</time>
      </trkpt>
      <trkpt lat="44.34858" lon="2.48758">
        <ele>602</ele>
        <time>2013-02-19T16:05:00Z</time>
      </trkpt>
      <trkpt lat="44.34867" lon="2.48761">
        <ele>602</ele>
        <time>2013-02-19T16:05:06Z</time>
      </trkpt>
      <trkpt lat="44.34873" lon="2.48771">
        <ele>602</ele>
        <time>2013-02-19T16:05:12Z</time>
      </trkpt>
      <trkpt lat="44.34878" lon="2.48784">
        <ele>601</ele>
        <time>2013-02-19T16:05:18Z</time>
      </trkpt>
      <trkpt lat="44.34872" lon="2.48798">
        <ele>600</ele>
        <time>2013-02-19T16:05:26Z</time>
      </trkpt>
      <trkpt lat="44.34863" lon="2.48804">
        <ele>597</ele>
        <time>2013-02-19T16:05:32Z</time>
      </trkpt>
      <trkpt lat="44.34855" lon="2.48807">
        <ele>596</ele>
        <time>2013-02-19T16:05:37Z</time>
      </trkpt>
      <trkpt lat="44.34849" lon="2.48809">
        <ele>599</ele>
        <time>2013-02-19T16:05:46Z</time>
      </trkpt>
      <trkpt lat="44.34839" lon="2.4881">
        <ele>608</ele>
        <time>2013-02-19T16:06:29Z</time>
      </trkpt>
      <trkpt lat="44.34835" lon="2.48812">
        <ele>608</ele>
        <time>2013-02-19T16:06:32Z</time>
      </trkpt>
      <trkpt lat="44.34828" lon="2.48815">
        <ele>608</ele>
        <time>2013-02-19T16:06:36Z</time>
      </trkpt>
      <trkpt lat="44.34824" lon="2.48819">
        <ele>606</ele>
        <time>2013-02-19T16:06:40Z</time>
      </trkpt>
      <trkpt lat="44.34826" lon="2.4883">
        <ele>604</ele>
        <time>2013-02-19T16:06:48Z</time>
      </trkpt>
      <trkpt lat="44.34831" lon="2.4883">
        <ele>603</ele>
        <time>2013-02-19T16:06:51Z</time>
      </trkpt>
      <trkpt lat="44.34836" lon="2.48829">
        <ele>602</ele>
        <time>2013-02-19T16:06:54Z</time>
      </trkpt>
      <trkpt lat="44.3484" lon="2.48827">
        <ele>611</ele>
        <time>2013-02-19T16:07:58Z</time>
      </trkpt>
      <trkpt lat="44.3483" lon="2.48832">
        <ele>611</ele>
        <time>2013-02-19T16:08:03Z</time>
      </trkpt>
      <trkpt lat="44.34823" lon="2.4883">
        <ele>610</ele>
        <time>2013-02-19T16:08:09Z</time>
      </trkpt>
      <trkpt lat="44.34827" lon="2.48818">
        <ele>607</ele>
        <time>2013-02-19T16:08:14Z</time>
      </trkpt>
      <trkpt lat="44.34834" lon="2.48808">
        <ele>606</ele>
        <time>2013-02-19T16:08:20Z</time>
      </trkpt>
      <trkpt lat="44.3484" lon="2.48807">
        <ele>606</ele>
        <time>2013-02-19T16:08:25Z</time>
      </trkpt>
      <trkpt lat="44.34835" lon="2.48805">
        <ele>602</ele>
        <time>2013-02-19T16:09:00Z</time>
      </trkpt>
      <trkpt lat="44.34831" lon="2.48806">
        <ele>601</ele>
        <time>2013-02-19T16:13:07Z</time>
      </trkpt>
      <trkpt lat="44.34829" lon="2.48805">
        <ele>601</ele>
        <time>2013-02-19T16:13:19Z</time>
      </trkpt>
      <trkpt lat="44.34825" lon="2.48808">
        <ele>601</ele>
        <time>2013-02-19T16:13:31Z</time>
      </trkpt>
      <trkpt lat="44.3482" lon="2.4881">
        <ele>600</ele>
        <time>2013-02-19T16:13:35Z</time>
      </trkpt>
      <trkpt lat="44.34816" lon="2.48814">
        <ele>600</ele>
        <time>2013-02-19T16:13:38Z</time>
      </trkpt>
      <trkpt lat="44.34807" lon="2.48818">
        <ele>598</ele>
        <time>2013-02-19T16:13:45Z</time>
      </trkpt>
      <trkpt lat="44.34802" lon="2.48819">
        <ele>596</ele>
        <time>2013-02-19T16:13:51Z</time>
      </trkpt>
      <trkpt lat="44.34796" lon="2.48822">
        <ele>595</ele>
        <time>2013-02-19T16:13:57Z</time>
      </trkpt>
      <trkpt lat="44.34791" lon="2.48824">
        <ele>592</ele>
        <time>2013-02-19T16:14:00Z</time>
      </trkpt>
      <trkpt lat="44.3478" lon="2.48828">
        <ele>588</ele>
        <time>2013-02-19T16:14:06Z</time>
      </trkpt>
      <trkpt lat="44.34771" lon="2.4883">
        <ele>588</ele>
        <time>2013-02-19T16:14:12Z</time>
      </trkpt>
      <trkpt lat="44.34767" lon="2.48832">
        <ele>587</ele>
        <time>2013-02-19T16:14:15Z</time>
      </trkpt>
      <trkpt lat="44.34761" lon="2.48835">
        <ele>586</ele>
        <time>2013-02-19T16:14:19Z</time>
      </trkpt>
      <trkpt lat="44.34752" lon="2.48839">
        <ele>582</ele>
        <time>2013-02-19T16:14:26Z</time>
      </trkpt>
      <trkpt lat="44.34744" lon="2.48842">
        <ele>580</ele>
        <time>2013-02-19T16:14:31Z</time>
      </trkpt>
      <trkpt lat="44.34736" lon="2.48851">
        <ele>579</ele>
        <time>2013-02-19T16:14:38Z</time>
      </trkpt>
      <trkpt lat="44.34728" lon="2.48863">
        <ele>578</ele>
        <time>2013-02-19T16:14:44Z</time>
      </trkpt>
      <trkpt lat="44.34723" lon="2.48868">
        <ele>577</ele>
        <time>2013-02-19T16:14:47Z</time>
      </trkpt>
      <trkpt lat="44.34719" lon="2.48874">
        <ele>577</ele>
        <time>2013-02-19T16:14:50Z</time>
      </trkpt>
      <trkpt lat="44.34716" lon="2.48878">
        <ele>578</ele>
        <time>2013-02-19T16:14:53Z</time>
      </trkpt>
      <trkpt lat="44.34709" lon="2.48887">
        <ele>577</ele>
        <time>2013-02-19T16:14:59Z</time>
      </trkpt>
      <trkpt lat="44.34703" lon="2.48897">
        <ele>576</ele>
        <time>2013-02-19T16:15:05Z</time>
      </trkpt>
      <trkpt lat="44.34699" lon="2.48901">
        <ele>576</ele>
        <time>2013-02-19T16:15:10Z</time>
      </trkpt>
      <trkpt lat="44.34695" lon="2.48907">
        <ele>576</ele>
        <time>2013-02-19T16:15:14Z</time>
      </trkpt>
      <trkpt lat="44.34692" lon="2.48912">
        <ele>575</ele>
        <time>2013-02-19T16:15:17Z</time>
      </trkpt>
      <trkpt lat="44.34686" lon="2.48922">
        <ele>574</ele>
        <time>2013-02-19T16:15:23Z</time>
      </trkpt>
      <trkpt lat="44.34684" lon="2.48927">
        <ele>573</ele>
        <time>2013-02-19T16:15:26Z</time>
      </trkpt>
      <trkpt lat="44.34681" lon="2.48934">
        <ele>572</ele>
        <time>2013-02-19T16:15:30Z</time>
      </trkpt>
      <trkpt lat="44.34676" lon="2.48939">
        <ele>571</ele>
        <time>2013-02-19T16:15:34Z</time>
      </trkpt>
      <trkpt lat="44.34668" lon="2.48947">
        <ele>569</ele>
        <time>2013-02-19T16:15:40Z</time>
      </trkpt>
      <trkpt lat="44.34662" lon="2.48958">
        <ele>568</ele>
        <time>2013-02-19T16:15:45Z</time>
      </trkpt>
      <trkpt lat="44.34658" lon="2.48966">
        <ele>566</ele>
        <time>2013-02-19T16:15:50Z</time>
      </trkpt>
      <trkpt lat="44.34654" lon="2.48973">
        <ele>566</ele>
        <time>2013-02-19T16:15:54Z</time>
      </trkpt>
      <trkpt lat="44.34652" lon="2.48981">
        <ele>566</ele>
        <time>2013-02-19T16:15:58Z</time>
      </trkpt>
      <trkpt lat="44.34651" lon="2.48989">
        <ele>565</ele>
        <time>2013-02-19T16:16:01Z</time>
      </trkpt>
      <trkpt lat="44.34648" lon="2.48996">
        <ele>564</ele>
        <time>2013-02-19T16:16:05Z</time>
      </trkpt>
      <trkpt lat="44.34644" lon="2.49007">
        <ele>563</ele>
        <time>2013-02-19T16:16:12Z</time>
      </trkpt>
      <trkpt lat="44.34632" lon="2.49013">
        <ele>556</ele>
        <time>2013-02-19T16:16:50Z</time>
      </trkpt>
      <trkpt lat="44.3463" lon="2.49027">
        <ele>553</ele>
        <time>2013-02-19T16:16:57Z</time>
      </trkpt>
      <trkpt lat="44.34626" lon="2.49041">
        <ele>552</ele>
        <time>2013-02-19T16:17:03Z</time>
      </trkpt>
      <trkpt lat="44.34623" lon="2.49054">
        <ele>553</ele>
        <time>2013-02-19T16:17:08Z</time>
      </trkpt>
      <trkpt lat="44.34619" lon="2.49066">
        <ele>553</ele>
        <time>2013-02-19T16:17:12Z</time>
      </trkpt>
      <trkpt lat="44.34618" lon="2.49073">
        <ele>554</ele>
        <time>2013-02-19T16:17:16Z</time>
      </trkpt>
      <trkpt lat="44.34613" lon="2.49084">
        <ele>552</ele>
        <time>2013-02-19T16:17:23Z</time>
      </trkpt>
      <trkpt lat="44.34605" lon="2.49092">
        <ele>551</ele>
        <time>2013-02-19T16:17:29Z</time>
      </trkpt>
      <trkpt lat="44.34601" lon="2.49097">
        <ele>550</ele>
        <time>2013-02-19T16:17:31Z</time>
      </trkpt>
      <trkpt lat="44.34597" lon="2.49103">
        <ele>548</ele>
        <time>2013-02-19T16:17:36Z</time>
      </trkpt>
      <trkpt lat="44.34594" lon="2.49109">
        <ele>547</ele>
        <time>2013-02-19T16:17:39Z</time>
      </trkpt>
      <trkpt lat="44.34589" lon="2.4912">
        <ele>546</ele>
        <time>2013-02-19T16:17:45Z</time>
      </trkpt>
      <trkpt lat="44.34588" lon="2.49127">
        <ele>546</ele>
        <time>2013-02-19T16:17:48Z</time>
      </trkpt>
      <trkpt lat="44.34586" lon="2.49133">
        <ele>547</ele>
        <time>2013-02-19T16:17:51Z</time>
      </trkpt>
      <trkpt lat="44.34584" lon="2.4914">
        <ele>547</ele>
        <time>2013-02-19T16:17:55Z</time>
      </trkpt>
      <trkpt lat="44.34583" lon="2.49147">
        <ele>547</ele>
        <time>2013-02-19T16:17:59Z</time>
      </trkpt>
      <trkpt lat="44.34584" lon="2.49157">
        <ele>546</ele>
        <time>2013-02-19T16:18:04Z</time>
      </trkpt>
      <trkpt lat="44.34584" lon="2.49169">
        <ele>545</ele>
        <time>2013-02-19T16:18:09Z</time>
      </trkpt>
      <trkpt lat="44.3458" lon="2.49182">
        <ele>545</ele>
        <time>2013-02-19T16:18:15Z</time>
      </trkpt>
      <trkpt lat="44.34574" lon="2.49188">
        <ele>544</ele>
        <time>2013-02-19T16:18:20Z</time>
      </trkpt>
      <trkpt lat="44.34565" lon="2.49194">
        <ele>544</ele>
        <time>2013-02-19T16:18:27Z</time>
      </trkpt>
      <trkpt lat="44.34556" lon="2.49198">
        <ele>544</ele>
        <time>2013-02-19T16:18:33Z</time>
      </trkpt>
      <trkpt lat="44.34551" lon="2.49203">
        <ele>545</ele>
        <time>2013-02-19T16:18:37Z</time>
      </trkpt>
      <trkpt lat="44.34547" lon="2.49209">
        <ele>545</ele>
        <time>2013-02-19T16:18:40Z</time>
      </trkpt>
      <trkpt lat="44.34545" lon="2.49214">
        <ele>545</ele>
        <time>2013-02-19T16:18:43Z</time>
      </trkpt>
      <trkpt lat="44.34541" lon="2.49219">
        <ele>544</ele>
        <time>2013-02-19T16:18:47Z</time>
      </trkpt>
      <trkpt lat="44.34536" lon="2.49217">
        <ele>544</ele>
        <time>2013-02-19T16:18:51Z</time>
      </trkpt>
      <trkpt lat="44.34533" lon="2.49213">
        <ele>545</ele>
        <time>2013-02-19T16:18:55Z</time>
      </trkpt>
      <trkpt lat="44.34527" lon="2.4921">
        <ele>545</ele>
        <time>2013-02-19T16:18:59Z</time>
      </trkpt>
      <trkpt lat="44.34518" lon="2.49205">
        <ele>544</ele>
        <time>2013-02-19T16:19:06Z</time>
      </trkpt>
      <trkpt lat="44.3451" lon="2.49197">
        <ele>542</ele>
        <time>2013-02-19T16:19:10Z</time>
      </trkpt>
      <trkpt lat="44.34501" lon="2.49201">
        <ele>537</ele>
        <time>2013-02-19T16:19:34Z</time>
      </trkpt>
      <trkpt lat="44.34495" lon="2.49213">
        <ele>536</ele>
        <time>2013-02-19T16:19:40Z</time>
      </trkpt>
      <trkpt lat="44.34493" lon="2.49226">
        <ele>536</ele>
        <time>2013-02-19T16:19:45Z</time>
      </trkpt>
      <trkpt lat="44.34491" lon="2.49232">
        <ele>536</ele>
        <time>2013-02-19T16:19:48Z</time>
      </trkpt>
      <trkpt lat="44.34489" lon="2.49244">
        <ele>533</ele>
        <time>2013-02-19T16:19:58Z</time>
      </trkpt>
      <trkpt lat="44.34483" lon="2.49254">
        <ele>533</ele>
        <time>2013-02-19T16:20:18Z</time>
      </trkpt>
      <trkpt lat="44.3448" lon="2.49261">
        <ele>533</ele>
        <time>2013-02-19T16:20:21Z</time>
      </trkpt>
      <trkpt lat="44.34478" lon="2.49267">
        <ele>532</ele>
        <time>2013-02-19T16:20:24Z</time>
      </trkpt>
      <trkpt lat="44.34474" lon="2.49279">
        <ele>533</ele>
        <time>2013-02-19T16:20:31Z</time>
      </trkpt>
      <trkpt lat="44.34469" lon="2.49287">
        <ele>533</ele>
        <time>2013-02-19T16:20:36Z</time>
      </trkpt>
      <trkpt lat="44.34464" lon="2.49291">
        <ele>532</ele>
        <time>2013-02-19T16:20:39Z</time>
      </trkpt>
      <trkpt lat="44.34457" lon="2.49301">
        <ele>532</ele>
        <time>2013-02-19T16:20:45Z</time>
      </trkpt>
      <trkpt lat="44.3445" lon="2.4931">
        <ele>530</ele>
        <time>2013-02-19T16:20:50Z</time>
      </trkpt>
      <trkpt lat="44.34442" lon="2.49322">
        <ele>529</ele>
        <time>2013-02-19T16:20:57Z</time>
      </trkpt>
      <trkpt lat="44.34436" lon="2.49332">
        <ele>528</ele>
        <time>2013-02-19T16:21:02Z</time>
      </trkpt>
      <trkpt lat="44.34434" lon="2.49338">
        <ele>528</ele>
        <time>2013-02-19T16:21:04Z</time>
      </trkpt>
      <trkpt lat="44.34431" lon="2.49344">
        <ele>528</ele>
        <time>2013-02-19T16:21:06Z</time>
      </trkpt>
      <trkpt lat="44.34428" lon="2.4935">
        <ele>527</ele>
        <time>2013-02-19T16:21:08Z</time>
      </trkpt>
      <trkpt lat="44.34422" lon="2.4936">
        <ele>526</ele>
        <time>2013-02-19T16:21:11Z</time>
      </trkpt>
      <trkpt lat="44.34418" lon="2.49366">
        <ele>526</ele>
        <time>2013-02-19T16:21:13Z</time>
      </trkpt>
      <trkpt lat="44.34415" lon="2.49372">
        <ele>526</ele>
        <time>2013-02-19T16:21:15Z</time>
      </trkpt>
      <trkpt lat="44.34412" lon="2.49377">
        <ele>526</ele>
        <time>2013-02-19T16:21:17Z</time>
      </trkpt>
      <trkpt lat="44.34409" lon="2.49383">
        <ele>526</ele>
        <time>2013-02-19T16:21:19Z</time>
      </trkpt>
      <trkpt lat="44.34406" lon="2.49388">
        <ele>526</ele>
        <time>2013-02-19T16:21:21Z</time>
      </trkpt>
      <trkpt lat="44.34402" lon="2.49393">
        <ele>526</ele>
        <time>2013-02-19T16:21:23Z</time>
      </trkpt>
      <trkpt lat="44.34396" lon="2.49403">
        <ele>526</ele>
        <time>2013-02-19T16:21:28Z</time>
      </trkpt>
      <trkpt lat="44.34392" lon="2.49409">
        <ele>525</ele>
        <time>2013-02-19T16:21:30Z</time>
      </trkpt>
      <trkpt lat="44.34389" lon="2.49415">
        <ele>525</ele>
        <time>2013-02-19T16:21:32Z</time>
      </trkpt>
      <trkpt lat="44.34385" lon="2.49421">
        <ele>524</ele>
        <time>2013-02-19T16:21:34Z</time>
      </trkpt>
      <trkpt lat="44.34382" lon="2.49426">
        <ele>524</ele>
        <time>2013-02-19T16:21:36Z</time>
      </trkpt>
      <trkpt lat="44.34378" lon="2.49433">
        <ele>524</ele>
        <time>2013-02-19T16:21:39Z</time>
      </trkpt>
      <trkpt lat="44.34374" lon="2.49438">
        <ele>525</ele>
        <time>2013-02-19T16:21:41Z</time>
      </trkpt>
      <trkpt lat="44.34372" lon="2.49444">
        <ele>524</ele>
        <time>2013-02-19T16:21:43Z</time>
      </trkpt>
      <trkpt lat="44.34368" lon="2.49449">
        <ele>525</ele>
        <time>2013-02-19T16:21:45Z</time>
      </trkpt>
      <trkpt lat="44.34365" lon="2.49453">
        <ele>525</ele>
        <time>2013-02-19T16:21:47Z</time>
      </trkpt>
      <trkpt lat="44.34361" lon="2.49457">
        <ele>524</ele>
        <time>2013-02-19T16:21:49Z</time>
      </trkpt>
      <trkpt lat="44.34357" lon="2.49461">
        <ele>524</ele>
        <time>2013-02-19T16:21:51Z</time>
      </trkpt>
      <trkpt lat="44.34352" lon="2.49465">
        <ele>524</ele>
        <time>2013-02-19T16:21:53Z</time>
      </trkpt>
      <trkpt lat="44.34348" lon="2.49468">
        <ele>524</ele>
        <time>2013-02-19T16:21:55Z</time>
      </trkpt>
      <trkpt lat="44.34344" lon="2.49471">
        <ele>524</ele>
        <time>2013-02-19T16:21:57Z</time>
      </trkpt>
      <trkpt lat="44.34339" lon="2.49473">
        <ele>524</ele>
        <time>2013-02-19T16:21:59Z</time>
      </trkpt>
      <trkpt lat="44.34335" lon="2.49476">
        <ele>524</ele>
        <time>2013-02-19T16:22:01Z</time>
      </trkpt>
      <trkpt lat="44.3433" lon="2.49478">
        <ele>525</ele>
        <time>2013-02-19T16:22:03Z</time>
      </trkpt>
      <trkpt lat="44.34325" lon="2.4948">
        <ele>525</ele>
        <time>2013-02-19T16:22:05Z</time>
      </trkpt>
      <trkpt lat="44.34319" lon="2.49481">
        <ele>525</ele>
        <time>2013-02-19T16:22:08Z</time>
      </trkpt>
      <trkpt lat="44.34315" lon="2.49481">
        <ele>525</ele>
        <time>2013-02-19T16:22:10Z</time>
      </trkpt>
      <trkpt lat="44.3431" lon="2.49482">
        <ele>524</ele>
        <time>2013-02-19T16:22:12Z</time>
      </trkpt>
      <trkpt lat="44.34305" lon="2.49488">
        <ele>524</ele>
        <time>2013-02-19T16:22:15Z</time>
      </trkpt>
      <trkpt lat="44.34303" lon="2.49493">
        <ele>523</ele>
        <time>2013-02-19T16:22:17Z</time>
      </trkpt>
      <trkpt lat="44.34297" lon="2.49503">
        <ele>523</ele>
        <time>2013-02-19T16:22:20Z</time>
      </trkpt>
      <trkpt lat="44.34292" lon="2.49508">
        <ele>522</ele>
        <time>2013-02-19T16:22:22Z</time>
      </trkpt>
      <trkpt lat="44.34287" lon="2.49513">
        <ele>522</ele>
        <time>2013-02-19T16:22:24Z</time>
      </trkpt>
      <trkpt lat="44.34283" lon="2.49519">
        <ele>522</ele>
        <time>2013-02-19T16:22:26Z</time>
      </trkpt>
      <trkpt lat="44.34278" lon="2.49525">
        <ele>522</ele>
        <time>2013-02-19T16:22:28Z</time>
      </trkpt>
      <trkpt lat="44.34274" lon="2.49531">
        <ele>523</ele>
        <time>2013-02-19T16:22:30Z</time>
      </trkpt>
      <trkpt lat="44.34269" lon="2.49536">
        <ele>523</ele>
        <time>2013-02-19T16:22:32Z</time>
      </trkpt>
      <trkpt lat="44.34265" lon="2.4954">
        <ele>523</ele>
        <time>2013-02-19T16:22:34Z</time>
      </trkpt>
      <trkpt lat="44.3426" lon="2.4954">
        <ele>524</ele>
        <time>2013-02-19T16:22:37Z</time>
      </trkpt>
      <trkpt lat="44.34259" lon="2.49534">
        <ele>524</ele>
        <time>2013-02-19T16:22:40Z</time>
      </trkpt>
      <trkpt lat="44.34263" lon="2.4953">
        <ele>524</ele>
        <time>2013-02-19T16:22:42Z</time>
      </trkpt>
      <trkpt lat="44.34265" lon="2.4954">
        <ele>524</ele>
        <time>2013-02-19T16:22:48Z</time>
      </trkpt>
      <trkpt lat="44.3426" lon="2.49539">
        <ele>523</ele>
        <time>2013-02-19T16:22:55Z</time>
      </trkpt>
      <trkpt lat="44.34264" lon="2.4954">
        <ele>524</ele>
        <time>2013-02-19T16:23:25Z</time>
      </trkpt>
      <trkpt lat="44.34268" lon="2.49542">
        <ele>524</ele>
        <time>2013-02-19T16:23:29Z</time>
      </trkpt>
      <trkpt lat="44.34267" lon="2.49535">
        <ele>524</ele>
        <time>2013-02-19T16:23:35Z</time>
      </trkpt>
      <trkpt lat="44.34263" lon="2.49536">
        <ele>524</ele>
        <time>2013-02-19T16:23:38Z</time>
      </trkpt>
      <trkpt lat="44.34264" lon="2.49531">
        <ele>525</ele>
        <time>2013-02-19T16:24:07Z</time>
      </trkpt>
      <trkpt lat="44.34268" lon="2.49536">
        <ele>525</ele>
        <time>2013-02-19T16:24:12Z</time>
      </trkpt>
      <trkpt lat="44.34265" lon="2.49538">
        <ele>525</ele>
        <time>2013-02-19T16:24:20Z</time>
      </trkpt>
      <trkpt lat="44.34266" lon="2.4954">
        <ele>525</ele>
        <time>2013-02-19T16:24:38Z</time>
      </trkpt>
      <trkpt lat="44.34268" lon="2.49546">
        <ele>525</ele>
        <time>2013-02-19T16:24:42Z</time>
      </trkpt>
      <trkpt lat="44.3427" lon="2.49555">
        <ele>525</ele>
        <time>2013-02-19T16:24:47Z</time>
      </trkpt>
      <trkpt lat="44.34272" lon="2.49563">
        <ele>525</ele>
        <time>2013-02-19T16:25:00Z</time>
      </trkpt>
      <trkpt lat="44.34274" lon="2.4957">
        <ele>525</ele>
        <time>2013-02-19T16:25:03Z</time>
      </trkpt>
      <trkpt lat="44.34277" lon="2.49582">
        <ele>527</ele>
        <time>2013-02-19T16:25:11Z</time>
      </trkpt>
      <trkpt lat="44.3428" lon="2.49594">
        <ele>527</ele>
        <time>2013-02-19T16:25:17Z</time>
      </trkpt>
      <trkpt lat="44.34283" lon="2.496">
        <ele>528</ele>
        <time>2013-02-19T16:25:21Z</time>
      </trkpt>
      <trkpt lat="44.34284" lon="2.49607">
        <ele>530</ele>
        <time>2013-02-19T16:25:25Z</time>
      </trkpt>
      <trkpt lat="44.34285" lon="2.49614">
        <ele>531</ele>
        <time>2013-02-19T16:25:29Z</time>
      </trkpt>
      <trkpt lat="44.34286" lon="2.4962">
        <ele>531</ele>
        <time>2013-02-19T16:25:32Z</time>
      </trkpt>
      <trkpt lat="44.34287" lon="2.49627">
        <ele>533</ele>
        <time>2013-02-19T16:25:36Z</time>
      </trkpt>
      <trkpt lat="44.34288" lon="2.49631">
        <ele>533</ele>
        <time>2013-02-19T16:25:47Z</time>
      </trkpt>
      <trkpt lat="44.34288" lon="2.49635">
        <ele>533</ele>
        <time>2013-02-19T16:28:59Z</time>
      </trkpt>
      <trkpt lat="44.34292" lon="2.49641">
        <ele>534</ele>
        <time>2013-02-19T16:29:08Z</time>
      </trkpt>
      <trkpt lat="44.34292" lon="2.49645">
        <ele>536</ele>
        <time>2013-02-19T16:29:19Z</time>
      </trkpt>
      <trkpt lat="44.34291" lon="2.49648">
        <ele>537</ele>
        <time>2013-02-19T16:29:35Z</time>
      </trkpt>
      <trkpt lat="44.34293" lon="2.49652">
        <ele>536</ele>
        <time>2013-02-19T16:30:08Z</time>
      </trkpt>
      <trkpt lat="44.34295" lon="2.49652">
        <ele>534</ele>
        <time>2013-02-19T16:30:31Z</time>
      </trkpt>
      <trkpt lat="44.34298" lon="2.49657">
        <ele>535</ele>
        <time>2013-02-19T16:30:37Z</time>
      </trkpt>
      <trkpt lat="44.34296" lon="2.49655">
        <ele>534</ele>
        <time>2013-02-19T16:31:38Z</time>
      </trkpt>
      <trkpt lat="44.34294" lon="2.49652">
        <ele>534</ele>
        <time>2013-02-19T16:32:12Z</time>
      </trkpt>
      <trkpt lat="44.34294" lon="2.49649">
        <ele>534</ele>
        <time>2013-02-19T16:32:30Z</time>
      </trkpt>
      <trkpt lat="44.34297" lon="2.49646">
        <ele>533</ele>
        <time>2013-02-19T16:33:01Z</time>
      </trkpt>
      <trkpt lat="44.34294" lon="2.49639">
        <ele>533</ele>
        <time>2013-02-19T16:33:06Z</time>
      </trkpt>
      <trkpt lat="44.34292" lon="2.49636">
        <ele>530</ele>
        <time>2013-02-19T16:33:18Z</time>
      </trkpt>
    </trkseg>
  </trk>
</gpx>